Darstellungsparameter: Aktuell verwendete Einstellungen:
Skalierung der Graphiken ... ?
xyx+y,   Skalierungsfaktor:      Skalierung: Modus: x, Faktor: 1
Darstellungszeitraum ... ?
Vom - - bis: - -   Zeitraum: 16.07.2010 - 15.08.2010
Min/Max/Avg-Anzeige ... ?
Zeige MMA aktuell
Zeige MMA Monat
Zeige MMA alles
Zeige --A aktuell
Zeige --A Monat
Zeige --A alles
Keine MMA-Anzeige
MMA:
Average (ber die Originaldaten)
MMA-Basis: 16.07.2010 - 15.08.2010
Quicknavigation für Darstellung... ?
Tage:      1T, 2T, 3T, 5T -1T -2T -3T -5T +1T +2T +3T +5T
Wochen: 1W, 2W, 3W -1W -2W -3W +1W +2W +3W
Monate: 1M, 3M, 6M -1M -3M -6M +1M +3M +6M
Jahre:    1J, 3J, 5J, 10J -1J -3J -5J -10J +1J +3J +5J +10J
Nutze für die Darstellung ... ?
Originaldaten oder Mittelwerte auf ...
Stundenbasis Tagesbasis Wochenbasis
Monatsbasis Jahresbasis      Datenbasis: Original-Daten
Darstellen als:
Statistik (Auto) Statistik J:M      Darstellung:
Zur Graphik,    zurück zur Übersicht aller Sensoren.
 
Tabellarische Datenbersicht: ?
 
Sensor: Nr:Datum:Temp:Abs-Feuchte:Windchill:Wind:
Aussen-T/F 1 16-07-2010 00:05:01 19.1 C 6.72 g/m*3 19.1 C 0 km/h
2 16-07-2010 00:17:01 18.8 C 6.93 g/m*3 18.8 C 0 km/h
3 16-07-2010 00:29:01 18.6 C 6.84 g/m*3 18.6 C 0 km/h
4 16-07-2010 00:41:01 18.3 C 7.04 g/m*3 18.3 C 0 km/h
5 16-07-2010 00:53:01 18.2 C 6.99 g/m*3 18.2 C 0 km/h
6 16-07-2010 01:05:01 18.1 C 7.11 g/m*3 18.1 C 0 km/h
7 16-07-2010 01:17:01 17.9 C 7.18 g/m*3 17.9 C 0 km/h
8 16-07-2010 01:29:01 17.7 C 7.24 g/m*3 17.7 C 0 km/h
9 16-07-2010 01:41:01 17.6 C 7.5 g/m*3 17.6 C 0 km/h
10 16-07-2010 01:53:01 17.5 C 7.45 g/m*3 17.5 C 0 km/h
11 16-07-2010 02:05:01 17.1 C 7.57 g/m*3 17.1 C 0 km/h
12 16-07-2010 02:17:01 16.9 C 7.77 g/m*3 16.9 C 0 km/h
13 16-07-2010 02:29:01 16.8 C 8.01 g/m*3 16.8 C 0 km/h
14 16-07-2010 02:41:01 16.5 C 8 g/m*3 16.5 C 0 km/h
15 16-07-2010 02:53:01 16.4 C 8.1 g/m*3 16.4 C 0 km/h
16 16-07-2010 03:05:01 16.3 C 8.05 g/m*3 16.3 C 0 km/h
17 16-07-2010 03:17:01 16.1 C 8.09 g/m*3 16.1 C 0 km/h
18 16-07-2010 03:29:01 16 C 8.17 g/m*3 16 C 0 km/h
19 16-07-2010 03:41:01 15.8 C 8.21 g/m*3 15.8 C 0 km/h
20 16-07-2010 03:53:01 15.6 C 7.98 g/m*3 15.6 C 0 km/h
21 16-07-2010 04:05:01 15.5 C 8.06 g/m*3 15.5 C 0 km/h
22 16-07-2010 04:17:01 15.4 C 8.15 g/m*3 15.4 C 0 km/h
23 16-07-2010 04:29:02 15.2 C 8.31 g/m*3 15.2 C 0 km/h
24 16-07-2010 04:41:02 15 C 8.08 g/m*3 15 C 0 km/h
25 16-07-2010 04:53:02 15 C 8.21 g/m*3 15 C 0 km/h
Sensor: Nr:Datum:Temp:Abs-Feuchte:Windchill:Wind:
Aussen-T/F 26 16-07-2010 05:05:02 14.8 C 8.36 g/m*3 14.8 C 0 km/h
27 16-07-2010 05:17:02 14.7 C 8.31 g/m*3 14.7 C 0 km/h
28 16-07-2010 05:29:02 14.6 C 8.13 g/m*3 14.6 C 0 km/h
29 16-07-2010 05:41:02 14.6 C 8.26 g/m*3 14.6 C 0 km/h
30 16-07-2010 05:53:02 14.5 C 8.46 g/m*3 14.5 C 0 km/h
31 16-07-2010 06:05:02 14.4 C 8.41 g/m*3 14.4 C 0 km/h
32 16-07-2010 06:17:02 14.3 C 8.48 g/m*3 14.3 C 0 km/h
33 16-07-2010 06:29:02 14.4 C 8.65 g/m*3 14.4 C 0 km/h
34 16-07-2010 06:41:02 14.5 C 8.71 g/m*3 14.5 C 0 km/h
35 16-07-2010 06:53:02 14.7 C 8.81 g/m*3 14.7 C 0 km/h
36 16-07-2010 07:05:02 14.8 C 8.87 g/m*3 14.8 C 0 km/h
37 16-07-2010 07:17:02 14.9 C 8.92 g/m*3 14.9 C 0 km/h
38 16-07-2010 07:29:02 15.2 C 8.83 g/m*3 15.2 C 0 km/h
39 16-07-2010 07:41:02 15.3 C 8.88 g/m*3 15.3 C 0 km/h
40 16-07-2010 07:53:02 15.6 C 8.91 g/m*3 15.6 C 0 km/h
41 16-07-2010 08:05:02 15.9 C 8.94 g/m*3 15.9 C 0 km/h
42 16-07-2010 08:17:02 16.2 C 8.83 g/m*3 16.2 C 0 km/h
43 16-07-2010 08:29:02 16.6 C 9.04 g/m*3 16.6 C 0 km/h
44 16-07-2010 08:41:03 17 C 8.97 g/m*3 17 C 0 km/h
45 16-07-2010 08:53:03 17.4 C 9.19 g/m*3 17.4 C 0 km/h
46 16-07-2010 09:05:03 18.1 C 9.27 g/m*3 18.1 C 0 km/h
47 16-07-2010 09:17:03 19 C 9.45 g/m*3 19 C 0 km/h
48 16-07-2010 09:29:03 19.6 C 9.45 g/m*3 19.6 C 0 km/h
49 16-07-2010 09:41:03 20.4 C 9.2 g/m*3 20.4 C 0 km/h
50 16-07-2010 09:53:03 21.3 C 9.32 g/m*3 21.3 C 0 km/h
Sensor: Nr:Datum:Temp:Abs-Feuchte:Windchill:Wind:
Aussen-T/F 51 16-07-2010 10:05:03 22.1 C 9.17 g/m*3 22.1 C 0 km/h
52 16-07-2010 10:17:03 23 C 9.25 g/m*3 23 C 0 km/h
53 16-07-2010 10:29:03 23.8 C 9.25 g/m*3 23.8 C 0 km/h
54 16-07-2010 10:41:03 24.2 C 8.14 g/m*3 24.2 C 0 km/h
55 16-07-2010 10:53:03 24.9 C 7.55 g/m*3 24.9 C 0 km/h
56 16-07-2010 11:05:03 25.6 C 7.14 g/m*3 25.6 C 0 km/h
57 16-07-2010 11:17:03 26 C 5.11 g/m*3 26 C 0 km/h
58 16-07-2010 11:29:03 26.3 C 5.69 g/m*3 26.3 C 0 km/h
59 16-07-2010 11:41:03 26.5 C 5.51 g/m*3 26.5 C 0 km/h
60 16-07-2010 11:53:03 26.9 C 5.63 g/m*3 26.9 C 0 km/h
61 16-07-2010 12:05:03 27.3 C 5.49 g/m*3 27.3 C 0 km/h
62 16-07-2010 12:17:03 27.9 C 5.41 g/m*3 27.9 C 0 km/h
63 16-07-2010 12:29:03 28.6 C 5.62 g/m*3 28.6 C 0 km/h
64 16-07-2010 12:41:03 29.2 C 5.81 g/m*3 29.2 C 0 km/h
65 16-07-2010 12:53:04 29.7 C 5.97 g/m*3 29.7 C 0 km/h
66 16-07-2010 13:05:04 30 C 6.06 g/m*3 30 C 0 km/h
67 16-07-2010 13:17:04 30.6 C 6.26 g/m*3 30.6 C 0 km/h
68 16-07-2010 13:29:04 30.5 C 6.23 g/m*3 30.5 C 0 km/h
69 16-07-2010 13:41:04 31.4 C 6.54 g/m*3 31.4 C 0 km/h
70 16-07-2010 13:53:04 30.9 C 6.37 g/m*3 30.9 C 0 km/h
71 16-07-2010 14:05:04 31.1 C 6.43 g/m*3 31.1 C 0 km/h
72 16-07-2010 14:17:04 30.7 C 6.3 g/m*3 30.7 C 0 km/h
73 16-07-2010 14:29:04 31.1 C 6.43 g/m*3 31.1 C 0 km/h
74 16-07-2010 14:41:04 31.2 C 6.47 g/m*3 31.2 C 0 km/h
75 16-07-2010 14:53:04 31.2 C 6.47 g/m*3 31.2 C 0 km/h
Sensor: Nr:Datum:Temp:Abs-Feuchte:Windchill:Wind:
Aussen-T/F 76 16-07-2010 15:05:04 31.5 C 6.57 g/m*3 31.5 C 0 km/h
77 16-07-2010 15:17:04 31.5 C 6.57 g/m*3 31.5 C 0 km/h
78 16-07-2010 15:29:04 31.9 C 6.72 g/m*3 31.9 C 0 km/h
79 16-07-2010 15:41:04 32.1 C 6.79 g/m*3 32.1 C 0 km/h
80 16-07-2010 15:53:04 32.3 C 6.86 g/m*3 32.3 C 0 km/h
81 16-07-2010 16:05:04 32.4 C 6.9 g/m*3 32.4 C 0 km/h
82 16-07-2010 16:17:04 32.3 C 6.86 g/m*3 32.3 C 0 km/h
83 16-07-2010 16:29:04 32.6 C 6.97 g/m*3 32.6 C 0 km/h
84 16-07-2010 16:41:04 32.4 C 6.9 g/m*3 32.4 C 0 km/h
85 16-07-2010 16:53:05 32.5 C 6.93 g/m*3 32.5 C 0 km/h
86 16-07-2010 17:05:05 32.5 C 6.93 g/m*3 32.5 C 0 km/h
87 16-07-2010 17:17:05 32.5 C 6.93 g/m*3 32.5 C 0 km/h
88 16-07-2010 17:29:05 32.5 C 6.93 g/m*3 32.5 C 0 km/h
89 16-07-2010 17:41:05 32.8 C 7.04 g/m*3 32.8 C 0 km/h
90 16-07-2010 17:53:05 32.5 C 6.93 g/m*3 32.5 C 0 km/h
91 16-07-2010 18:05:05 32.8 C 7.04 g/m*3 32.8 C 0 km/h
92 16-07-2010 18:17:05 32.7 C 7.01 g/m*3 32.7 C 0 km/h
93 16-07-2010 18:29:05 32.7 C 7.01 g/m*3 32.7 C 0 km/h
94 16-07-2010 18:41:05 32.7 C 7.01 g/m*3 32.7 C 0 km/h
95 16-07-2010 18:53:05 32.7 C 7.01 g/m*3 32.7 C 0 km/h
96 16-07-2010 19:05:05 32 C 6.75 g/m*3 32 C 0 km/h
97 16-07-2010 19:17:05 31.7 C 6.64 g/m*3 31.7 C 0 km/h
98 16-07-2010 19:29:05 31.3 C 6.5 g/m*3 31.3 C 0 km/h
99 16-07-2010 19:41:05 30.8 C 6.33 g/m*3 30.8 C 0 km/h
100 16-07-2010 19:53:05 30.4 C 6.51 g/m*3 30.4 C 0 km/h
Sensor: Nr:Datum:Temp:Abs-Feuchte:Windchill:Wind:
Aussen-T/F 101 16-07-2010 20:05:05 30 C 6.67 g/m*3 30 C 0 km/h
102 16-07-2010 20:17:05 29.6 C 7.42 g/m*3 29.6 C 0 km/h
103 16-07-2010 20:29:05 29.1 C 7.22 g/m*3 29.1 C 0 km/h
104 16-07-2010 20:41:05 29.2 C 7.26 g/m*3 29.2 C 0 km/h
105 16-07-2010 20:53:05 29.1 C 7.51 g/m*3 29.1 C 0 km/h
106 16-07-2010 21:05:06 28.9 C 7.43 g/m*3 28.9 C 0 km/h
107 16-07-2010 21:17:06 28.8 C 7.39 g/m*3 28.8 C 0 km/h
108 16-07-2010 21:29:06 28.4 C 7.51 g/m*3 28.4 C 0 km/h
109 16-07-2010 21:41:06 28 C 7.34 g/m*3 28 C 0 km/h
110 16-07-2010 21:53:06 27.4 C 7.63 g/m*3 27.4 C 0 km/h
111 16-07-2010 22:05:06 27.2 C 7.81 g/m*3 27.2 C 0 km/h
112 16-07-2010 22:17:06 26.8 C 7.64 g/m*3 26.8 C 0 km/h
113 16-07-2010 22:29:01 26.3 C 7.43 g/m*3 26.3 C 0 km/h
114 16-07-2010 22:41:01 25.8 C 7.7 g/m*3 25.8 C 0 km/h
115 16-07-2010 22:53:01 25.8 C 7.94 g/m*3 25.8 C 0 km/h
116 16-07-2010 23:05:01 25.9 C 8.23 g/m*3 25.9 C 0 km/h
117 16-07-2010 23:17:02 25.8 C 8.43 g/m*3 25.8 C 0 km/h
118 16-07-2010 23:29:02 25.6 C 8.33 g/m*3 25.6 C 0 km/h
119 16-07-2010 23:41:01 25.5 C 8.52 g/m*3 25.5 C 0 km/h
120 16-07-2010 23:53:03 25 C 8.75 g/m*3 25 C 0 km/h
121 17-07-2010 00:06:04 24.5 C 8.28 g/m*3 24.5 C 0 km/h
122 17-07-2010 00:18:04 23.8 C 8.6 g/m*3 23.8 C 0 km/h
123 17-07-2010 00:30:04 23.5 C 8.88 g/m*3 23.5 C 0 km/h
124 17-07-2010 00:42:04 22.5 C 10.19 g/m*3 22.5 C 0 km/h
125 17-07-2010 00:54:04 22.2 C 9.42 g/m*3 22.2 C 0 km/h
Sensor: Nr:Datum:Temp:Abs-Feuchte:Windchill:Wind:
Aussen-T/F 126 17-07-2010 01:06:04 22.3 C 9.87 g/m*3 22.3 C 0 km/h
127 17-07-2010 01:18:04 21.4 C 11.25 g/m*3 21.4 C 0 km/h
128 17-07-2010 01:30:04 19.9 C 11.68 g/m*3 19.9 C 0 km/h
129 17-07-2010 01:42:04 19.8 C 11.44 g/m*3 19.8 C 0 km/h
130 17-07-2010 01:54:04 20.1 C 11.47 g/m*3 20.1 C 0 km/h
131 17-07-2010 02:06:04 20.3 C 11.43 g/m*3 20.3 C 0 km/h
132 17-07-2010 02:18:04 20.3 C 11.08 g/m*3 20.3 C 0 km/h
133 17-07-2010 02:30:04 20.1 C 10.95 g/m*3 20.1 C 0 km/h
134 17-07-2010 02:42:04 20.1 C 10.95 g/m*3 20.1 C 0 km/h
135 17-07-2010 02:54:04 20.1 C 11.13 g/m*3 20.1 C 0 km/h
136 17-07-2010 03:06:04 20.1 C 11.3 g/m*3 20.1 C 0 km/h
137 17-07-2010 03:18:04 19.8 C 11.96 g/m*3 19.8 C 0 km/h
138 17-07-2010 03:30:04 19.7 C 11.89 g/m*3 19.7 C 0 km/h
139 17-07-2010 03:42:04 20 C 11.92 g/m*3 20 C 0 km/h
140 17-07-2010 03:54:04 19.8 C 12.3 g/m*3 19.8 C 0 km/h
141 17-07-2010 04:06:05 19.7 C 11.89 g/m*3 19.7 C 0 km/h
142 17-07-2010 04:18:05 19.9 C 11.85 g/m*3 19.9 C 0 km/h
143 17-07-2010 04:30:05 19.2 C 12.37 g/m*3 19.2 C 0 km/h
144 17-07-2010 04:42:05 18.7 C 13.13 g/m*3 18.7 C 0 km/h
145 17-07-2010 04:54:05 18.3 C 13.13 g/m*3 18.3 C 0 km/h
146 17-07-2010 05:06:05 18.4 C 13.37 g/m*3 18.4 C 0 km/h
147 17-07-2010 05:18:05 18.3 C 13.45 g/m*3 18.3 C 0 km/h
148 17-07-2010 05:30:05 18.1 C 13.29 g/m*3 18.1 C 0 km/h
149 17-07-2010 05:42:05 17.9 C 13.44 g/m*3 17.9 C 0 km/h
150 17-07-2010 05:54:05 17.7 C 13.28 g/m*3 17.7 C 0 km/h
Sensor: Nr:Datum:Temp:Abs-Feuchte:Windchill:Wind:
Aussen-T/F 151 17-07-2010 06:06:05 17.6 C 13.2 g/m*3 17.6 C 0 km/h
152 17-07-2010 06:18:05 17.5 C 13.12 g/m*3 17.5 C 0 km/h
153 17-07-2010 06:30:05 17.7 C 13.43 g/m*3 17.7 C 0 km/h
154 17-07-2010 06:42:05 17.8 C 13.51 g/m*3 17.8 C 0 km/h
155 17-07-2010 06:54:05 17.8 C 13.66 g/m*3 17.8 C 0 km/h
156 17-07-2010 07:06:05 17.8 C 13.66 g/m*3 17.8 C 0 km/h
157 17-07-2010 07:18:05 17.8 C 13.66 g/m*3 17.8 C 0 km/h
158 17-07-2010 07:30:05 17.9 C 13.59 g/m*3 17.9 C 0 km/h
159 17-07-2010 07:42:05 18 C 13.36 g/m*3 18 C 0 km/h
160 17-07-2010 07:54:05 17.9 C 13.44 g/m*3 17.9 C 0 km/h
161 17-07-2010 08:06:04 17.8 C 13.36 g/m*3 17.8 C 0 km/h
162 17-07-2010 08:18:04 17.7 C 13.43 g/m*3 17.7 C 0 km/h
163 17-07-2010 08:30:04 17.5 C 13.27 g/m*3 17.5 C 0 km/h
164 17-07-2010 08:42:03 17.5 C 13.27 g/m*3 17.5 C 0 km/h
165 17-07-2010 08:54:01 17.7 C 13.58 g/m*3 17.7 C 0 km/h
166 17-07-2010 09:06:02 17.8 C 13.66 g/m*3 17.8 C 0 km/h
167 17-07-2010 09:18:03 18.1 C 13.75 g/m*3 18.1 C 0 km/h
168 17-07-2010 09:30:03 18.8 C 13.85 g/m*3 18.8 C 0 km/h
169 17-07-2010 09:42:02 18.9 C 13.28 g/m*3 18.9 C 0 km/h
170 17-07-2010 09:54:02 19.1 C 12.95 g/m*3 19.1 C 0 km/h
171 17-07-2010 10:06:01 19 C 12.71 g/m*3 19 C 0 km/h
172 17-07-2010 10:18:02 19.2 C 12.53 g/m*3 19.2 C 0 km/h
173 17-07-2010 10:30:03 19.7 C 12.74 g/m*3 19.7 C 0 km/h
174 17-07-2010 10:42:01 20 C 12.44 g/m*3 20 C 0 km/h
175 17-07-2010 10:54:02 20.1 C 12.34 g/m*3 20.1 C 0 km/h
Sensor: Nr:Datum:Temp:Abs-Feuchte:Windchill:Wind:
Aussen-T/F 176 17-07-2010 11:06:01 21 C 12.46 g/m*3 21 C 0 km/h
177 17-07-2010 11:18:02 21.2 C 11.86 g/m*3 21.2 C 0 km/h
178 17-07-2010 11:30:02 21.8 C 11.13 g/m*3 21.8 C 0 km/h
179 17-07-2010 11:42:02 23.3 C 11.08 g/m*3 23.3 C 0 km/h
180 17-07-2010 11:54:02 23.7 C 10.69 g/m*3 23.7 C 0 km/h
181 17-07-2010 12:06:01 23.7 C 10.27 g/m*3 23.7 C 0 km/h
182 17-07-2010 12:18:02 23.7 C 9.84 g/m*3 23.7 C 0 km/h
183 17-07-2010 12:30:02 24.6 C 8.55 g/m*3 24.6 C 0 km/h
184 17-07-2010 12:42:02 25.3 C 8.66 g/m*3 25.3 C 0 km/h
185 17-07-2010 12:54:01 26 C 7.79 g/m*3 26 C 0 km/h
186 17-07-2010 13:06:02 26.5 C 8.01 g/m*3 26.5 C 0 km/h
187 17-07-2010 13:18:01 25 C 7.37 g/m*3 25 C 0 km/h
188 17-07-2010 13:30:01 26.3 C 7.67 g/m*3 26.3 C 0 km/h
189 17-07-2010 13:42:02 25.7 C 7.66 g/m*3 25.7 C 0 km/h
190 17-07-2010 13:54:02 26.6 C 7.05 g/m*3 26.6 C 0 km/h
191 17-07-2010 14:06:02 26 C 7.55 g/m*3 26 C 0 km/h
192 17-07-2010 14:18:02 25.9 C 7.51 g/m*3 25.9 C 0 km/h
193 17-07-2010 14:30:02 26.3 C 7.43 g/m*3 26.3 C 0 km/h
194 17-07-2010 14:42:02 26 C 6.82 g/m*3 26 C 0 km/h
195 17-07-2010 14:54:01 26.5 C 7.01 g/m*3 26.5 C 0 km/h
196 17-07-2010 15:06:02 27 C 6.69 g/m*3 27 C 0 km/h
197 17-07-2010 15:18:01 27.5 C 6.35 g/m*3 27.5 C 0 km/h
198 17-07-2010 15:30:01 27.3 C 6.54 g/m*3 27.3 C 0 km/h
199 17-07-2010 15:42:02 27.5 C 6.61 g/m*3 27.5 C 0 km/h
200 17-07-2010 15:54:01 26.6 C 6.29 g/m*3 26.6 C 0 km/h
Sensor: Nr:Datum:Temp:Abs-Feuchte:Windchill:Wind:
Aussen-T/F 201 17-07-2010 16:06:02 27.3 C 6.54 g/m*3 27.3 C 0 km/h
202 17-07-2010 16:18:02 26.4 C 6.22 g/m*3 26.4 C 0 km/h
203 17-07-2010 16:30:02 26 C 5.84 g/m*3 26 C 0 km/h
204 17-07-2010 16:42:02 26.9 C 5.89 g/m*3 26.9 C 0 km/h
205 17-07-2010 16:54:02 27 C 5.92 g/m*3 27 C 0 km/h
206 17-07-2010 17:06:02 26.6 C 6.29 g/m*3 26.6 C 0 km/h
207 17-07-2010 17:18:03 25.7 C 7.42 g/m*3 25.7 C 0 km/h
208 17-07-2010 17:30:03 26 C 7.79 g/m*3 26 C 0 km/h
209 17-07-2010 17:42:02 26.1 C 7.59 g/m*3 26.1 C 0 km/h
210 17-07-2010 17:54:02 24.6 C 7.88 g/m*3 24.6 C 0 km/h
211 17-07-2010 18:06:01 24.2 C 7.7 g/m*3 24.2 C 0 km/h
212 17-07-2010 18:18:02 23.7 C 7.7 g/m*3 23.7 C 0 km/h
213 17-07-2010 18:30:02 24 C 7.61 g/m*3 24 C 0 km/h
214 17-07-2010 18:42:01 24.1 C 7.44 g/m*3 24.1 C 0 km/h
215 17-07-2010 18:54:02 24 C 7.4 g/m*3 24 C 0 km/h
216 17-07-2010 19:06:02 24.6 C 7.43 g/m*3 24.6 C 0 km/h
217 17-07-2010 19:18:02 24.6 C 7.2 g/m*3 24.6 C 0 km/h
218 17-07-2010 19:30:03 24.2 C 7.26 g/m*3 24.2 C 0 km/h
219 17-07-2010 19:42:02 23.8 C 7.1 g/m*3 23.8 C 0 km/h
220 17-07-2010 19:54:02 23.6 C 6.59 g/m*3 23.6 C 0 km/h
221 17-07-2010 20:06:02 23.7 C 6.84 g/m*3 23.7 C 0 km/h
222 17-07-2010 20:18:02 24.7 C 6.11 g/m*3 24.7 C 0 km/h
223 17-07-2010 20:30:02 25.4 C 5.41 g/m*3 25.4 C 0 km/h
224 17-07-2010 20:42:03 24.7 C 5.21 g/m*3 24.7 C 0 km/h
225 17-07-2010 20:54:02 23.8 C 5.38 g/m*3 23.8 C 0 km/h
Sensor: Nr:Datum:Temp:Abs-Feuchte:Windchill:Wind:
Aussen-T/F 226 17-07-2010 21:06:01 22.9 C 5.72 g/m*3 22.9 C 0 km/h
227 17-07-2010 21:18:02 22.4 C 5.96 g/m*3 22.4 C 0 km/h
228 17-07-2010 21:30:02 22.1 C 6.44 g/m*3 22.1 C 0 km/h
229 17-07-2010 21:42:02 22 C 6.21 g/m*3 22 C 0 km/h
230 17-07-2010 21:54:01 21.9 C 6.37 g/m*3 21.9 C 0 km/h
231 17-07-2010 22:06:02 21.6 C 6.26 g/m*3 21.6 C 0 km/h
232 17-07-2010 22:18:01 21.7 C 6.49 g/m*3 21.7 C 0 km/h
233 17-07-2010 22:30:01 21.6 C 6.26 g/m*3 21.6 C 0 km/h
234 17-07-2010 22:42:02 21.3 C 6.15 g/m*3 21.3 C 0 km/h
235 17-07-2010 22:54:02 21 C 6.23 g/m*3 21 C 0 km/h
236 17-07-2010 23:06:02 20.4 C 6.19 g/m*3 20.4 C 0 km/h
237 17-07-2010 23:18:02 20.3 C 6.16 g/m*3 20.3 C 0 km/h
238 17-07-2010 23:30:02 20.2 C 6.12 g/m*3 20.2 C 0 km/h
239 17-07-2010 23:42:02 19.9 C 6.01 g/m*3 19.9 C 0 km/h
240 17-07-2010 23:54:01 19.8 C 6.15 g/m*3 19.8 C 0 km/h
241 18-07-2010 00:06:02 19.3 C 5.97 g/m*3 19.3 C 0 km/h
242 18-07-2010 00:18:02 19 C 5.87 g/m*3 19 C 0 km/h
243 18-07-2010 00:30:02 18.6 C 6.21 g/m*3 18.6 C 0 km/h
244 18-07-2010 00:42:01 18.3 C 6.1 g/m*3 18.3 C 0 km/h
245 18-07-2010 00:54:02 18 C 6.14 g/m*3 18 C 0 km/h
246 18-07-2010 01:06:01 17.7 C 6.19 g/m*3 17.7 C 0 km/h
247 18-07-2010 01:18:02 17.4 C 6.22 g/m*3 17.4 C 0 km/h
248 18-07-2010 01:30:02 17.2 C 6.3 g/m*3 17.2 C 0 km/h
249 18-07-2010 01:42:01 16.8 C 6.43 g/m*3 16.8 C 0 km/h
250 18-07-2010 01:54:03 16.7 C 6.54 g/m*3 16.7 C 0 km/h
Sensor: Nr:Datum:Temp:Abs-Feuchte:Windchill:Wind:
Aussen-T/F 251 18-07-2010 02:06:02 16.5 C 6.6 g/m*3 16.5 C 0 km/h
252 18-07-2010 02:18:02 16.3 C 6.38 g/m*3 16.3 C 0 km/h
253 18-07-2010 02:30:02 16 C 6.95 g/m*3 16 C 0 km/h
254 18-07-2010 02:42:02 15.6 C 7.18 g/m*3 15.6 C 0 km/h
255 18-07-2010 02:55:04 15.4 C 7.23 g/m*3 15.4 C 0 km/h
256 18-07-2010 03:07:04 15.2 C 7.14 g/m*3 15.2 C 0 km/h
257 18-07-2010 03:19:04 15 C 6.92 g/m*3 15 C 0 km/h
258 18-07-2010 03:31:02 14.8 C 7.22 g/m*3 14.8 C 0 km/h
259 18-07-2010 03:43:02 14.6 C 7.26 g/m*3 14.6 C 0 km/h
260 18-07-2010 03:55:02 14.4 C 7.17 g/m*3 14.4 C 0 km/h
261 18-07-2010 04:07:02 14.1 C 7.28 g/m*3 14.1 C 0 km/h
262 18-07-2010 04:19:01 14.1 C 7.52 g/m*3 14.1 C 0 km/h
263 18-07-2010 04:31:02 14 C 7.48 g/m*3 14 C 0 km/h
264 18-07-2010 04:43:02 13.7 C 7.46 g/m*3 13.7 C 0 km/h
265 18-07-2010 04:55:02 13.6 C 7.65 g/m*3 13.6 C 0 km/h
266 18-07-2010 05:07:02 13.4 C 7.9 g/m*3 13.4 C 0 km/h
267 18-07-2010 05:19:01 13.1 C 7.76 g/m*3 13.1 C 0 km/h
268 18-07-2010 05:31:02 13 C 7.71 g/m*3 13 C 0 km/h
269 18-07-2010 05:43:02 12.8 C 7.84 g/m*3 12.8 C 0 km/h
270 18-07-2010 05:55:02 12.7 C 7.9 g/m*3 12.7 C 0 km/h
271 18-07-2010 06:07:02 12.6 C 8.08 g/m*3 12.6 C 0 km/h
272 18-07-2010 06:19:02 12.5 C 8.03 g/m*3 12.5 C 0 km/h
273 18-07-2010 06:31:02 12.5 C 8.03 g/m*3 12.5 C 0 km/h
274 18-07-2010 06:43:02 12.6 C 8.19 g/m*3 12.6 C 0 km/h
275 18-07-2010 06:55:02 12.6 C 8.19 g/m*3 12.6 C 0 km/h
Sensor: Nr:Datum:Temp:Abs-Feuchte:Windchill:Wind:
Aussen-T/F 276 18-07-2010 07:07:02 12.7 C 8.13 g/m*3 12.7 C 0 km/h
277 18-07-2010 07:19:02 12.8 C 8.06 g/m*3 12.8 C 0 km/h
278 18-07-2010 07:31:01 12.9 C 8 g/m*3 12.9 C 0 km/h
279 18-07-2010 07:43:01 13.1 C 7.99 g/m*3 13.1 C 0 km/h
280 18-07-2010 07:55:02 13.3 C 8.09 g/m*3 13.3 C 0 km/h
281 18-07-2010 08:07:01 13.8 C 8.22 g/m*3 13.8 C 0 km/h
282 18-07-2010 08:19:01 14.1 C 8.01 g/m*3 14.1 C 0 km/h
283 18-07-2010 08:31:01 14.4 C 8.16 g/m*3 14.4 C 0 km/h
284 18-07-2010 08:43:01 15 C 7.44 g/m*3 15 C 0 km/h
285 18-07-2010 08:55:02 15.4 C 7.62 g/m*3 15.4 C 0 km/h
286 18-07-2010 09:07:01 15.9 C 7.58 g/m*3 15.9 C 0 km/h
287 18-07-2010 09:19:02 16.5 C 7.58 g/m*3 16.5 C 0 km/h
288 18-07-2010 09:31:02 17.1 C 7.57 g/m*3 17.1 C 0 km/h
289 18-07-2010 09:43:02 17.8 C 7.89 g/m*3 17.8 C 0 km/h
290 18-07-2010 09:55:02 18.5 C 7.75 g/m*3 18.5 C 0 km/h
291 18-07-2010 10:07:02 19 C 7.5 g/m*3 19 C 0 km/h
292 18-07-2010 10:19:02 19.7 C 7.47 g/m*3 19.7 C 0 km/h
293 18-07-2010 10:31:02 20.1 C 7.3 g/m*3 20.1 C 0 km/h
294 18-07-2010 10:43:02 20.8 C 7.24 g/m*3 20.8 C 0 km/h
295 18-07-2010 10:55:02 21.3 C 5.78 g/m*3 21.3 C 0 km/h
296 18-07-2010 11:07:01 20.8 C 5.61 g/m*3 20.8 C 0 km/h
297 18-07-2010 11:19:02 21.6 C 5.69 g/m*3 21.6 C 0 km/h
298 18-07-2010 11:31:02 21.7 C 5.72 g/m*3 21.7 C 0 km/h
299 18-07-2010 11:43:02 22.7 C 6.06 g/m*3 22.7 C 0 km/h
300 18-07-2010 11:55:02 23.8 C 5.59 g/m*3 23.8 C 0 km/h
Sensor: Nr:Datum:Temp:Abs-Feuchte:Windchill:Wind:
Aussen-T/F 301 18-07-2010 12:07:01 24.3 C 5.53 g/m*3 24.3 C 0 km/h
302 18-07-2010 12:19:02 25.3 C 4.68 g/m*3 25.3 C 0 km/h
303 18-07-2010 12:31:02 25.3 C 4.68 g/m*3 25.3 C 0 km/h
304 18-07-2010 12:43:02 26.1 C 4.9 g/m*3 26.1 C 0 km/h
305 18-07-2010 12:55:02 24.8 C 4.55 g/m*3 24.8 C 0 km/h
306 18-07-2010 13:07:03 25.8 C 4.82 g/m*3 25.8 C 0 km/h
307 18-07-2010 13:19:02 27.6 C 5.32 g/m*3 27.6 C 0 km/h
308 18-07-2010 13:31:02 28.3 C 5.53 g/m*3 28.3 C 0 km/h
309 18-07-2010 13:43:03 28 C 5.44 g/m*3 28 C 0 km/h
310 18-07-2010 13:55:01 28.4 C 5.56 g/m*3 28.4 C 0 km/h
311 18-07-2010 14:07:02 27.7 C 5.35 g/m*3 27.7 C 0 km/h
312 18-07-2010 14:19:01 27.1 C 5.18 g/m*3 27.1 C 0 km/h
313 18-07-2010 14:31:01 27.9 C 5.41 g/m*3 27.9 C 0 km/h
314 18-07-2010 14:43:01 26.7 C 5.06 g/m*3 26.7 C 0 km/h
315 18-07-2010 14:55:01 27.3 C 5.23 g/m*3 27.3 C 0 km/h
316 18-07-2010 15:07:02 28.1 C 5.47 g/m*3 28.1 C 0 km/h
317 18-07-2010 15:19:01 29.4 C 5.87 g/m*3 29.4 C 0 km/h
318 18-07-2010 15:31:01 30 C 6.06 g/m*3 30 C 0 km/h
319 18-07-2010 15:43:01 30.1 C 6.1 g/m*3 30.1 C 0 km/h
320 18-07-2010 15:55:01 30.3 C 6.16 g/m*3 30.3 C 0 km/h
321 18-07-2010 16:07:01 30.6 C 6.26 g/m*3 30.6 C 0 km/h
322 18-07-2010 16:19:02 30.7 C 6.3 g/m*3 30.7 C 0 km/h
323 18-07-2010 16:31:01 31 C 6.4 g/m*3 31 C 0 km/h
324 18-07-2010 16:43:01 30.8 C 6.33 g/m*3 30.8 C 0 km/h
325 18-07-2010 16:55:01 30.7 C 6.3 g/m*3 30.7 C 0 km/h
Sensor: Nr:Datum:Temp:Abs-Feuchte:Windchill:Wind:
Aussen-T/F 326 18-07-2010 17:07:01 30.9 C 6.37 g/m*3 30.9 C 0 km/h
327 18-07-2010 17:19:02 30.4 C 6.2 g/m*3 30.4 C 0 km/h
328 18-07-2010 17:31:01 31.4 C 6.54 g/m*3 31.4 C 0 km/h
329 18-07-2010 17:43:01 31.8 C 6.68 g/m*3 31.8 C 0 km/h
330 18-07-2010 17:55:02 31.8 C 6.68 g/m*3 31.8 C 0 km/h
331 18-07-2010 18:07:02 31.3 C 6.5 g/m*3 31.3 C 0 km/h
332 18-07-2010 18:19:02 31.3 C 6.5 g/m*3 31.3 C 0 km/h
333 18-07-2010 18:31:02 31.1 C 6.43 g/m*3 31.1 C 0 km/h
334 18-07-2010 18:43:02 31.1 C 6.43 g/m*3 31.1 C 0 km/h
335 18-07-2010 18:55:02 31.5 C 6.57 g/m*3 31.5 C 0 km/h
336 18-07-2010 19:07:01 31.2 C 6.47 g/m*3 31.2 C 0 km/h
337 18-07-2010 19:19:02 30.7 C 6.3 g/m*3 30.7 C 0 km/h
338 18-07-2010 19:31:02 30 C 6.06 g/m*3 30 C 0 km/h
339 18-07-2010 19:43:02 30.1 C 6.1 g/m*3 30.1 C 0 km/h
340 18-07-2010 19:55:01 30.4 C 6.2 g/m*3 30.4 C 0 km/h
341 18-07-2010 20:07:01 30.2 C 6.13 g/m*3 30.2 C 0 km/h
342 18-07-2010 20:19:01 29.8 C 6 g/m*3 29.8 C 0 km/h
343 18-07-2010 20:31:02 29.1 C 5.78 g/m*3 29.1 C 0 km/h
344 18-07-2010 20:43:02 28.8 C 5.68 g/m*3 28.8 C 0 km/h
345 18-07-2010 20:55:02 27.6 C 5.32 g/m*3 27.6 C 0 km/h
346 18-07-2010 21:07:02 25.9 C 5.08 g/m*3 25.9 C 0 km/h
347 18-07-2010 21:19:02 24.8 C 5.24 g/m*3 24.8 C 0 km/h
348 18-07-2010 21:31:02 23.9 C 5.41 g/m*3 23.9 C 0 km/h
349 18-07-2010 21:43:02 23.3 C 5.44 g/m*3 23.3 C 0 km/h
350 18-07-2010 21:55:02 22.7 C 5.66 g/m*3 22.7 C 0 km/h
Sensor: Nr:Datum:Temp:Abs-Feuchte:Windchill:Wind:
Aussen-T/F 351 18-07-2010 22:08:02 22.2 C 5.89 g/m*3 22.2 C 0 km/h
352 18-07-2010 22:20:02 21.9 C 5.79 g/m*3 21.9 C 0 km/h
353 18-07-2010 22:32:02 21.8 C 5.95 g/m*3 21.8 C 0 km/h
354 18-07-2010 22:44:02 21.5 C 5.85 g/m*3 21.5 C 0 km/h
355 18-07-2010 22:56:02 21.2 C 6.12 g/m*3 21.2 C 0 km/h
356 18-07-2010 23:08:02 21 C 6.05 g/m*3 21 C 0 km/h
357 18-07-2010 23:20:02 20.6 C 6.26 g/m*3 20.6 C 0 km/h
358 18-07-2010 23:32:02 20.3 C 6.16 g/m*3 20.3 C 0 km/h
359 18-07-2010 23:44:02 20.1 C 6.43 g/m*3 20.1 C 0 km/h
360 18-07-2010 23:56:02 19.7 C 6.45 g/m*3 19.7 C 0 km/h
361 19-07-2010 00:08:02 19.5 C 6.38 g/m*3 19.5 C 0 km/h
362 19-07-2010 00:20:02 19.2 C 6.27 g/m*3 19.2 C 0 km/h
363 19-07-2010 00:32:02 18.8 C 6.28 g/m*3 18.8 C 0 km/h
364 19-07-2010 00:44:03 18.6 C 6.37 g/m*3 18.6 C 0 km/h
365 19-07-2010 00:56:03 18.5 C 6.49 g/m*3 18.5 C 0 km/h
366 19-07-2010 01:08:03 18.2 C 6.53 g/m*3 18.2 C 0 km/h
367 19-07-2010 01:20:03 17.9 C 6.57 g/m*3 17.9 C 0 km/h
368 19-07-2010 01:32:03 17.7 C 6.64 g/m*3 17.7 C 0 km/h
369 19-07-2010 01:44:03 17.5 C 6.71 g/m*3 17.5 C 0 km/h
370 19-07-2010 01:56:03 17.1 C 6.84 g/m*3 17.1 C 0 km/h
371 19-07-2010 02:08:03 16.8 C 6.86 g/m*3 16.8 C 0 km/h
372 19-07-2010 02:20:03 16.7 C 7.11 g/m*3 16.7 C 0 km/h
373 19-07-2010 02:32:03 16.5 C 6.88 g/m*3 16.5 C 0 km/h
374 19-07-2010 02:44:04 16.3 C 6.66 g/m*3 16.3 C 0 km/h
375 19-07-2010 02:56:04 16 C 6.81 g/m*3 16 C 0 km/h
Sensor: Nr:Datum:Temp:Abs-Feuchte:Windchill:Wind:
Aussen-T/F 376 19-07-2010 03:08:04 15.8 C 7 g/m*3 15.8 C 0 km/h
377 19-07-2010 03:20:04 15.7 C 6.96 g/m*3 15.7 C 0 km/h
378 19-07-2010 03:32:04 15.5 C 7.14 g/m*3 15.5 C 0 km/h
379 19-07-2010 03:44:04 15.3 C 7.31 g/m*3 15.3 C 0 km/h
380 19-07-2010 03:56:04 15.1 C 7.1 g/m*3 15.1 C 0 km/h
381 19-07-2010 04:08:04 14.9 C 7.14 g/m*3 14.9 C 0 km/h
382 19-07-2010 04:20:04 14.7 C 7.18 g/m*3 14.7 C 0 km/h
383 19-07-2010 04:32:04 14.6 C 7.38 g/m*3 14.6 C 0 km/h
384 19-07-2010 04:44:04 14.7 C 7.43 g/m*3 14.7 C 0 km/h
385 19-07-2010 04:56:04 14.2 C 7.45 g/m*3 14.2 C 0 km/h
386 19-07-2010 05:08:04 14.1 C 7.28 g/m*3 14.1 C 0 km/h
387 19-07-2010 05:20:04 13.9 C 7.55 g/m*3 13.9 C 0 km/h
388 19-07-2010 05:32:04 13.8 C 7.63 g/m*3 13.8 C 0 km/h
389 19-07-2010 05:44:04 13.6 C 7.53 g/m*3 13.6 C 0 km/h
390 19-07-2010 05:56:04 13.6 C 7.53 g/m*3 13.6 C 0 km/h
391 19-07-2010 06:08:04 13.6 C 7.53 g/m*3 13.6 C 0 km/h
392 19-07-2010 06:20:04 13.5 C 7.6 g/m*3 13.5 C 0 km/h
393 19-07-2010 06:32:04 13.7 C 7.93 g/m*3 13.7 C 0 km/h
394 19-07-2010 06:44:05 13.5 C 8.07 g/m*3 13.5 C 0 km/h
395 19-07-2010 06:56:02 13.6 C 8.24 g/m*3 13.6 C 0 km/h
396 19-07-2010 07:08:02 13.7 C 8.29 g/m*3 13.7 C 0 km/h
397 19-07-2010 07:20:02 13.8 C 8.22 g/m*3 13.8 C 0 km/h
398 19-07-2010 07:32:01 14 C 8.2 g/m*3 14 C 0 km/h
399 19-07-2010 07:44:01 14.2 C 8.18 g/m*3 14.2 C 0 km/h
400 19-07-2010 07:56:02 14.4 C 8.16 g/m*3 14.4 C 0 km/h
Sensor: Nr:Datum:Temp:Abs-Feuchte:Windchill:Wind:
Aussen-T/F 401 19-07-2010 08:08:01 14.5 C 8.21 g/m*3 14.5 C 0 km/h
402 19-07-2010 08:20:02 14.8 C 8.23 g/m*3 14.8 C 0 km/h
403 19-07-2010 08:32:02 15.2 C 8.18 g/m*3 15.2 C 0 km/h
404 19-07-2010 08:44:02 15.7 C 8.3 g/m*3 15.7 C 0 km/h
405 19-07-2010 08:56:02 16.3 C 8.46 g/m*3 16.3 C 0 km/h
406 19-07-2010 09:08:02 16.9 C 8.63 g/m*3 16.9 C 0 km/h
407 19-07-2010 09:20:02 17.7 C 8.6 g/m*3 17.7 C 0 km/h
408 19-07-2010 09:32:02 18.4 C 8.49 g/m*3 18.4 C 0 km/h
409 19-07-2010 09:44:02 19.4 C 8.51 g/m*3 19.4 C 0 km/h
410 19-07-2010 09:56:02 20.2 C 8.39 g/m*3 20.2 C 0 km/h
411 19-07-2010 10:08:02 20.8 C 8.33 g/m*3 20.8 C 0 km/h
412 19-07-2010 10:20:01 21.7 C 8.39 g/m*3 21.7 C 0 km/h
413 19-07-2010 10:32:02 22.6 C 8.24 g/m*3 22.6 C 0 km/h
414 19-07-2010 10:44:03 23.3 C 7.74 g/m*3 23.3 C 0 km/h
415 19-07-2010 10:56:02 23.9 C 7.14 g/m*3 23.9 C 0 km/h
416 19-07-2010 11:08:02 24.7 C 7.02 g/m*3 24.7 C 0 km/h
417 19-07-2010 11:20:02 25.2 C 6.98 g/m*3 25.2 C 0 km/h
418 19-07-2010 11:32:02 25.9 C 6.29 g/m*3 25.9 C 0 km/h
419 19-07-2010 11:44:02 26.5 C 6.51 g/m*3 26.5 C 0 km/h
420 19-07-2010 11:56:02 26.6 C 5.79 g/m*3 26.6 C 0 km/h
421 19-07-2010 12:08:02 27.1 C 5.69 g/m*3 27.1 C 0 km/h
422 19-07-2010 12:20:02 28.2 C 5.5 g/m*3 28.2 C 0 km/h
423 19-07-2010 12:32:02 28.9 C 5.71 g/m*3 28.9 C 0 km/h
424 19-07-2010 12:44:02 29.7 C 5.97 g/m*3 29.7 C 0 km/h
425 19-07-2010 12:56:02 30.2 C 6.13 g/m*3 30.2 C 0 km/h
Sensor: Nr:Datum:Temp:Abs-Feuchte:Windchill:Wind:
Aussen-T/F 426 19-07-2010 13:08:02 30.4 C 6.2 g/m*3 30.4 C 0 km/h
427 19-07-2010 13:20:03 31.2 C 6.47 g/m*3 31.2 C 0 km/h
428 19-07-2010 13:32:02 31.6 C 6.61 g/m*3 31.6 C 0 km/h
429 19-07-2010 13:44:02 31.5 C 6.57 g/m*3 31.5 C 0 km/h
430 19-07-2010 13:56:03 31.3 C 6.5 g/m*3 31.3 C 0 km/h
431 19-07-2010 14:08:02 30.9 C 6.37 g/m*3 30.9 C 0 km/h
432 19-07-2010 14:20:03 30.8 C 6.33 g/m*3 30.8 C 0 km/h
433 19-07-2010 14:32:02 31 C 6.4 g/m*3 31 C 0 km/h
434 19-07-2010 14:44:02 30.6 C 6.26 g/m*3 30.6 C 0 km/h
435 19-07-2010 14:56:02 30.9 C 6.37 g/m*3 30.9 C 0 km/h
436 19-07-2010 15:08:02 30.6 C 6.26 g/m*3 30.6 C 0 km/h
437 19-07-2010 15:20:02 31.4 C 6.54 g/m*3 31.4 C 0 km/h
438 19-07-2010 15:32:02 31.9 C 6.72 g/m*3 31.9 C 0 km/h
439 19-07-2010 15:44:02 32.2 C 6.82 g/m*3 32.2 C 0 km/h
440 19-07-2010 15:56:02 32.4 C 6.9 g/m*3 32.4 C 0 km/h
441 19-07-2010 16:08:02 32.5 C 6.93 g/m*3 32.5 C 0 km/h
442 19-07-2010 16:20:02 32.8 C 7.04 g/m*3 32.8 C 0 km/h
443 19-07-2010 16:32:02 32.9 C 7.08 g/m*3 32.9 C 0 km/h
444 19-07-2010 16:44:02 32.8 C 7.04 g/m*3 32.8 C 0 km/h
445 19-07-2010 16:56:02 33.1 C 7.16 g/m*3 33.1 C 0 km/h
446 19-07-2010 17:08:01 33.3 C 7.23 g/m*3 33.3 C 0 km/h
447 19-07-2010 17:20:01 33.6 C 7.35 g/m*3 33.6 C 0 km/h
448 19-07-2010 17:32:02 33.5 C 7.31 g/m*3 33.5 C 0 km/h
449 19-07-2010 17:44:02 33.7 C 7.39 g/m*3 33.7 C 0 km/h
450 19-07-2010 17:56:02 33.8 C 7.43 g/m*3 33.8 C 0 km/h
Sensor: Nr:Datum:Temp:Abs-Feuchte:Windchill:Wind:
Aussen-T/F 451 19-07-2010 18:08:02 33.7 C 7.39 g/m*3 33.7 C 0 km/h
452 19-07-2010 18:20:02 33.5 C 7.31 g/m*3 33.5 C 0 km/h
453 19-07-2010 18:32:02 33.6 C 7.35 g/m*3 33.6 C 0 km/h
454 19-07-2010 18:44:03 33.5 C 7.31 g/m*3 33.5 C 0 km/h
455 19-07-2010 18:56:01 33.2 C 7.2 g/m*3 33.2 C 0 km/h
456 19-07-2010 19:08:02 33.3 C 7.23 g/m*3 33.3 C 0 km/h
457 19-07-2010 19:20:01 33 C 7.12 g/m*3 33 C 0 km/h
458 19-07-2010 19:32:01 32.8 C 7.04 g/m*3 32.8 C 0 km/h
459 19-07-2010 19:44:02 32.7 C 7.01 g/m*3 32.7 C 0 km/h
460 19-07-2010 19:56:02 32.4 C 6.9 g/m*3 32.4 C 0 km/h
461 19-07-2010 20:08:02 32 C 6.75 g/m*3 32 C 0 km/h
462 19-07-2010 20:20:02 31.9 C 6.72 g/m*3 31.9 C 0 km/h
463 19-07-2010 20:32:01 31.5 C 6.57 g/m*3 31.5 C 0 km/h
464 19-07-2010 20:44:01 31.1 C 6.43 g/m*3 31.1 C 0 km/h
465 19-07-2010 20:56:01 30.4 C 6.2 g/m*3 30.4 C 0 km/h
466 19-07-2010 21:08:02 29.1 C 6.06 g/m*3 29.1 C 0 km/h
467 19-07-2010 21:20:02 27.8 C 6.46 g/m*3 27.8 C 0 km/h
468 19-07-2010 21:32:02 26.3 C 6.93 g/m*3 26.3 C 0 km/h
469 19-07-2010 21:44:02 25.6 C 7.14 g/m*3 25.6 C 0 km/h
470 19-07-2010 21:56:01 25.4 C 7.06 g/m*3 25.4 C 0 km/h
471 19-07-2010 22:08:01 24.6 C 6.98 g/m*3 24.6 C 0 km/h
472 19-07-2010 22:20:02 24.4 C 7.12 g/m*3 24.4 C 0 km/h
473 19-07-2010 22:32:02 24 C 6.96 g/m*3 24 C 0 km/h
474 19-07-2010 22:44:02 23.9 C 7.14 g/m*3 23.9 C 0 km/h
475 19-07-2010 22:56:02 23.7 C 7.06 g/m*3 23.7 C 0 km/h
Sensor: Nr:Datum:Temp:Abs-Feuchte:Windchill:Wind:
Aussen-T/F 476 19-07-2010 23:08:01 23.5 C 7.19 g/m*3 23.5 C 0 km/h
477 19-07-2010 23:20:02 23.1 C 7.03 g/m*3 23.1 C 0 km/h
478 19-07-2010 23:32:02 22.7 C 7.27 g/m*3 22.7 C 0 km/h
479 19-07-2010 23:44:02 22.7 C 7.48 g/m*3 22.7 C 0 km/h
480 19-07-2010 23:56:03 22.5 C 7.59 g/m*3 22.5 C 0 km/h
481 20-07-2010 00:08:02 22.3 C 7.7 g/m*3 22.3 C 0 km/h
482 20-07-2010 00:20:03 22 C 7.76 g/m*3 22 C 0 km/h
483 20-07-2010 00:32:02 21.7 C 7.82 g/m*3 21.7 C 0 km/h
484 20-07-2010 00:44:02 21.5 C 7.92 g/m*3 21.5 C 0 km/h
485 20-07-2010 00:56:01 21.2 C 7.97 g/m*3 21.2 C 0 km/h
486 20-07-2010 01:08:01 20.9 C 8.2 g/m*3 20.9 C 0 km/h
487 20-07-2010 01:20:02 20.7 C 8.1 g/m*3 20.7 C 0 km/h
488 20-07-2010 01:32:01 20.4 C 8.14 g/m*3 20.4 C 0 km/h
489 20-07-2010 01:44:01 20.2 C 7.87 g/m*3 20.2 C 0 km/h
490 20-07-2010 01:56:01 19.9 C 8.08 g/m*3 19.9 C 0 km/h
491 20-07-2010 02:08:02 19.7 C 8.15 g/m*3 19.7 C 0 km/h
492 20-07-2010 02:20:02 19.6 C 8.1 g/m*3 19.6 C 0 km/h
493 20-07-2010 02:32:01 19.4 C 8.18 g/m*3 19.4 C 0 km/h
494 20-07-2010 02:44:01 19.1 C 8.36 g/m*3 19.1 C 0 km/h
495 20-07-2010 02:56:02 18.8 C 8.37 g/m*3 18.8 C 0 km/h
496 20-07-2010 03:08:02 18.5 C 8.23 g/m*3 18.5 C 0 km/h
497 20-07-2010 03:20:01 18.4 C 8.34 g/m*3 18.4 C 0 km/h
498 20-07-2010 03:32:01 18.1 C 8.19 g/m*3 18.1 C 0 km/h
499 20-07-2010 03:44:01 18.1 C 8.34 g/m*3 18.1 C 0 km/h
500 20-07-2010 03:56:01 17.9 C 8.7 g/m*3 17.9 C 0 km/h
Sensor: Nr:Datum:Temp:Abs-Feuchte:Windchill:Wind:
Aussen-T/F 501 20-07-2010 04:08:01 17.7 C 8.45 g/m*3 17.7 C 0 km/h
502 20-07-2010 04:20:01 17.4 C 8.45 g/m*3 17.4 C 0 km/h
503 20-07-2010 04:32:01 17.3 C 8.54 g/m*3 17.3 C 0 km/h
504 20-07-2010 04:44:01 17 C 8.39 g/m*3 17 C 0 km/h
505 20-07-2010 04:56:01 16.8 C 8.58 g/m*3 16.8 C 0 km/h
506 20-07-2010 05:08:01 16.7 C 8.53 g/m*3 16.7 C 0 km/h
507 20-07-2010 05:20:02 16.6 C 8.62 g/m*3 16.6 C 0 km/h
508 20-07-2010 05:32:01 16.4 C 8.51 g/m*3 16.4 C 0 km/h
509 20-07-2010 05:44:01 16.4 C 8.65 g/m*3 16.4 C 0 km/h
510 20-07-2010 05:56:02 16.3 C 8.6 g/m*3 16.3 C 0 km/h
511 20-07-2010 06:08:01 16.1 C 8.77 g/m*3 16.1 C 0 km/h
512 20-07-2010 06:20:02 16 C 8.86 g/m*3 16 C 0 km/h
513 20-07-2010 06:32:01 16.1 C 9.05 g/m*3 16.1 C 0 km/h
514 20-07-2010 06:44:01 16.1 C 9.05 g/m*3 16.1 C 0 km/h
515 20-07-2010 06:56:02 16.2 C 9.1 g/m*3 16.2 C 0 km/h
516 20-07-2010 07:08:01 16.4 C 9.21 g/m*3 16.4 C 0 km/h
517 20-07-2010 07:20:01 16.5 C 9.27 g/m*3 16.5 C 0 km/h
518 20-07-2010 07:32:01 16.8 C 9.29 g/m*3 16.8 C 0 km/h
519 20-07-2010 07:44:01 17.1 C 9.32 g/m*3 17.1 C 0 km/h
520 20-07-2010 07:56:02 17.1 C 9.17 g/m*3 17.1 C 0 km/h
521 20-07-2010 08:08:01 17.3 C 9.13 g/m*3 17.3 C 0 km/h
522 20-07-2010 08:20:01 17.6 C 9.15 g/m*3 17.6 C 0 km/h
523 20-07-2010 08:32:02 17.9 C 9.16 g/m*3 17.9 C 0 km/h
524 20-07-2010 08:44:02 18.5 C 9.33 g/m*3 18.5 C 0 km/h
525 20-07-2010 08:56:01 18.9 C 9.4 g/m*3 18.9 C 0 km/h
Sensor: Nr:Datum:Temp:Abs-Feuchte:Windchill:Wind:
Aussen-T/F 526 20-07-2010 09:08:02 19.6 C 9.45 g/m*3 19.6 C 0 km/h
527 20-07-2010 09:20:01 20.3 C 9.32 g/m*3 20.3 C 0 km/h
528 20-07-2010 09:32:02 20.9 C 9.29 g/m*3 20.9 C 0 km/h
529 20-07-2010 09:44:02 21.7 C 8.97 g/m*3 21.7 C 0 km/h
530 20-07-2010 09:56:01 22.3 C 8.89 g/m*3 22.3 C 0 km/h
531 20-07-2010 10:08:02 23.2 C 8.73 g/m*3 23.2 C 0 km/h
532 20-07-2010 10:20:01 24.1 C 8.53 g/m*3 24.1 C 0 km/h
533 20-07-2010 10:32:01 24.8 C 8.19 g/m*3 24.8 C 0 km/h
534 20-07-2010 10:44:01 25.6 C 8.09 g/m*3 25.6 C 0 km/h
535 20-07-2010 10:56:01 26.3 C 7.67 g/m*3 26.3 C 0 km/h
536 20-07-2010 11:08:02 26.9 C 6.91 g/m*3 26.9 C 0 km/h
537 20-07-2010 11:20:01 27.4 C 6.84 g/m*3 27.4 C 0 km/h
538 20-07-2010 11:32:01 27.9 C 6.76 g/m*3 27.9 C 0 km/h
539 20-07-2010 11:44:01 28.2 C 6.6 g/m*3 28.2 C 0 km/h
540 20-07-2010 11:56:01 28.3 C 6.63 g/m*3 28.3 C 0 km/h
541 20-07-2010 12:08:01 29 C 6.03 g/m*3 29 C 0 km/h
542 20-07-2010 12:20:02 30 C 6.37 g/m*3 30 C 0 km/h
543 20-07-2010 12:32:01 30.7 C 6.3 g/m*3 30.7 C 0 km/h
544 20-07-2010 12:44:01 31 C 6.4 g/m*3 31 C 0 km/h
545 20-07-2010 12:56:01 31.4 C 6.54 g/m*3 31.4 C 0 km/h
546 20-07-2010 13:08:01 31.7 C 6.64 g/m*3 31.7 C 0 km/h
547 20-07-2010 13:20:02 32.1 C 6.79 g/m*3 32.1 C 0 km/h
548 20-07-2010 13:32:01 32.5 C 6.93 g/m*3 32.5 C 0 km/h
549 20-07-2010 13:44:01 32.5 C 6.93 g/m*3 32.5 C 0 km/h
550 20-07-2010 13:56:02 32.3 C 6.86 g/m*3 32.3 C 0 km/h
Sensor: Nr:Datum:Temp:Abs-Feuchte:Windchill:Wind:
Aussen-T/F 551 20-07-2010 14:08:01 31.8 C 6.68 g/m*3 31.8 C 0 km/h
552 20-07-2010 14:20:02 31.8 C 6.68 g/m*3 31.8 C 0 km/h
553 20-07-2010 14:32:01 31.5 C 6.57 g/m*3 31.5 C 0 km/h
554 20-07-2010 14:44:01 31.8 C 6.68 g/m*3 31.8 C 0 km/h
555 20-07-2010 14:56:02 32 C 6.75 g/m*3 32 C 0 km/h
556 20-07-2010 15:08:01 32 C 6.75 g/m*3 32 C 0 km/h
557 20-07-2010 15:20:01 32.1 C 6.79 g/m*3 32.1 C 0 km/h
558 20-07-2010 15:32:02 32.3 C 6.86 g/m*3 32.3 C 0 km/h
559 20-07-2010 15:44:02 32.8 C 7.04 g/m*3 32.8 C 0 km/h
560 20-07-2010 15:56:01 32.5 C 6.93 g/m*3 32.5 C 0 km/h
561 20-07-2010 16:08:02 32.7 C 7.01 g/m*3 32.7 C 0 km/h
562 20-07-2010 16:20:01 33.1 C 7.16 g/m*3 33.1 C 0 km/h
563 20-07-2010 16:32:02 33 C 7.12 g/m*3 33 C 0 km/h
564 20-07-2010 16:44:02 33 C 7.12 g/m*3 33 C 0 km/h
565 20-07-2010 16:56:01 33.5 C 7.31 g/m*3 33.5 C 0 km/h
566 20-07-2010 17:08:02 33.3 C 7.23 g/m*3 33.3 C 0 km/h
567 20-07-2010 17:20:01 33.3 C 7.23 g/m*3 33.3 C 0 km/h
568 20-07-2010 17:32:01 33.2 C 7.2 g/m*3 33.2 C 0 km/h
569 20-07-2010 17:44:02 33.4 C 7.27 g/m*3 33.4 C 0 km/h
570 20-07-2010 17:56:01 33.1 C 7.16 g/m*3 33.1 C 0 km/h
571 20-07-2010 18:08:02 33.3 C 7.23 g/m*3 33.3 C 0 km/h
572 20-07-2010 18:20:02 33.3 C 7.23 g/m*3 33.3 C 0 km/h
573 20-07-2010 18:32:01 32.7 C 7.01 g/m*3 32.7 C 0 km/h
574 20-07-2010 18:44:01 32.7 C 7.01 g/m*3 32.7 C 0 km/h
575 20-07-2010 18:56:01 32.6 C 6.97 g/m*3 32.6 C 0 km/h
Sensor: Nr:Datum:Temp:Abs-Feuchte:Windchill:Wind:
Aussen-T/F 576 20-07-2010 19:08:02 32.3 C 6.86 g/m*3 32.3 C 0 km/h
577 20-07-2010 19:20:01 31.7 C 6.64 g/m*3 31.7 C 0 km/h
578 20-07-2010 19:32:02 31.9 C 6.72 g/m*3 31.9 C 0 km/h
579 20-07-2010 19:44:02 32.1 C 6.79 g/m*3 32.1 C 0 km/h
580 20-07-2010 19:56:01 32.1 C 6.79 g/m*3 32.1 C 0 km/h
581 20-07-2010 20:08:02 32 C 6.75 g/m*3 32 C 0 km/h
582 20-07-2010 20:20:01 31.5 C 6.57 g/m*3 31.5 C 0 km/h
583 20-07-2010 20:32:01 30.8 C 6.33 g/m*3 30.8 C 0 km/h
584 20-07-2010 20:44:01 30 C 6.06 g/m*3 30 C 0 km/h
585 20-07-2010 20:56:01 29.3 C 6.13 g/m*3 29.3 C 0 km/h
586 20-07-2010 21:08:02 28.1 C 6.56 g/m*3 28.1 C 0 km/h
587 20-07-2010 21:20:01 26.9 C 6.65 g/m*3 26.9 C 0 km/h
588 20-07-2010 21:32:01 26.4 C 6.47 g/m*3 26.4 C 0 km/h
589 20-07-2010 21:44:02 25.7 C 6.22 g/m*3 25.7 C 0 km/h
590 20-07-2010 21:56:01 25.3 C 6.09 g/m*3 25.3 C 0 km/h
591 20-07-2010 22:09:02 24.5 C 6.27 g/m*3 24.5 C 0 km/h
592 20-07-2010 22:21:02 24.5 C 6.71 g/m*3 24.5 C 0 km/h
593 20-07-2010 22:33:02 24.5 C 6.71 g/m*3 24.5 C 0 km/h
594 20-07-2010 22:45:02 24.4 C 6.68 g/m*3 24.4 C 0 km/h
595 20-07-2010 22:57:02 24.1 C 6.56 g/m*3 24.1 C 0 km/h
596 20-07-2010 23:09:02 23.8 C 6.67 g/m*3 23.8 C 0 km/h
597 20-07-2010 23:21:02 23.7 C 6.84 g/m*3 23.7 C 0 km/h
598 20-07-2010 23:33:02 23.5 C 6.98 g/m*3 23.5 C 0 km/h
599 20-07-2010 23:45:02 23.4 C 6.94 g/m*3 23.4 C 0 km/h
600 20-07-2010 23:57:02 23 C 7.19 g/m*3 23 C 0 km/h
Sensor: Nr:Datum:Temp:Abs-Feuchte:Windchill:Wind:
Aussen-T/F 601 21-07-2010 00:09:02 22.5 C 7.39 g/m*3 22.5 C 0 km/h
602 21-07-2010 00:21:02 22.3 C 7.5 g/m*3 22.3 C 0 km/h
603 21-07-2010 00:33:02 21.9 C 7.72 g/m*3 21.9 C 0 km/h
604 21-07-2010 00:45:02 21.7 C 7.63 g/m*3 21.7 C 0 km/h
605 21-07-2010 00:57:02 21.5 C 7.73 g/m*3 21.5 C 0 km/h
606 21-07-2010 01:09:03 21.3 C 7.83 g/m*3 21.3 C 0 km/h
607 21-07-2010 01:21:03 21.1 C 7.92 g/m*3 21.1 C 0 km/h
608 21-07-2010 01:33:03 20.9 C 8.01 g/m*3 20.9 C 0 km/h
609 21-07-2010 01:45:03 20.6 C 8.05 g/m*3 20.6 C 0 km/h
610 21-07-2010 01:57:03 20.4 C 8.31 g/m*3 20.4 C 0 km/h
611 21-07-2010 02:09:03 20 C 8.12 g/m*3 20 C 0 km/h
612 21-07-2010 02:21:03 20 C 8.3 g/m*3 20 C 0 km/h
613 21-07-2010 02:33:03 19.7 C 8.49 g/m*3 19.7 C 0 km/h
614 21-07-2010 02:45:03 19.4 C 8.34 g/m*3 19.4 C 0 km/h
615 21-07-2010 02:57:03 19.3 C 8.29 g/m*3 19.3 C 0 km/h
616 21-07-2010 03:09:03 19.2 C 8.41 g/m*3 19.2 C 0 km/h
617 21-07-2010 03:21:03 19 C 8.31 g/m*3 19 C 0 km/h
618 21-07-2010 03:33:03 18.7 C 8.33 g/m*3 18.7 C 0 km/h
619 21-07-2010 03:45:03 18.6 C 8.44 g/m*3 18.6 C 0 km/h
620 21-07-2010 03:57:03 18.4 C 8.49 g/m*3 18.4 C 0 km/h
621 21-07-2010 04:09:03 18.4 C 8.49 g/m*3 18.4 C 0 km/h
622 21-07-2010 04:21:03 18.3 C 8.44 g/m*3 18.3 C 0 km/h
623 21-07-2010 04:33:03 18.1 C 8.65 g/m*3 18.1 C 0 km/h
624 21-07-2010 04:45:03 17.9 C 8.7 g/m*3 17.9 C 0 km/h
625 21-07-2010 04:57:03 17.7 C 8.6 g/m*3 17.7 C 0 km/h
Sensor: Nr:Datum:Temp:Abs-Feuchte:Windchill:Wind:
Aussen-T/F 626 21-07-2010 05:09:03 17.6 C 8.55 g/m*3 17.6 C 0 km/h
627 21-07-2010 05:21:04 17.4 C 8.6 g/m*3 17.4 C 0 km/h
628 21-07-2010 05:33:04 17.4 C 8.74 g/m*3 17.4 C 0 km/h
629 21-07-2010 05:45:04 17.2 C 8.93 g/m*3 17.2 C 0 km/h
630 21-07-2010 05:57:04 17.3 C 8.99 g/m*3 17.3 C 0 km/h
631 21-07-2010 06:09:04 17.1 C 8.88 g/m*3 17.1 C 0 km/h
632 21-07-2010 06:21:04 17 C 8.68 g/m*3 17 C 0 km/h
633 21-07-2010 06:33:04 17.1 C 8.88 g/m*3 17.1 C 0 km/h
634 21-07-2010 06:45:04 17.2 C 8.93 g/m*3 17.2 C 0 km/h
635 21-07-2010 06:57:04 17.4 C 9.19 g/m*3 17.4 C 0 km/h
636 21-07-2010 07:09:02 17.4 C 9.19 g/m*3 17.4 C 0 km/h
637 21-07-2010 07:21:01 17.6 C 9.45 g/m*3 17.6 C 0 km/h
638 21-07-2010 07:33:02 17.7 C 9.35 g/m*3 17.7 C 0 km/h
639 21-07-2010 07:45:02 18 C 9.22 g/m*3 18 C 0 km/h
640 21-07-2010 07:57:02 18.3 C 9.38 g/m*3 18.3 C 0 km/h
641 21-07-2010 08:09:02 18.5 C 9.18 g/m*3 18.5 C 0 km/h
642 21-07-2010 08:21:01 18.8 C 9.18 g/m*3 18.8 C 0 km/h
643 21-07-2010 08:33:02 19.2 C 9.07 g/m*3 19.2 C 0 km/h
644 21-07-2010 08:45:01 19.4 C 9.01 g/m*3 19.4 C 0 km/h
645 21-07-2010 08:57:01 20.1 C 8.87 g/m*3 20.1 C 0 km/h
646 21-07-2010 09:09:02 20.6 C 9.31 g/m*3 20.6 C 0 km/h
647 21-07-2010 09:21:02 21.4 C 9.37 g/m*3 21.4 C 0 km/h
648 21-07-2010 09:33:02 22.4 C 9.53 g/m*3 22.4 C 0 km/h
649 21-07-2010 09:45:01 23.3 C 9.41 g/m*3 23.3 C 0 km/h
650 21-07-2010 09:57:01 23.9 C 9.3 g/m*3 23.9 C 0 km/h
Sensor: Nr:Datum:Temp:Abs-Feuchte:Windchill:Wind:
Aussen-T/F 651 21-07-2010 10:09:02 24.7 C 9.28 g/m*3 24.7 C 0 km/h
652 21-07-2010 10:21:02 25.7 C 9.1 g/m*3 25.7 C 0 km/h
653 21-07-2010 10:33:01 26.6 C 8.56 g/m*3 26.6 C 0 km/h
654 21-07-2010 10:45:02 27.3 C 8.11 g/m*3 27.3 C 0 km/h
655 21-07-2010 10:57:02 28.4 C 7.78 g/m*3 28.4 C 0 km/h
656 21-07-2010 11:09:01 28.9 C 7.43 g/m*3 28.9 C 0 km/h
657 21-07-2010 11:21:02 29.3 C 7.3 g/m*3 29.3 C 0 km/h
658 21-07-2010 11:33:01 29.7 C 7.46 g/m*3 29.7 C 0 km/h
659 21-07-2010 11:45:02 30 C 7.58 g/m*3 30 C 0 km/h
660 21-07-2010 11:57:02 30.4 C 7.13 g/m*3 30.4 C 0 km/h
661 21-07-2010 12:09:02 30.7 C 6.61 g/m*3 30.7 C 0 km/h
662 21-07-2010 12:21:02 31.2 C 6.47 g/m*3 31.2 C 0 km/h
663 21-07-2010 12:33:02 31.6 C 6.61 g/m*3 31.6 C 0 km/h
664 21-07-2010 12:45:02 31.6 C 6.61 g/m*3 31.6 C 0 km/h
665 21-07-2010 12:57:02 31.7 C 6.64 g/m*3 31.7 C 0 km/h
666 21-07-2010 13:09:01 32.1 C 6.79 g/m*3 32.1 C 0 km/h
667 21-07-2010 13:21:02 32.5 C 6.93 g/m*3 32.5 C 0 km/h
668 21-07-2010 13:33:02 32.6 C 6.97 g/m*3 32.6 C 0 km/h
669 21-07-2010 13:45:02 32.6 C 6.97 g/m*3 32.6 C 0 km/h
670 21-07-2010 13:57:02 32.8 C 7.04 g/m*3 32.8 C 0 km/h
671 21-07-2010 14:09:02 32.6 C 6.97 g/m*3 32.6 C 0 km/h
672 21-07-2010 14:21:02 32.4 C 6.9 g/m*3 32.4 C 0 km/h
673 21-07-2010 14:33:02 32.5 C 6.93 g/m*3 32.5 C 0 km/h
674 21-07-2010 14:45:01 32.6 C 6.97 g/m*3 32.6 C 0 km/h
675 21-07-2010 14:57:01 32.8 C 7.04 g/m*3 32.8 C 0 km/h
Sensor: Nr:Datum:Temp:Abs-Feuchte:Windchill:Wind:
Aussen-T/F 676 21-07-2010 15:09:02 32.6 C 6.97 g/m*3 32.6 C 0 km/h
677 21-07-2010 15:21:01 32.6 C 6.97 g/m*3 32.6 C 0 km/h
678 21-07-2010 15:33:01 32.4 C 6.9 g/m*3 32.4 C 0 km/h
679 21-07-2010 15:45:01 32.8 C 7.04 g/m*3 32.8 C 0 km/h
680 21-07-2010 15:57:01 32.4 C 6.9 g/m*3 32.4 C 0 km/h
681 21-07-2010 16:09:02 32.3 C 6.86 g/m*3 32.3 C 0 km/h
682 21-07-2010 16:21:01 32.3 C 6.86 g/m*3 32.3 C 0 km/h
683 21-07-2010 16:33:02 32.3 C 6.86 g/m*3 32.3 C 0 km/h
684 21-07-2010 16:45:02 32.8 C 7.04 g/m*3 32.8 C 0 km/h
685 21-07-2010 16:57:02 32.5 C 6.93 g/m*3 32.5 C 0 km/h
686 21-07-2010 17:09:02 32.1 C 6.79 g/m*3 32.1 C 0 km/h
687 21-07-2010 17:21:02 31.9 C 6.72 g/m*3 31.9 C 0 km/h
688 21-07-2010 17:33:02 31.7 C 6.64 g/m*3 31.7 C 0 km/h
689 21-07-2010 17:45:02 31.1 C 6.76 g/m*3 31.1 C 0 km/h
690 21-07-2010 17:57:02 30.7 C 6.93 g/m*3 30.7 C 0 km/h
691 21-07-2010 18:09:02 30.4 C 7.13 g/m*3 30.4 C 0 km/h
692 21-07-2010 18:21:02 30.3 C 7.4 g/m*3 30.3 C 0 km/h
693 21-07-2010 18:33:02 30.3 C 7.4 g/m*3 30.3 C 0 km/h
694 21-07-2010 18:45:02 30 C 7.28 g/m*3 30 C 0 km/h
695 21-07-2010 18:57:02 29.6 C 7.42 g/m*3 29.6 C 0 km/h
696 21-07-2010 19:09:02 29.5 C 7.67 g/m*3 29.5 C 0 km/h
697 21-07-2010 19:21:02 29.4 C 7.63 g/m*3 29.4 C 0 km/h
698 21-07-2010 19:33:02 28.9 C 7.71 g/m*3 28.9 C 0 km/h
699 21-07-2010 19:45:01 28.5 C 7.83 g/m*3 28.5 C 0 km/h
700 21-07-2010 19:57:01 27.3 C 9.16 g/m*3 27.3 C 0 km/h
Sensor: Nr:Datum:Temp:Abs-Feuchte:Windchill:Wind:
Aussen-T/F 701 21-07-2010 20:09:02 23.7 C 11.55 g/m*3 23.7 C 0 km/h
702 21-07-2010 20:21:01 23.4 C 12.41 g/m*3 23.4 C 0 km/h
703 21-07-2010 20:33:01 23.7 C 12.62 g/m*3 23.7 C 0 km/h
704 21-07-2010 20:45:01 23.9 C 12.33 g/m*3 23.9 C 0 km/h
705 21-07-2010 20:57:01 23.2 C 11.85 g/m*3 23.2 C 0 km/h
706 21-07-2010 21:09:01 23.3 C 11.71 g/m*3 23.3 C 0 km/h
707 21-07-2010 21:21:02 23.1 C 11.78 g/m*3 23.1 C 0 km/h
708 21-07-2010 21:33:01 22.6 C 12.05 g/m*3 22.6 C 0 km/h
709 21-07-2010 21:45:01 23 C 11.92 g/m*3 23 C 0 km/h
710 21-07-2010 21:57:01 23.1 C 11.78 g/m*3 23.1 C 0 km/h
711 21-07-2010 22:10:03 23.3 C 11.92 g/m*3 23.3 C 0 km/h
712 21-07-2010 22:22:03 23 C 11.51 g/m*3 23 C 0 km/h
713 21-07-2010 22:34:03 22.9 C 11.85 g/m*3 22.9 C 0 km/h
714 21-07-2010 22:46:03 22.9 C 11.85 g/m*3 22.9 C 0 km/h
715 21-07-2010 22:58:03 22.9 C 11.65 g/m*3 22.9 C 0 km/h
716 21-07-2010 23:10:03 23 C 11.51 g/m*3 23 C 0 km/h
717 21-07-2010 23:22:03 23 C 11.3 g/m*3 23 C 0 km/h
718 21-07-2010 23:34:03 22.9 C 11.44 g/m*3 22.9 C 0 km/h
719 21-07-2010 23:46:03 22.7 C 11.52 g/m*3 22.7 C 0 km/h
720 21-07-2010 23:58:03 22.8 C 11.58 g/m*3 22.8 C 0 km/h
721 22-07-2010 00:10:03 22.7 C 11.52 g/m*3 22.7 C 0 km/h
722 22-07-2010 00:22:03 22.6 C 11.65 g/m*3 22.6 C 0 km/h
723 22-07-2010 00:34:03 22.5 C 11.58 g/m*3 22.5 C 0 km/h
724 22-07-2010 00:46:04 22.5 C 11.58 g/m*3 22.5 C 0 km/h
725 22-07-2010 00:58:04 22.5 C 11.58 g/m*3 22.5 C 0 km/h
Sensor: Nr:Datum:Temp:Abs-Feuchte:Windchill:Wind:
Aussen-T/F 726 22-07-2010 01:10:04 22.4 C 11.72 g/m*3 22.4 C 0 km/h
727 22-07-2010 01:22:04 22.4 C 11.72 g/m*3 22.4 C 0 km/h
728 22-07-2010 01:34:04 22.3 C 11.65 g/m*3 22.3 C 0 km/h
729 22-07-2010 01:46:04 22 C 11.45 g/m*3 22 C 0 km/h
730 22-07-2010 01:58:04 21.7 C 11.64 g/m*3 21.7 C 0 km/h
731 22-07-2010 02:10:04 21.5 C 11.69 g/m*3 21.5 C 0 km/h
732 22-07-2010 02:22:04 21.3 C 11.56 g/m*3 21.3 C 0 km/h
733 22-07-2010 02:34:04 21.2 C 11.49 g/m*3 21.2 C 0 km/h
734 22-07-2010 02:46:04 21.2 C 11.49 g/m*3 21.2 C 0 km/h
735 22-07-2010 02:58:04 21.2 C 11.3 g/m*3 21.2 C 0 km/h
736 22-07-2010 03:10:04 21.1 C 11.42 g/m*3 21.1 C 0 km/h
737 22-07-2010 03:22:04 21.1 C 11.42 g/m*3 21.1 C 0 km/h
738 22-07-2010 03:34:04 20.9 C 11.29 g/m*3 20.9 C 0 km/h
739 22-07-2010 03:46:04 20.8 C 11.05 g/m*3 20.8 C 0 km/h
740 22-07-2010 03:58:04 20.7 C 10.62 g/m*3 20.7 C 0 km/h
741 22-07-2010 04:10:04 20.7 C 10.62 g/m*3 20.7 C 0 km/h
742 22-07-2010 04:22:04 20.8 C 10.5 g/m*3 20.8 C 0 km/h
743 22-07-2010 04:34:04 20.5 C 10.5 g/m*3 20.5 C 0 km/h
744 22-07-2010 04:46:04 20.3 C 10.2 g/m*3 20.3 C 0 km/h
745 22-07-2010 04:58:05 20.2 C 9.97 g/m*3 20.2 C 0 km/h
746 22-07-2010 05:10:05 20.1 C 9.73 g/m*3 20.1 C 0 km/h
747 22-07-2010 05:22:05 20.1 C 9.73 g/m*3 20.1 C 0 km/h
748 22-07-2010 05:34:05 20 C 9.68 g/m*3 20 C 0 km/h
749 22-07-2010 05:46:05 19.9 C 9.79 g/m*3 19.9 C 0 km/h
750 22-07-2010 05:58:05 19.4 C 10.18 g/m*3 19.4 C 0 km/h
Sensor: Nr:Datum:Temp:Abs-Feuchte:Windchill:Wind:
Aussen-T/F 751 22-07-2010 06:10:05 19.4 C 10.01 g/m*3 19.4 C 0 km/h
752 22-07-2010 06:22:05 19.1 C 10.33 g/m*3 19.1 C 0 km/h
753 22-07-2010 06:34:05 18.6 C 11.14 g/m*3 18.6 C 0 km/h
754 22-07-2010 06:46:01 18.5 C 11.39 g/m*3 18.5 C 0 km/h
755 22-07-2010 06:58:01 19 C 11.73 g/m*3 19 C 0 km/h
756 22-07-2010 07:10:02 19 C 11.57 g/m*3 19 C 0 km/h
757 22-07-2010 07:22:01 18.8 C 11.76 g/m*3 18.8 C 0 km/h
758 22-07-2010 07:34:01 18.9 C 11.66 g/m*3 18.9 C 0 km/h
759 22-07-2010 07:46:01 19.5 C 11.58 g/m*3 19.5 C 0 km/h
760 22-07-2010 07:58:01 20 C 11.06 g/m*3 20 C 0 km/h
761 22-07-2010 08:10:02 20.3 C 11.08 g/m*3 20.3 C 0 km/h
762 22-07-2010 08:22:02 20.7 C 11.16 g/m*3 20.7 C 0 km/h
763 22-07-2010 08:34:01 21 C 10.81 g/m*3 21 C 0 km/h
764 22-07-2010 08:46:02 21.4 C 10.87 g/m*3 21.4 C 0 km/h
765 22-07-2010 08:58:02 21.8 C 10.74 g/m*3 21.8 C 0 km/h
766 22-07-2010 09:10:01 21.6 C 10.62 g/m*3 21.6 C 0 km/h
767 22-07-2010 09:22:02 21.5 C 10.56 g/m*3 21.5 C 0 km/h
768 22-07-2010 09:34:01 22.2 C 10.21 g/m*3 22.2 C 0 km/h
769 22-07-2010 09:46:02 22.4 C 10.13 g/m*3 22.4 C 0 km/h
770 22-07-2010 09:58:02 22.6 C 10.04 g/m*3 22.6 C 0 km/h
771 22-07-2010 10:10:02 22.3 C 10.07 g/m*3 22.3 C 0 km/h
772 22-07-2010 10:22:02 22.2 C 10.21 g/m*3 22.2 C 0 km/h
773 22-07-2010 10:34:02 22.1 C 10.15 g/m*3 22.1 C 0 km/h
774 22-07-2010 10:46:02 20.9 C 11.11 g/m*3 20.9 C 0 km/h
775 22-07-2010 10:58:03 20.4 C 11.68 g/m*3 20.4 C 0 km/h
Sensor: Nr:Datum:Temp:Abs-Feuchte:Windchill:Wind:
Aussen-T/F 776 22-07-2010 11:10:01 20.4 C 11.85 g/m*3 20.4 C 0 km/h
777 22-07-2010 11:22:02 21.4 C 12.19 g/m*3 21.4 C 0 km/h
778 22-07-2010 11:34:02 22 C 11.84 g/m*3 22 C 0 km/h
779 22-07-2010 11:46:02 22.4 C 11.72 g/m*3 22.4 C 0 km/h
780 22-07-2010 11:58:02 22.7 C 11.52 g/m*3 22.7 C 0 km/h
781 22-07-2010 12:10:02 22.9 C 11.24 g/m*3 22.9 C 0 km/h
782 22-07-2010 12:22:02 22.4 C 11.32 g/m*3 22.4 C 0 km/h
783 22-07-2010 12:34:02 22.5 C 11.58 g/m*3 22.5 C 0 km/h
784 22-07-2010 12:46:01 22.4 C 11.32 g/m*3 22.4 C 0 km/h
785 22-07-2010 12:58:01 21.7 C 11.83 g/m*3 21.7 C 0 km/h
786 22-07-2010 13:10:02 21.5 C 12.63 g/m*3 21.5 C 0 km/h
787 22-07-2010 13:22:01 21 C 12.09 g/m*3 21 C 0 km/h
788 22-07-2010 13:34:01 20.1 C 12.69 g/m*3 20.1 C 0 km/h
789 22-07-2010 13:46:01 20.4 C 13.44 g/m*3 20.4 C 0 km/h
790 22-07-2010 13:58:01 21.5 C 13.01 g/m*3 21.5 C 0 km/h
791 22-07-2010 14:10:02 21.4 C 12.56 g/m*3 21.4 C 0 km/h
792 22-07-2010 14:22:01 21.3 C 12.68 g/m*3 21.3 C 0 km/h
793 22-07-2010 14:34:01 21.8 C 12.28 g/m*3 21.8 C 0 km/h
794 22-07-2010 14:46:01 20.9 C 12.38 g/m*3 20.9 C 0 km/h
795 22-07-2010 14:58:01 20.9 C 12.75 g/m*3 20.9 C 0 km/h
796 22-07-2010 15:10:02 20.8 C 12.86 g/m*3 20.8 C 0 km/h
797 22-07-2010 15:22:01 20.4 C 12.91 g/m*3 20.4 C 0 km/h
798 22-07-2010 15:34:01 21.2 C 13.34 g/m*3 21.2 C 0 km/h
799 22-07-2010 15:46:01 22 C 13 g/m*3 22 C 0 km/h
800 22-07-2010 15:58:01 22.5 C 12.38 g/m*3 22.5 C 0 km/h
Sensor: Nr:Datum:Temp:Abs-Feuchte:Windchill:Wind:
Aussen-T/F 801 22-07-2010 16:10:01 23.3 C 11.71 g/m*3 23.3 C 0 km/h
802 22-07-2010 16:22:02 23.4 C 11.57 g/m*3 23.4 C 0 km/h
803 22-07-2010 16:34:01 23.2 C 11.43 g/m*3 23.2 C 0 km/h
804 22-07-2010 16:46:03 23.3 C 11.29 g/m*3 23.3 C 0 km/h
805 22-07-2010 16:58:03 22.8 C 11.79 g/m*3 22.8 C 0 km/h
806 22-07-2010 17:10:02 21.7 C 12.97 g/m*3 21.7 C 0 km/h
807 22-07-2010 17:22:02 21.9 C 13.7 g/m*3 21.9 C 0 km/h
808 22-07-2010 17:34:02 21.8 C 13.43 g/m*3 21.8 C 0 km/h
809 22-07-2010 17:46:02 22.1 C 13.27 g/m*3 22.1 C 0 km/h
810 22-07-2010 17:58:03 22.7 C 13.13 g/m*3 22.7 C 0 km/h
811 22-07-2010 18:10:02 22.5 C 12.78 g/m*3 22.5 C 0 km/h
812 22-07-2010 18:22:02 23.1 C 12.2 g/m*3 23.1 C 0 km/h
813 22-07-2010 18:34:01 23.1 C 11.78 g/m*3 23.1 C 0 km/h
814 22-07-2010 18:46:02 23 C 11.92 g/m*3 23 C 0 km/h
815 22-07-2010 18:58:02 23.3 C 11.71 g/m*3 23.3 C 0 km/h
816 22-07-2010 19:10:02 23.1 C 11.58 g/m*3 23.1 C 0 km/h
817 22-07-2010 19:22:01 22.8 C 11.99 g/m*3 22.8 C 0 km/h
818 22-07-2010 19:34:01 22.7 C 11.92 g/m*3 22.7 C 0 km/h
819 22-07-2010 19:46:02 22.5 C 11.98 g/m*3 22.5 C 0 km/h
820 22-07-2010 19:58:02 22.3 C 12.05 g/m*3 22.3 C 0 km/h
821 22-07-2010 20:10:01 22.1 C 11.91 g/m*3 22.1 C 0 km/h
822 22-07-2010 20:22:01 22 C 12.03 g/m*3 22 C 0 km/h
823 22-07-2010 20:34:00 21.9 C 12.16 g/m*3 21.9 C 0 km/h
824 22-07-2010 20:46:02 21.7 C 12.02 g/m*3 21.7 C 0 km/h
825 22-07-2010 20:58:02 21.6 C 11.95 g/m*3 21.6 C 0 km/h
Sensor: Nr:Datum:Temp:Abs-Feuchte:Windchill:Wind:
Aussen-T/F 826 22-07-2010 21:10:02 21.4 C 12 g/m*3 21.4 C 0 km/h
827 22-07-2010 21:22:02 21.2 C 11.86 g/m*3 21.2 C 0 km/h
828 22-07-2010 21:34:03 21 C 11.91 g/m*3 21 C 0 km/h
829 22-07-2010 21:46:02 20.9 C 11.84 g/m*3 20.9 C 0 km/h
830 22-07-2010 21:58:02 20.8 C 11.95 g/m*3 20.8 C 0 km/h
831 22-07-2010 22:10:02 20.7 C 11.88 g/m*3 20.7 C 0 km/h
832 22-07-2010 22:22:02 20.6 C 11.81 g/m*3 20.6 C 0 km/h
833 22-07-2010 22:34:02 20.4 C 11.68 g/m*3 20.4 C 0 km/h
834 22-07-2010 22:46:02 20.4 C 11.85 g/m*3 20.4 C 0 km/h
835 22-07-2010 22:58:02 20.3 C 11.78 g/m*3 20.3 C 0 km/h
836 22-07-2010 23:10:02 20.2 C 11.71 g/m*3 20.2 C 0 km/h
837 22-07-2010 23:22:03 20.3 C 11.78 g/m*3 20.3 C 0 km/h
838 22-07-2010 23:34:03 20.2 C 11.89 g/m*3 20.2 C 0 km/h
839 22-07-2010 23:46:02 20.1 C 11.82 g/m*3 20.1 C 0 km/h
840 22-07-2010 23:58:02 20.2 C 11.89 g/m*3 20.2 C 0 km/h
841 23-07-2010 00:10:02 20.2 C 11.89 g/m*3 20.2 C 0 km/h
842 23-07-2010 00:22:02 20.1 C 11.99 g/m*3 20.1 C 0 km/h
843 23-07-2010 00:34:02 20 C 12.1 g/m*3 20 C 0 km/h
844 23-07-2010 00:46:02 20.1 C 12.17 g/m*3 20.1 C 0 km/h
845 23-07-2010 00:58:02 20.1 C 12.17 g/m*3 20.1 C 0 km/h
846 23-07-2010 01:10:03 20 C 12.1 g/m*3 20 C 0 km/h
847 23-07-2010 01:22:02 20 C 12.27 g/m*3 20 C 0 km/h
848 23-07-2010 01:34:02 20 C 12.27 g/m*3 20 C 0 km/h
849 23-07-2010 01:46:01 20 C 12.44 g/m*3 20 C 0 km/h
850 23-07-2010 01:58:01 20 C 12.44 g/m*3 20 C 0 km/h
Sensor: Nr:Datum:Temp:Abs-Feuchte:Windchill:Wind:
Aussen-T/F 851 23-07-2010 02:10:02 19.8 C 12.3 g/m*3 19.8 C 0 km/h
852 23-07-2010 02:22:01 19.7 C 12.4 g/m*3 19.7 C 0 km/h
853 23-07-2010 02:34:01 19.4 C 12.68 g/m*3 19.4 C 0 km/h
854 23-07-2010 02:47:03 19 C 12.39 g/m*3 19 C 0 km/h
855 23-07-2010 02:59:03 18.2 C 11.35 g/m*3 18.2 C 0 km/h
856 23-07-2010 03:11:03 16.9 C 11.51 g/m*3 16.9 C 0 km/h
857 23-07-2010 03:23:03 16.4 C 11.58 g/m*3 16.4 C 0 km/h
858 23-07-2010 03:35:01 16.2 C 11.72 g/m*3 16.2 C 0 km/h
859 23-07-2010 03:47:01 16.2 C 11.72 g/m*3 16.2 C 0 km/h
860 23-07-2010 03:59:01 16 C 11.58 g/m*3 16 C 0 km/h
861 23-07-2010 04:11:02 15.9 C 11.65 g/m*3 15.9 C 0 km/h
862 23-07-2010 04:23:02 16 C 11.72 g/m*3 16 C 0 km/h
863 23-07-2010 04:35:01 16.1 C 11.79 g/m*3 16.1 C 0 km/h
864 23-07-2010 04:47:02 16.1 C 11.65 g/m*3 16.1 C 0 km/h
865 23-07-2010 04:59:02 16.1 C 11.65 g/m*3 16.1 C 0 km/h
866 23-07-2010 05:11:01 16 C 11.58 g/m*3 16 C 0 km/h
867 23-07-2010 05:23:01 15.9 C 11.51 g/m*3 15.9 C 0 km/h
868 23-07-2010 05:35:01 15.9 C 11.51 g/m*3 15.9 C 0 km/h
869 23-07-2010 05:47:02 15.9 C 11.51 g/m*3 15.9 C 0 km/h
870 23-07-2010 05:59:02 15.8 C 11.44 g/m*3 15.8 C 0 km/h
871 23-07-2010 06:11:01 15.6 C 11.3 g/m*3 15.6 C 0 km/h
872 23-07-2010 06:23:01 15.6 C 11.3 g/m*3 15.6 C 0 km/h
873 23-07-2010 06:35:02 15.7 C 11.51 g/m*3 15.7 C 0 km/h
874 23-07-2010 06:47:02 16 C 11.58 g/m*3 16 C 0 km/h
875 23-07-2010 06:59:02 16.4 C 12 g/m*3 16.4 C 0 km/h
Sensor: Nr:Datum:Temp:Abs-Feuchte:Windchill:Wind:
Aussen-T/F 876 23-07-2010 07:11:02 16.7 C 12.08 g/m*3 16.7 C 0 km/h
877 23-07-2010 07:23:01 17 C 12.15 g/m*3 17 C 0 km/h
878 23-07-2010 07:35:00 17.4 C 12.45 g/m*3 17.4 C 0 km/h
879 23-07-2010 07:47:01 17.5 C 12.37 g/m*3 17.5 C 0 km/h
880 23-07-2010 07:59:01 17.7 C 12.22 g/m*3 17.7 C 0 km/h
881 23-07-2010 08:11:01 17.8 C 12.14 g/m*3 17.8 C 0 km/h
882 23-07-2010 08:23:01 18 C 12.13 g/m*3 18 C 0 km/h
883 23-07-2010 08:35:00 18 C 11.98 g/m*3 18 C 0 km/h
884 23-07-2010 08:47:03 18.1 C 12.05 g/m*3 18.1 C 0 km/h
885 23-07-2010 08:59:03 18.2 C 12.12 g/m*3 18.2 C 0 km/h
886 23-07-2010 09:11:02 18.4 C 12.27 g/m*3 18.4 C 0 km/h
887 23-07-2010 09:23:03 18.6 C 12.26 g/m*3 18.6 C 0 km/h
888 23-07-2010 09:35:02 18.9 C 12.15 g/m*3 18.9 C 0 km/h
889 23-07-2010 09:47:02 19.5 C 11.41 g/m*3 19.5 C 0 km/h
890 23-07-2010 09:59:02 20 C 10.89 g/m*3 20 C 0 km/h
891 23-07-2010 10:11:02 20.4 C 10.44 g/m*3 20.4 C 0 km/h
892 23-07-2010 10:23:02 20.9 C 10.56 g/m*3 20.9 C 0 km/h
893 23-07-2010 10:35:03 21.5 C 10.75 g/m*3 21.5 C 0 km/h
894 23-07-2010 10:47:02 22 C 10.29 g/m*3 22 C 0 km/h
895 23-07-2010 10:59:02 22.2 C 10.21 g/m*3 22.2 C 0 km/h
896 23-07-2010 11:11:03 23.2 C 10.19 g/m*3 23.2 C 0 km/h
897 23-07-2010 11:23:02 23.7 C 10.05 g/m*3 23.7 C 0 km/h
898 23-07-2010 11:35:02 24.4 C 9.57 g/m*3 24.4 C 0 km/h
899 23-07-2010 11:47:01 24.6 C 9.45 g/m*3 24.6 C 0 km/h
900 23-07-2010 11:59:01 24.8 C 9.1 g/m*3 24.8 C 0 km/h
Sensor: Nr:Datum:Temp:Abs-Feuchte:Windchill:Wind:
Aussen-T/F 901 23-07-2010 12:11:02 25.9 C 9.2 g/m*3 25.9 C 0 km/h
902 23-07-2010 12:23:01 26.4 C 7.97 g/m*3 26.4 C 0 km/h
903 23-07-2010 12:35:01 27.2 C 7.81 g/m*3 27.2 C 0 km/h
904 23-07-2010 12:47:01 26.9 C 7.68 g/m*3 26.9 C 0 km/h
905 23-07-2010 12:59:01 25.9 C 7.75 g/m*3 25.9 C 0 km/h
906 23-07-2010 13:11:01 26.4 C 7.22 g/m*3 26.4 C 0 km/h
907 23-07-2010 13:23:02 28.2 C 6.87 g/m*3 28.2 C 0 km/h
908 23-07-2010 13:35:01 28.7 C 6.22 g/m*3 28.7 C 0 km/h
909 23-07-2010 13:47:02 28 C 5.98 g/m*3 28 C 0 km/h
910 23-07-2010 13:59:02 27.8 C 6.72 g/m*3 27.8 C 0 km/h
911 23-07-2010 14:11:02 28.8 C 6.82 g/m*3 28.8 C 0 km/h
912 23-07-2010 14:23:02 28.6 C 6.74 g/m*3 28.6 C 0 km/h
913 23-07-2010 14:35:02 29.5 C 6.49 g/m*3 29.5 C 0 km/h
914 23-07-2010 14:47:03 29.7 C 6.56 g/m*3 29.7 C 0 km/h
915 23-07-2010 14:59:03 30.1 C 6.1 g/m*3 30.1 C 0 km/h
916 23-07-2010 15:11:02 28.9 C 5.71 g/m*3 28.9 C 0 km/h
917 23-07-2010 15:23:02 28.9 C 6.57 g/m*3 28.9 C 0 km/h
918 23-07-2010 15:35:02 28.5 C 6.43 g/m*3 28.5 C 0 km/h
919 23-07-2010 15:47:02 27.8 C 6.46 g/m*3 27.8 C 0 km/h
920 23-07-2010 15:59:02 27.9 C 6.76 g/m*3 27.9 C 0 km/h
921 23-07-2010 16:11:02 28.8 C 6.25 g/m*3 28.8 C 0 km/h
922 23-07-2010 16:23:03 29.5 C 6.2 g/m*3 29.5 C 0 km/h
923 23-07-2010 16:35:02 28.7 C 6.22 g/m*3 28.7 C 0 km/h
924 23-07-2010 16:47:02 28.2 C 6.32 g/m*3 28.2 C 0 km/h
925 23-07-2010 16:59:02 27.5 C 6.61 g/m*3 27.5 C 0 km/h
Sensor: Nr:Datum:Temp:Abs-Feuchte:Windchill:Wind:
Aussen-T/F 926 23-07-2010 17:11:02 26.4 C 7.22 g/m*3 26.4 C 0 km/h
927 23-07-2010 17:23:02 24.5 C 6.94 g/m*3 24.5 C 0 km/h
928 23-07-2010 17:35:03 21.9 C 8.88 g/m*3 21.9 C 0 km/h
929 23-07-2010 17:47:02 20.1 C 10.26 g/m*3 20.1 C 0 km/h
930 23-07-2010 17:59:02 18.7 C 11.37 g/m*3 18.7 C 0 km/h
931 23-07-2010 18:11:02 18.3 C 11.26 g/m*3 18.3 C 0 km/h
932 23-07-2010 18:23:02 18 C 11.52 g/m*3 18 C 0 km/h
933 23-07-2010 18:35:02 18 C 11.67 g/m*3 18 C 0 km/h
934 23-07-2010 18:47:02 18.2 C 11.66 g/m*3 18.2 C 0 km/h
935 23-07-2010 18:59:02 18 C 11.52 g/m*3 18 C 0 km/h
936 23-07-2010 19:11:01 17.3 C 11.79 g/m*3 17.3 C 0 km/h
937 23-07-2010 19:23:02 17.5 C 12.37 g/m*3 17.5 C 0 km/h
938 23-07-2010 19:35:01 17 C 12.15 g/m*3 17 C 0 km/h
939 23-07-2010 19:47:01 16.8 C 12.44 g/m*3 16.8 C 0 km/h
940 23-07-2010 19:59:01 16.2 C 12.14 g/m*3 16.2 C 0 km/h
941 23-07-2010 20:11:01 16 C 12.13 g/m*3 16 C 0 km/h
942 23-07-2010 20:23:02 15.9 C 12.19 g/m*3 15.9 C 0 km/h
943 23-07-2010 20:35:01 16 C 12.26 g/m*3 16 C 0 km/h
944 23-07-2010 20:47:02 16.1 C 12.47 g/m*3 16.1 C 0 km/h
945 23-07-2010 20:59:02 15.9 C 12.46 g/m*3 15.9 C 0 km/h
946 23-07-2010 21:11:01 15.9 C 12.46 g/m*3 15.9 C 0 km/h
947 23-07-2010 21:23:02 15.8 C 12.38 g/m*3 15.8 C 0 km/h
948 23-07-2010 21:35:01 15.6 C 12.23 g/m*3 15.6 C 0 km/h
949 23-07-2010 21:47:01 15.4 C 12.09 g/m*3 15.4 C 0 km/h
950 23-07-2010 21:59:01 15.2 C 12.07 g/m*3 15.2 C 0 km/h
Sensor: Nr:Datum:Temp:Abs-Feuchte:Windchill:Wind:
Aussen-T/F 951 23-07-2010 22:11:01 15.1 C 12 g/m*3 15.1 C 0 km/h
952 23-07-2010 22:23:02 15.2 C 12.07 g/m*3 15.2 C 0 km/h
953 23-07-2010 22:35:01 15.1 C 12 g/m*3 15.1 C 0 km/h
954 23-07-2010 22:48:02 15.1 C 12 g/m*3 15.1 C 0 km/h
955 23-07-2010 23:00:02 15.3 C 12.14 g/m*3 15.3 C 0 km/h
956 23-07-2010 23:12:02 15.1 C 12 g/m*3 15.1 C 0 km/h
957 23-07-2010 23:24:02 15.1 C 12.13 g/m*3 15.1 C 0 km/h
958 23-07-2010 23:36:02 15 C 12.05 g/m*3 15 C 0 km/h
959 23-07-2010 23:48:02 15 C 12.05 g/m*3 15 C 0 km/h
960 24-07-2010 00:00:02 15 C 12.05 g/m*3 15 C 0 km/h
961 24-07-2010 00:12:02 15 C 12.05 g/m*3 15 C 0 km/h
962 24-07-2010 00:24:02 15 C 12.05 g/m*3 15 C 0 km/h
963 24-07-2010 00:36:02 15 C 12.05 g/m*3 15 C 0 km/h
964 24-07-2010 00:48:03 15.1 C 12.13 g/m*3 15.1 C 0 km/h
965 24-07-2010 01:00:03 15 C 12.05 g/m*3 15 C 0 km/h
966 24-07-2010 01:12:03 15 C 12.05 g/m*3 15 C 0 km/h
967 24-07-2010 01:24:03 15.2 C 12.2 g/m*3 15.2 C 0 km/h
968 24-07-2010 01:36:03 15.2 C 12.2 g/m*3 15.2 C 0 km/h
969 24-07-2010 01:48:03 15.2 C 12.2 g/m*3 15.2 C 0 km/h
970 24-07-2010 02:00:03 15.2 C 12.33 g/m*3 15.2 C 0 km/h
971 24-07-2010 02:12:03 15.2 C 12.33 g/m*3 15.2 C 0 km/h
972 24-07-2010 02:24:03 15.2 C 12.33 g/m*3 15.2 C 0 km/h
973 24-07-2010 02:36:03 15.3 C 12.41 g/m*3 15.3 C 0 km/h
974 24-07-2010 02:48:03 15.4 C 12.48 g/m*3 15.4 C 0 km/h
975 24-07-2010 03:00:03 15.4 C 12.48 g/m*3 15.4 C 0 km/h
Sensor: Nr:Datum:Temp:Abs-Feuchte:Windchill:Wind:
Aussen-T/F 976 24-07-2010 03:12:03 15.4 C 12.48 g/m*3 15.4 C 0 km/h
977 24-07-2010 03:24:03 15.6 C 12.63 g/m*3 15.6 C 0 km/h
978 24-07-2010 03:36:03 15.7 C 12.71 g/m*3 15.7 C 0 km/h
979 24-07-2010 03:48:03 15.7 C 12.71 g/m*3 15.7 C 0 km/h
980 24-07-2010 04:00:03 15.7 C 12.71 g/m*3 15.7 C 0 km/h
981 24-07-2010 04:12:03 15.6 C 12.5 g/m*3 15.6 C 0 km/h
982 24-07-2010 04:24:03 15.7 C 12.44 g/m*3 15.7 C 0 km/h
983 24-07-2010 04:36:03 15.6 C 12.23 g/m*3 15.6 C 0 km/h
984 24-07-2010 04:48:03 15.6 C 12.1 g/m*3 15.6 C 0 km/h
985 24-07-2010 05:00:03 15.6 C 12.1 g/m*3 15.6 C 0 km/h
986 24-07-2010 05:12:04 15.6 C 11.97 g/m*3 15.6 C 0 km/h
987 24-07-2010 05:24:04 15.5 C 11.9 g/m*3 15.5 C 0 km/h
988 24-07-2010 05:36:04 15.5 C 11.9 g/m*3 15.5 C 0 km/h
989 24-07-2010 05:48:04 15.5 C 11.9 g/m*3 15.5 C 0 km/h
990 24-07-2010 06:00:04 15.4 C 11.82 g/m*3 15.4 C 0 km/h
991 24-07-2010 06:12:04 15.4 C 11.69 g/m*3 15.4 C 0 km/h
992 24-07-2010 06:24:04 15.4 C 11.56 g/m*3 15.4 C 0 km/h
993 24-07-2010 06:36:04 15.5 C 11.63 g/m*3 15.5 C 0 km/h
994 24-07-2010 06:48:04 15.4 C 11.56 g/m*3 15.4 C 0 km/h
995 24-07-2010 07:00:04 15.4 C 11.56 g/m*3 15.4 C 0 km/h
996 24-07-2010 07:12:04 15.4 C 11.56 g/m*3 15.4 C 0 km/h
997 24-07-2010 07:24:04 15.5 C 11.63 g/m*3 15.5 C 0 km/h
998 24-07-2010 07:36:04 15.6 C 11.57 g/m*3 15.6 C 0 km/h
999 24-07-2010 07:48:04 15.6 C 11.57 g/m*3 15.6 C 0 km/h
1000 24-07-2010 08:00:04 15.8 C 11.58 g/m*3 15.8 C 0 km/h
Sensor: Nr:Datum:Temp:Abs-Feuchte:Windchill:Wind:
Aussen-T/F 1001 24-07-2010 08:12:04 16 C 11.31 g/m*3 16 C 0 km/h
1002 24-07-2010 08:24:04 16.1 C 11.24 g/m*3 16.1 C 0 km/h
1003 24-07-2010 08:36:02 16.4 C 11.31 g/m*3 16.4 C 0 km/h
1004 24-07-2010 08:48:02 16.5 C 11.09 g/m*3 16.5 C 0 km/h
1005 24-07-2010 09:00:02 16.6 C 11.02 g/m*3 16.6 C 0 km/h
1006 24-07-2010 09:12:02 17 C 11 g/m*3 17 C 0 km/h
1007 24-07-2010 09:24:02 17.4 C 11.12 g/m*3 17.4 C 0 km/h
1008 24-07-2010 09:36:03 17.6 C 10.65 g/m*3 17.6 C 0 km/h
1009 24-07-2010 09:48:02 17.6 C 10.2 g/m*3 17.6 C 0 km/h
1010 24-07-2010 10:00:02 17.6 C 9.9 g/m*3 17.6 C 0 km/h
1011 24-07-2010 10:12:02 18.4 C 10.22 g/m*3 18.4 C 0 km/h
1012 24-07-2010 10:24:02 18.9 C 9.88 g/m*3 18.9 C 0 km/h
1013 24-07-2010 10:36:02 19.2 C 9.56 g/m*3 19.2 C 0 km/h
1014 24-07-2010 10:48:02 19 C 8.64 g/m*3 19 C 0 km/h
1015 24-07-2010 11:00:02 19.8 C 9.39 g/m*3 19.8 C 0 km/h
1016 24-07-2010 11:12:02 19.9 C 8.76 g/m*3 19.9 C 0 km/h
1017 24-07-2010 11:24:02 18.7 C 8.97 g/m*3 18.7 C 0 km/h
1018 24-07-2010 11:36:02 19.4 C 8.51 g/m*3 19.4 C 0 km/h
1019 24-07-2010 11:48:02 19.4 C 8.51 g/m*3 19.4 C 0 km/h
1020 24-07-2010 12:00:02 19.5 C 8.39 g/m*3 19.5 C 0 km/h
1021 24-07-2010 12:12:01 20.5 C 8.36 g/m*3 20.5 C 0 km/h
1022 24-07-2010 12:24:01 20.3 C 8.09 g/m*3 20.3 C 0 km/h
1023 24-07-2010 12:36:01 20.8 C 8.33 g/m*3 20.8 C 0 km/h
1024 24-07-2010 12:48:02 21.5 C 7.73 g/m*3 21.5 C 0 km/h
1025 24-07-2010 13:00:02 20.9 C 7.1 g/m*3 20.9 C 0 km/h
Sensor: Nr:Datum:Temp:Abs-Feuchte:Windchill:Wind:
Aussen-T/F 1026 24-07-2010 13:12:02 22.9 C 6.95 g/m*3 22.9 C 0 km/h
1027 24-07-2010 13:24:02 24.3 C 6.2 g/m*3 24.3 C 0 km/h
1028 24-07-2010 13:36:01 23.4 C 6.31 g/m*3 23.4 C 0 km/h
1029 24-07-2010 13:48:02 22.1 C 6.44 g/m*3 22.1 C 0 km/h
1030 24-07-2010 14:00:02 23.8 C 6.02 g/m*3 23.8 C 0 km/h
1031 24-07-2010 14:12:01 23.4 C 5.89 g/m*3 23.4 C 0 km/h
1032 24-07-2010 14:24:02 23.1 C 6.41 g/m*3 23.1 C 0 km/h
1033 24-07-2010 14:36:01 22.8 C 6.3 g/m*3 22.8 C 0 km/h
1034 24-07-2010 14:48:02 24.3 C 6.2 g/m*3 24.3 C 0 km/h
1035 24-07-2010 15:00:02 24 C 5.66 g/m*3 24 C 0 km/h
1036 24-07-2010 15:12:02 23.2 C 5.61 g/m*3 23.2 C 0 km/h
1037 24-07-2010 15:24:02 24.5 C 6.27 g/m*3 24.5 C 0 km/h
1038 24-07-2010 15:36:02 25.1 C 5.32 g/m*3 25.1 C 0 km/h
1039 24-07-2010 15:48:01 23.7 C 4.49 g/m*3 23.7 C 0 km/h
1040 24-07-2010 16:00:01 23.2 C 5.2 g/m*3 23.2 C 0 km/h
1041 24-07-2010 16:12:02 23.6 C 4.68 g/m*3 23.6 C 0 km/h
1042 24-07-2010 16:24:01 24.8 C 4.55 g/m*3 24.8 C 0 km/h
1043 24-07-2010 16:36:01 23.6 C 4.47 g/m*3 23.6 C 0 km/h
1044 24-07-2010 16:48:01 24.1 C 4.38 g/m*3 24.1 C 0 km/h
1045 24-07-2010 17:00:01 24.2 C 4.4 g/m*3 24.2 C 0 km/h
1046 24-07-2010 17:12:02 25.5 C 4.73 g/m*3 25.5 C 0 km/h
1047 24-07-2010 17:24:02 25.1 C 4.63 g/m*3 25.1 C 0 km/h
1048 24-07-2010 17:36:01 24.1 C 4.38 g/m*3 24.1 C 0 km/h
1049 24-07-2010 17:48:02 22.9 C 4.09 g/m*3 22.9 C 0 km/h
1050 24-07-2010 18:00:02 23 C 4.11 g/m*3 23 C 0 km/h
Sensor: Nr:Datum:Temp:Abs-Feuchte:Windchill:Wind:
Aussen-T/F 1051 24-07-2010 18:12:01 23.8 C 4.3 g/m*3 23.8 C 0 km/h
1052 24-07-2010 18:24:02 24.1 C 4.38 g/m*3 24.1 C 0 km/h
1053 24-07-2010 18:36:01 23.4 C 4.21 g/m*3 23.4 C 0 km/h
1054 24-07-2010 18:48:02 23.1 C 4.13 g/m*3 23.1 C 0 km/h
1055 24-07-2010 19:00:02 23.6 C 4.25 g/m*3 23.6 C 0 km/h
1056 24-07-2010 19:12:02 23.5 C 4.23 g/m*3 23.5 C 0 km/h
1057 24-07-2010 19:24:02 23.4 C 4.21 g/m*3 23.4 C 0 km/h
1058 24-07-2010 19:36:02 22.7 C 4.04 g/m*3 22.7 C 0 km/h
1059 24-07-2010 19:48:02 22.9 C 4.09 g/m*3 22.9 C 0 km/h
1060 24-07-2010 20:00:02 23 C 4.11 g/m*3 23 C 0 km/h
1061 24-07-2010 20:12:02 23.1 C 4.13 g/m*3 23.1 C 0 km/h
1062 24-07-2010 20:24:01 22.8 C 4.06 g/m*3 22.8 C 0 km/h
1063 24-07-2010 20:36:02 22.6 C 4.02 g/m*3 22.6 C 0 km/h
1064 24-07-2010 20:48:02 22.1 C 3.9 g/m*3 22.1 C 0 km/h
1065 24-07-2010 21:00:02 21.2 C 3.71 g/m*3 21.2 C 0 km/h
1066 24-07-2010 21:12:02 20.3 C 4.4 g/m*3 20.3 C 0 km/h
1067 24-07-2010 21:24:01 19.7 C 4.58 g/m*3 19.7 C 0 km/h
1068 24-07-2010 21:36:02 19 C 4.73 g/m*3 19 C 0 km/h
1069 24-07-2010 21:48:01 18.6 C 4.93 g/m*3 18.6 C 0 km/h
1070 24-07-2010 22:00:01 18.1 C 5.1 g/m*3 18.1 C 0 km/h
1071 24-07-2010 22:12:02 17.6 C 5.25 g/m*3 17.6 C 0 km/h
1072 24-07-2010 22:24:01 17.5 C 5.07 g/m*3 17.5 C 0 km/h
1073 24-07-2010 22:36:02 17.2 C 5.13 g/m*3 17.2 C 0 km/h
1074 24-07-2010 22:49:02 17.1 C 5.39 g/m*3 17.1 C 0 km/h
1075 24-07-2010 23:01:02 16.7 C 5.83 g/m*3 16.7 C 0 km/h
Sensor: Nr:Datum:Temp:Abs-Feuchte:Windchill:Wind:
Aussen-T/F 1076 24-07-2010 23:13:02 16.3 C 5.83 g/m*3 16.3 C 0 km/h
1077 24-07-2010 23:25:02 15.9 C 6.23 g/m*3 15.9 C 0 km/h
1078 24-07-2010 23:37:02 15.5 C 6.34 g/m*3 15.5 C 0 km/h
1079 24-07-2010 23:49:02 15.2 C 6.23 g/m*3 15.2 C 0 km/h
1080 25-07-2010 00:01:02 15 C 6.41 g/m*3 15 C 0 km/h
1081 25-07-2010 00:13:02 14.8 C 6.71 g/m*3 14.8 C 0 km/h
1082 25-07-2010 00:25:02 14.6 C 6.76 g/m*3 14.6 C 0 km/h
1083 25-07-2010 00:37:02 14.2 C 6.47 g/m*3 14.2 C 0 km/h
1084 25-07-2010 00:49:02 14.1 C 6.55 g/m*3 14.1 C 0 km/h
1085 25-07-2010 01:01:02 13.8 C 6.79 g/m*3 13.8 C 0 km/h
1086 25-07-2010 01:13:03 13.7 C 6.87 g/m*3 13.7 C 0 km/h
1087 25-07-2010 01:25:03 13.5 C 6.78 g/m*3 13.5 C 0 km/h
1088 25-07-2010 01:37:03 13.3 C 6.82 g/m*3 13.3 C 0 km/h
1089 25-07-2010 01:49:03 13.2 C 6.77 g/m*3 13.2 C 0 km/h
1090 25-07-2010 02:01:03 13.1 C 6.96 g/m*3 13.1 C 0 km/h
1091 25-07-2010 02:13:03 12.9 C 6.99 g/m*3 12.9 C 0 km/h
1092 25-07-2010 02:25:03 12.7 C 7.01 g/m*3 12.7 C 0 km/h
1093 25-07-2010 02:37:03 12.5 C 6.93 g/m*3 12.5 C 0 km/h
1094 25-07-2010 02:49:03 12.3 C 6.95 g/m*3 12.3 C 0 km/h
1095 25-07-2010 03:01:03 12.2 C 7.01 g/m*3 12.2 C 0 km/h
1096 25-07-2010 03:13:03 12 C 7.14 g/m*3 12 C 0 km/h
1097 25-07-2010 03:25:03 11.8 C 7.05 g/m*3 11.8 C 0 km/h
1098 25-07-2010 03:37:03 11.8 C 7.05 g/m*3 11.8 C 0 km/h
1099 25-07-2010 03:49:03 11.5 C 7.02 g/m*3 11.5 C 0 km/h
1100 25-07-2010 04:01:03 11.3 C 7.14 g/m*3 11.3 C 0 km/h
Sensor: Nr:Datum:Temp:Abs-Feuchte:Windchill:Wind:
Aussen-T/F 1101 25-07-2010 04:13:03 11.1 C 7.25 g/m*3 11.1 C 0 km/h
1102 25-07-2010 04:25:03 11 C 7.31 g/m*3 11 C 0 km/h
1103 25-07-2010 04:37:03 10.8 C 7.41 g/m*3 10.8 C 0 km/h
1104 25-07-2010 04:49:03 10.6 C 7.42 g/m*3 10.6 C 0 km/h
1105 25-07-2010 05:01:03 10.5 C 7.47 g/m*3 10.5 C 0 km/h
1106 25-07-2010 05:13:03 10.3 C 7.37 g/m*3 10.3 C 0 km/h
1107 25-07-2010 05:25:03 10.1 C 7.38 g/m*3 10.1 C 0 km/h
1108 25-07-2010 05:37:04 10 C 7.33 g/m*3 10 C 0 km/h
1109 25-07-2010 05:49:04 9.9 C 7.38 g/m*3 9.9 C 0 km/h
1110 25-07-2010 06:01:04 10 C 7.33 g/m*3 10 C 0 km/h
1111 25-07-2010 06:13:04 10 C 7.42 g/m*3 10 C 0 km/h
1112 25-07-2010 06:25:04 10 C 7.42 g/m*3 10 C 0 km/h
1113 25-07-2010 06:37:04 10 C 7.42 g/m*3 10 C 0 km/h
1114 25-07-2010 06:49:04 10.2 C 7.42 g/m*3 10.2 C 0 km/h
1115 25-07-2010 07:01:04 10.3 C 7.47 g/m*3 10.3 C 0 km/h
1116 25-07-2010 07:13:04 10.7 C 7.56 g/m*3 10.7 C 0 km/h
1117 25-07-2010 07:25:04 11 C 7.61 g/m*3 11 C 0 km/h
1118 25-07-2010 07:37:04 11.2 C 7.5 g/m*3 11.2 C 0 km/h
1119 25-07-2010 07:49:04 11.4 C 7.6 g/m*3 11.4 C 0 km/h
1120 25-07-2010 08:01:04 11.5 C 7.75 g/m*3 11.5 C 0 km/h
1121 25-07-2010 08:13:04 11.5 C 7.95 g/m*3 11.5 C 0 km/h
1122 25-07-2010 08:25:04 12 C 7.99 g/m*3 12 C 0 km/h
1123 25-07-2010 08:37:04 12.5 C 7.92 g/m*3 12.5 C 0 km/h
1124 25-07-2010 08:49:04 13.1 C 7.87 g/m*3 13.1 C 0 km/h
1125 25-07-2010 09:01:04 13.8 C 7.86 g/m*3 13.8 C 0 km/h
Sensor: Nr:Datum:Temp:Abs-Feuchte:Windchill:Wind:
Aussen-T/F 1126 25-07-2010 09:13:04 14.3 C 7.49 g/m*3 14.3 C 0 km/h
1127 25-07-2010 09:25:04 14.8 C 7.6 g/m*3 14.8 C 0 km/h
1128 25-07-2010 09:37:04 15.6 C 7.58 g/m*3 15.6 C 0 km/h
1129 25-07-2010 09:49:02 16.2 C 7.45 g/m*3 16.2 C 0 km/h
1130 25-07-2010 10:01:02 16.6 C 7.2 g/m*3 16.6 C 0 km/h
1131 25-07-2010 10:13:02 17.5 C 7.01 g/m*3 17.5 C 0 km/h
1132 25-07-2010 10:25:02 17.8 C 6.68 g/m*3 17.8 C 0 km/h
1133 25-07-2010 10:37:02 18.4 C 6.45 g/m*3 18.4 C 0 km/h
1134 25-07-2010 10:49:02 18.7 C 6.4 g/m*3 18.7 C 0 km/h
1135 25-07-2010 11:01:02 19.3 C 6.3 g/m*3 19.3 C 0 km/h
1136 25-07-2010 11:13:02 20.9 C 6.37 g/m*3 20.9 C 0 km/h
1137 25-07-2010 11:25:03 21.2 C 5.93 g/m*3 21.2 C 0 km/h
1138 25-07-2010 11:37:02 21.2 C 5.93 g/m*3 21.2 C 0 km/h
1139 25-07-2010 11:49:03 21.7 C 6.1 g/m*3 21.7 C 0 km/h
1140 25-07-2010 12:01:02 21.5 C 6.03 g/m*3 21.5 C 0 km/h
1141 25-07-2010 12:13:03 22.3 C 6.12 g/m*3 22.3 C 0 km/h
1142 25-07-2010 12:25:02 23.2 C 5.82 g/m*3 23.2 C 0 km/h
1143 25-07-2010 12:37:02 24.2 C 5.72 g/m*3 24.2 C 0 km/h
1144 25-07-2010 12:49:02 23.5 C 5.71 g/m*3 23.5 C 0 km/h
1145 25-07-2010 13:01:02 23.5 C 6.13 g/m*3 23.5 C 0 km/h
1146 25-07-2010 13:13:02 23.3 C 6.06 g/m*3 23.3 C 0 km/h
1147 25-07-2010 13:25:03 23.2 C 6.24 g/m*3 23.2 C 0 km/h
1148 25-07-2010 13:37:02 23.5 C 6.34 g/m*3 23.5 C 0 km/h
1149 25-07-2010 13:49:03 23.4 C 6.31 g/m*3 23.4 C 0 km/h
1150 25-07-2010 14:01:02 23.2 C 6.44 g/m*3 23.2 C 0 km/h
Sensor: Nr:Datum:Temp:Abs-Feuchte:Windchill:Wind:
Aussen-T/F 1151 25-07-2010 14:13:02 22.6 C 7.43 g/m*3 22.6 C 0 km/h
1152 25-07-2010 14:25:02 21.5 C 6.79 g/m*3 21.5 C 0 km/h
1153 25-07-2010 14:37:02 21.6 C 7.21 g/m*3 21.6 C 0 km/h
1154 25-07-2010 14:49:02 22.1 C 6.83 g/m*3 22.1 C 0 km/h
1155 25-07-2010 15:01:02 22.2 C 6.87 g/m*3 22.2 C 0 km/h
1156 25-07-2010 15:13:02 22.2 C 6.68 g/m*3 22.2 C 0 km/h
1157 25-07-2010 15:25:02 21.6 C 6.83 g/m*3 21.6 C 0 km/h
1158 25-07-2010 15:37:01 21 C 7.14 g/m*3 21 C 0 km/h
1159 25-07-2010 15:49:02 20.9 C 7.47 g/m*3 20.9 C 0 km/h
1160 25-07-2010 16:01:01 21.6 C 7.21 g/m*3 21.6 C 0 km/h
1161 25-07-2010 16:13:01 21.9 C 7.14 g/m*3 21.9 C 0 km/h
1162 25-07-2010 16:25:02 22.1 C 6.83 g/m*3 22.1 C 0 km/h
1163 25-07-2010 16:37:02 22.1 C 7.03 g/m*3 22.1 C 0 km/h
1164 25-07-2010 16:49:02 22.2 C 7.46 g/m*3 22.2 C 0 km/h
1165 25-07-2010 17:01:03 23.5 C 6.77 g/m*3 23.5 C 0 km/h
1166 25-07-2010 17:13:03 23.7 C 6.63 g/m*3 23.7 C 0 km/h
1167 25-07-2010 17:25:02 23.3 C 6.69 g/m*3 23.3 C 0 km/h
1168 25-07-2010 17:37:02 23.4 C 6.31 g/m*3 23.4 C 0 km/h
1169 25-07-2010 17:49:01 23.1 C 6.61 g/m*3 23.1 C 0 km/h
1170 25-07-2010 18:01:02 22.8 C 7.32 g/m*3 22.8 C 0 km/h
1171 25-07-2010 18:13:02 22.5 C 7.39 g/m*3 22.5 C 0 km/h
1172 25-07-2010 18:25:01 22.4 C 7.35 g/m*3 22.4 C 0 km/h
1173 25-07-2010 18:37:01 22 C 7.57 g/m*3 22 C 0 km/h
1174 25-07-2010 18:49:01 21.6 C 7.97 g/m*3 21.6 C 0 km/h
1175 25-07-2010 19:01:02 21.3 C 8.2 g/m*3 21.3 C 0 km/h
Sensor: Nr:Datum:Temp:Abs-Feuchte:Windchill:Wind:
Aussen-T/F 1176 25-07-2010 19:13:02 20.9 C 8.2 g/m*3 20.9 C 0 km/h
1177 25-07-2010 19:25:02 20.6 C 8.59 g/m*3 20.6 C 0 km/h
1178 25-07-2010 19:37:01 20.6 C 7.34 g/m*3 20.6 C 0 km/h
1179 25-07-2010 19:49:01 20.6 C 7.16 g/m*3 20.6 C 0 km/h
1180 25-07-2010 20:01:01 20.6 C 7.34 g/m*3 20.6 C 0 km/h
1181 25-07-2010 20:13:01 20.5 C 7.3 g/m*3 20.5 C 0 km/h
1182 25-07-2010 20:25:02 20.4 C 7.43 g/m*3 20.4 C 0 km/h
1183 25-07-2010 20:37:01 19.9 C 8.08 g/m*3 19.9 C 0 km/h
1184 25-07-2010 20:49:02 19.4 C 8.84 g/m*3 19.4 C 0 km/h
1185 25-07-2010 21:01:01 19.1 C 9.18 g/m*3 19.1 C 0 km/h
1186 25-07-2010 21:13:01 19.2 C 9.23 g/m*3 19.2 C 0 km/h
1187 25-07-2010 21:25:02 19.1 C 9.51 g/m*3 19.1 C 0 km/h
1188 25-07-2010 21:37:01 19.1 C 9.51 g/m*3 19.1 C 0 km/h
1189 25-07-2010 21:49:01 18.9 C 9.72 g/m*3 18.9 C 0 km/h
1190 25-07-2010 22:01:01 18.8 C 9.82 g/m*3 18.8 C 0 km/h
1191 25-07-2010 22:13:01 18.5 C 9.97 g/m*3 18.5 C 0 km/h
1192 25-07-2010 22:26:02 18.3 C 10.16 g/m*3 18.3 C 0 km/h
1193 25-07-2010 22:38:02 18.2 C 10.41 g/m*3 18.2 C 0 km/h
1194 25-07-2010 22:50:02 18.1 C 10.51 g/m*3 18.1 C 0 km/h
1195 25-07-2010 23:02:03 17.9 C 10.54 g/m*3 17.9 C 0 km/h
1196 25-07-2010 23:14:03 18 C 10.29 g/m*3 18 C 0 km/h
1197 25-07-2010 23:26:03 17.9 C 10.23 g/m*3 17.9 C 0 km/h
1198 25-07-2010 23:38:03 17.8 C 10.17 g/m*3 17.8 C 0 km/h
1199 25-07-2010 23:50:03 17.8 C 10.17 g/m*3 17.8 C 0 km/h
1200 26-07-2010 00:02:03 17.6 C 9.9 g/m*3 17.6 C 0 km/h
Sensor: Nr:Datum:Temp:Abs-Feuchte:Windchill:Wind:
Aussen-T/F 1201 26-07-2010 00:14:03 17.6 C 9.9 g/m*3 17.6 C 0 km/h
1202 26-07-2010 00:26:03 17.6 C 9.9 g/m*3 17.6 C 0 km/h
1203 26-07-2010 00:38:03 17.6 C 10.05 g/m*3 17.6 C 0 km/h
1204 26-07-2010 00:50:03 17.4 C 9.93 g/m*3 17.4 C 0 km/h
1205 26-07-2010 01:02:03 17.3 C 9.87 g/m*3 17.3 C 0 km/h
1206 26-07-2010 01:14:03 17.2 C 9.96 g/m*3 17.2 C 0 km/h
1207 26-07-2010 01:26:03 17.2 C 9.96 g/m*3 17.2 C 0 km/h
1208 26-07-2010 01:38:03 17.3 C 10.02 g/m*3 17.3 C 0 km/h
1209 26-07-2010 01:50:03 17.3 C 10.16 g/m*3 17.3 C 0 km/h
1210 26-07-2010 02:02:03 17 C 9.98 g/m*3 17 C 0 km/h
1211 26-07-2010 02:14:03 16.9 C 10.07 g/m*3 16.9 C 0 km/h
1212 26-07-2010 02:26:03 16.8 C 10.01 g/m*3 16.8 C 0 km/h
1213 26-07-2010 02:38:03 16.8 C 10.15 g/m*3 16.8 C 0 km/h
1214 26-07-2010 02:50:03 16.5 C 9.97 g/m*3 16.5 C 0 km/h
1215 26-07-2010 03:02:03 16.4 C 10.05 g/m*3 16.4 C 0 km/h
1216 26-07-2010 03:14:03 16.4 C 10.19 g/m*3 16.4 C 0 km/h
1217 26-07-2010 03:26:03 16.4 C 10.33 g/m*3 16.4 C 0 km/h
1218 26-07-2010 03:38:04 16.4 C 10.33 g/m*3 16.4 C 0 km/h
1219 26-07-2010 03:50:04 16.5 C 10.11 g/m*3 16.5 C 0 km/h
1220 26-07-2010 04:02:04 16.6 C 10.17 g/m*3 16.6 C 0 km/h
1221 26-07-2010 04:14:04 16.4 C 10.47 g/m*3 16.4 C 0 km/h
1222 26-07-2010 04:26:04 16.4 C 10.61 g/m*3 16.4 C 0 km/h
1223 26-07-2010 04:38:04 16.1 C 10.69 g/m*3 16.1 C 0 km/h
1224 26-07-2010 04:50:04 15.7 C 10.97 g/m*3 15.7 C 0 km/h
1225 26-07-2010 05:02:04 15.6 C 11.04 g/m*3 15.6 C 0 km/h
Sensor: Nr:Datum:Temp:Abs-Feuchte:Windchill:Wind:
Aussen-T/F 1226 26-07-2010 05:14:04 15.6 C 11.3 g/m*3 15.6 C 0 km/h
1227 26-07-2010 05:26:04 15.5 C 11.37 g/m*3 15.5 C 0 km/h
1228 26-07-2010 05:38:04 15.6 C 11.44 g/m*3 15.6 C 0 km/h
1229 26-07-2010 05:50:04 15.3 C 11.23 g/m*3 15.3 C 0 km/h
1230 26-07-2010 06:02:04 15.4 C 11.3 g/m*3 15.4 C 0 km/h
1231 26-07-2010 06:14:04 15.4 C 11.43 g/m*3 15.4 C 0 km/h
1232 26-07-2010 06:26:04 15.4 C 11.43 g/m*3 15.4 C 0 km/h
1233 26-07-2010 06:38:04 15.4 C 11.56 g/m*3 15.4 C 0 km/h
1234 26-07-2010 06:50:04 15.4 C 11.56 g/m*3 15.4 C 0 km/h
1235 26-07-2010 07:02:02 15.7 C 11.91 g/m*3 15.7 C 0 km/h
1236 26-07-2010 07:14:02 16 C 11.99 g/m*3 16 C 0 km/h
1237 26-07-2010 07:26:03 16 C 11.99 g/m*3 16 C 0 km/h
1238 26-07-2010 07:38:02 16.1 C 11.93 g/m*3 16.1 C 0 km/h
1239 26-07-2010 07:50:02 16.3 C 11.93 g/m*3 16.3 C 0 km/h
1240 26-07-2010 08:02:02 16.5 C 11.94 g/m*3 16.5 C 0 km/h
1241 26-07-2010 08:14:02 16.6 C 11.87 g/m*3 16.6 C 0 km/h
1242 26-07-2010 08:26:02 16.9 C 11.94 g/m*3 16.9 C 0 km/h
1243 26-07-2010 08:38:02 17.5 C 12.08 g/m*3 17.5 C 0 km/h
1244 26-07-2010 08:50:01 17.4 C 11.71 g/m*3 17.4 C 0 km/h
1245 26-07-2010 09:02:02 17.8 C 11.84 g/m*3 17.8 C 0 km/h
1246 26-07-2010 09:14:02 18.2 C 11.81 g/m*3 18.2 C 0 km/h
1247 26-07-2010 09:26:01 18.3 C 11.57 g/m*3 18.3 C 0 km/h
1248 26-07-2010 09:38:01 18.8 C 11.92 g/m*3 18.8 C 0 km/h
1249 26-07-2010 09:50:02 18.8 C 11.43 g/m*3 18.8 C 0 km/h
1250 26-07-2010 10:02:02 18.7 C 11.37 g/m*3 18.7 C 0 km/h
Sensor: Nr:Datum:Temp:Abs-Feuchte:Windchill:Wind:
Aussen-T/F 1251 26-07-2010 10:14:02 19.1 C 10.98 g/m*3 19.1 C 0 km/h
1252 26-07-2010 10:26:02 20.2 C 11.02 g/m*3 20.2 C 0 km/h
1253 26-07-2010 10:38:02 21.1 C 10.32 g/m*3 21.1 C 0 km/h
1254 26-07-2010 10:50:02 22.1 C 9.76 g/m*3 22.1 C 0 km/h
1255 26-07-2010 11:02:01 21.8 C 9.78 g/m*3 21.8 C 0 km/h
1256 26-07-2010 11:14:01 22.6 C 10.04 g/m*3 22.6 C 0 km/h
1257 26-07-2010 11:26:02 22.5 C 9.59 g/m*3 22.5 C 0 km/h
1258 26-07-2010 11:38:02 19.4 C 10.68 g/m*3 19.4 C 0 km/h
1259 26-07-2010 11:50:02 18.4 C 12.11 g/m*3 18.4 C 0 km/h
1260 26-07-2010 12:02:02 19.1 C 13.11 g/m*3 19.1 C 0 km/h
1261 26-07-2010 12:14:02 19.5 C 12.59 g/m*3 19.5 C 0 km/h
1262 26-07-2010 12:26:02 19.5 C 12.25 g/m*3 19.5 C 0 km/h
1263 26-07-2010 12:38:02 18.5 C 12.18 g/m*3 18.5 C 0 km/h
1264 26-07-2010 12:50:01 18.6 C 12.57 g/m*3 18.6 C 0 km/h
1265 26-07-2010 13:02:01 19 C 13.04 g/m*3 19 C 0 km/h
1266 26-07-2010 13:14:01 18.5 C 12.34 g/m*3 18.5 C 0 km/h
1267 26-07-2010 13:26:01 18 C 12.44 g/m*3 18 C 0 km/h
1268 26-07-2010 13:38:01 17.8 C 12.9 g/m*3 17.8 C 0 km/h
1269 26-07-2010 13:50:01 17.5 C 12.82 g/m*3 17.5 C 0 km/h
1270 26-07-2010 14:02:01 17.5 C 12.97 g/m*3 17.5 C 0 km/h
1271 26-07-2010 14:14:01 17.7 C 13.43 g/m*3 17.7 C 0 km/h
1272 26-07-2010 14:26:02 17.3 C 13.11 g/m*3 17.3 C 0 km/h
1273 26-07-2010 14:38:01 17.1 C 13.1 g/m*3 17.1 C 0 km/h
1274 26-07-2010 14:50:02 17.2 C 13.18 g/m*3 17.2 C 0 km/h
1275 26-07-2010 15:02:02 17.4 C 13.49 g/m*3 17.4 C 0 km/h
Sensor: Nr:Datum:Temp:Abs-Feuchte:Windchill:Wind:
Aussen-T/F 1276 26-07-2010 15:14:02 17.3 C 13.41 g/m*3 17.3 C 0 km/h
1277 26-07-2010 15:26:02 17.6 C 13.65 g/m*3 17.6 C 0 km/h
1278 26-07-2010 15:38:03 18.2 C 13.83 g/m*3 18.2 C 0 km/h
1279 26-07-2010 15:50:02 19.1 C 14.1 g/m*3 19.1 C 0 km/h
1280 26-07-2010 16:02:02 19.1 C 13.77 g/m*3 19.1 C 0 km/h
1281 26-07-2010 16:14:02 19.5 C 13.26 g/m*3 19.5 C 0 km/h
1282 26-07-2010 16:26:02 19.1 C 12.79 g/m*3 19.1 C 0 km/h
1283 26-07-2010 16:38:02 19.5 C 13.43 g/m*3 19.5 C 0 km/h
1284 26-07-2010 16:50:02 21.2 C 13.71 g/m*3 21.2 C 0 km/h
1285 26-07-2010 17:02:02 21 C 12.64 g/m*3 21 C 0 km/h
1286 26-07-2010 17:14:02 19.5 C 10.74 g/m*3 19.5 C 0 km/h
1287 26-07-2010 17:26:02 18.7 C 10.73 g/m*3 18.7 C 0 km/h
1288 26-07-2010 17:38:02 18.1 C 11.28 g/m*3 18.1 C 0 km/h
1289 26-07-2010 17:50:02 18.1 C 11.28 g/m*3 18.1 C 0 km/h
1290 26-07-2010 18:02:02 18.2 C 11.19 g/m*3 18.2 C 0 km/h
1291 26-07-2010 18:14:02 17.3 C 11.05 g/m*3 17.3 C 0 km/h
1292 26-07-2010 18:26:03 16.8 C 11.29 g/m*3 16.8 C 0 km/h
1293 26-07-2010 18:38:02 16.8 C 11.44 g/m*3 16.8 C 0 km/h
1294 26-07-2010 18:50:03 16.7 C 11.65 g/m*3 16.7 C 0 km/h
1295 26-07-2010 19:02:02 16.8 C 11.72 g/m*3 16.8 C 0 km/h
1296 26-07-2010 19:14:02 17.1 C 11.79 g/m*3 17.1 C 0 km/h
1297 26-07-2010 19:26:02 17.1 C 11.65 g/m*3 17.1 C 0 km/h
1298 26-07-2010 19:38:02 16.8 C 11.58 g/m*3 16.8 C 0 km/h
1299 26-07-2010 19:50:02 16.8 C 11.29 g/m*3 16.8 C 0 km/h
1300 26-07-2010 20:02:01 16.7 C 10.94 g/m*3 16.7 C 0 km/h
Sensor: Nr:Datum:Temp:Abs-Feuchte:Windchill:Wind:
Aussen-T/F 1301 26-07-2010 20:14:01 16.4 C 11.03 g/m*3 16.4 C 0 km/h
1302 26-07-2010 20:26:02 16.2 C 11.17 g/m*3 16.2 C 0 km/h
1303 26-07-2010 20:38:02 15.9 C 11.24 g/m*3 15.9 C 0 km/h
1304 26-07-2010 20:50:01 15.6 C 11.17 g/m*3 15.6 C 0 km/h
1305 26-07-2010 21:02:02 15.4 C 11.04 g/m*3 15.4 C 0 km/h
1306 26-07-2010 21:14:02 15.4 C 11.3 g/m*3 15.4 C 0 km/h
1307 26-07-2010 21:26:01 15.3 C 11.36 g/m*3 15.3 C 0 km/h
1308 26-07-2010 21:38:01 15.2 C 11.29 g/m*3 15.2 C 0 km/h
1309 26-07-2010 21:50:01 15.2 C 11.42 g/m*3 15.2 C 0 km/h
1310 26-07-2010 22:02:02 15.3 C 11.36 g/m*3 15.3 C 0 km/h
1311 26-07-2010 22:14:02 15.3 C 10.97 g/m*3 15.3 C 0 km/h
1312 26-07-2010 22:27:04 15.2 C 10.77 g/m*3 15.2 C 0 km/h
1313 26-07-2010 22:39:04 15.2 C 10.64 g/m*3 15.2 C 0 km/h
1314 26-07-2010 22:51:04 15.1 C 10.58 g/m*3 15.1 C 0 km/h
1315 26-07-2010 23:03:04 15.1 C 10.58 g/m*3 15.1 C 0 km/h
1316 26-07-2010 23:15:04 15.1 C 10.71 g/m*3 15.1 C 0 km/h
1317 26-07-2010 23:27:04 15.3 C 10.84 g/m*3 15.3 C 0 km/h
1318 26-07-2010 23:39:04 15.4 C 11.04 g/m*3 15.4 C 0 km/h
1319 26-07-2010 23:51:04 15.4 C 11.04 g/m*3 15.4 C 0 km/h
1320 27-07-2010 00:03:04 15.4 C 11.04 g/m*3 15.4 C 0 km/h
1321 27-07-2010 00:15:04 15.4 C 11.04 g/m*3 15.4 C 0 km/h
1322 27-07-2010 00:27:04 15.3 C 11.1 g/m*3 15.3 C 0 km/h
1323 27-07-2010 00:39:05 15.4 C 11.3 g/m*3 15.4 C 0 km/h
1324 27-07-2010 00:51:05 15.2 C 11.16 g/m*3 15.2 C 0 km/h
1325 27-07-2010 01:03:05 15.3 C 11.23 g/m*3 15.3 C 0 km/h
Sensor: Nr:Datum:Temp:Abs-Feuchte:Windchill:Wind:
Aussen-T/F 1326 27-07-2010 01:15:05 15.3 C 11.23 g/m*3 15.3 C 0 km/h
1327 27-07-2010 01:27:05 15.6 C 11.3 g/m*3 15.6 C 0 km/h
1328 27-07-2010 01:39:05 15.6 C 11.17 g/m*3 15.6 C 0 km/h
1329 27-07-2010 01:51:05 15.6 C 11.04 g/m*3 15.6 C 0 km/h
1330 27-07-2010 02:03:05 15.6 C 11.04 g/m*3 15.6 C 0 km/h
1331 27-07-2010 02:15:05 15.6 C 11.04 g/m*3 15.6 C 0 km/h
1332 27-07-2010 02:27:05 15.6 C 11.04 g/m*3 15.6 C 0 km/h
1333 27-07-2010 02:39:05 15.6 C 11.04 g/m*3 15.6 C 0 km/h
1334 27-07-2010 02:51:05 15.6 C 11.04 g/m*3 15.6 C 0 km/h
1335 27-07-2010 03:03:05 15.6 C 11.04 g/m*3 15.6 C 0 km/h
1336 27-07-2010 03:15:05 15.5 C 10.97 g/m*3 15.5 C 0 km/h
1337 27-07-2010 03:27:05 15.4 C 10.9 g/m*3 15.4 C 0 km/h
1338 27-07-2010 03:39:05 15.3 C 10.84 g/m*3 15.3 C 0 km/h
1339 27-07-2010 03:51:05 15.3 C 11.1 g/m*3 15.3 C 0 km/h
1340 27-07-2010 04:03:05 15.4 C 11.04 g/m*3 15.4 C 0 km/h
1341 27-07-2010 04:15:05 15.3 C 10.84 g/m*3 15.3 C 0 km/h
1342 27-07-2010 04:27:05 15.4 C 10.9 g/m*3 15.4 C 0 km/h
1343 27-07-2010 04:39:06 15.2 C 10.77 g/m*3 15.2 C 0 km/h
1344 27-07-2010 04:51:06 15 C 10.64 g/m*3 15 C 0 km/h
1345 27-07-2010 05:03:06 15.2 C 10.9 g/m*3 15.2 C 0 km/h
1346 27-07-2010 05:15:06 15.2 C 10.9 g/m*3 15.2 C 0 km/h
1347 27-07-2010 05:27:06 15.2 C 10.9 g/m*3 15.2 C 0 km/h
1348 27-07-2010 05:39:06 15 C 10.77 g/m*3 15 C 0 km/h
1349 27-07-2010 05:51:06 15.1 C 10.71 g/m*3 15.1 C 0 km/h
1350 27-07-2010 06:03:06 15.2 C 10.77 g/m*3 15.2 C 0 km/h
Sensor: Nr:Datum:Temp:Abs-Feuchte:Windchill:Wind:
Aussen-T/F 1351 27-07-2010 06:15:06 15.3 C 10.84 g/m*3 15.3 C 0 km/h
1352 27-07-2010 06:27:06 15.3 C 10.84 g/m*3 15.3 C 0 km/h
1353 27-07-2010 06:39:06 15.3 C 10.71 g/m*3 15.3 C 0 km/h
1354 27-07-2010 06:51:02 15.3 C 10.71 g/m*3 15.3 C 0 km/h
1355 27-07-2010 07:03:01 15.4 C 10.64 g/m*3 15.4 C 0 km/h
1356 27-07-2010 07:15:01 15.6 C 10.77 g/m*3 15.6 C 0 km/h
1357 27-07-2010 07:27:01 15.6 C 10.51 g/m*3 15.6 C 0 km/h
1358 27-07-2010 07:39:02 15.8 C 10.63 g/m*3 15.8 C 0 km/h
1359 27-07-2010 07:51:02 16 C 10.63 g/m*3 16 C 0 km/h
1360 27-07-2010 08:03:02 16.1 C 10.55 g/m*3 16.1 C 0 km/h
1361 27-07-2010 08:15:02 16.1 C 10.55 g/m*3 16.1 C 0 km/h
1362 27-07-2010 08:27:02 16.4 C 10.75 g/m*3 16.4 C 0 km/h
1363 27-07-2010 08:39:02 16.3 C 10.54 g/m*3 16.3 C 0 km/h
1364 27-07-2010 08:51:02 16.2 C 10.62 g/m*3 16.2 C 0 km/h
1365 27-07-2010 09:03:02 16.5 C 10.67 g/m*3 16.5 C 0 km/h
1366 27-07-2010 09:15:03 16.6 C 10.59 g/m*3 16.6 C 0 km/h
1367 27-07-2010 09:27:03 16.6 C 10.45 g/m*3 16.6 C 0 km/h
1368 27-07-2010 09:39:02 17.3 C 10.61 g/m*3 17.3 C 0 km/h
1369 27-07-2010 09:51:01 17.4 C 10.37 g/m*3 17.4 C 0 km/h
1370 27-07-2010 10:03:01 18 C 10.29 g/m*3 18 C 0 km/h
1371 27-07-2010 10:15:02 17.9 C 10.23 g/m*3 17.9 C 0 km/h
1372 27-07-2010 10:27:02 18.5 C 10.28 g/m*3 18.5 C 0 km/h
1373 27-07-2010 10:39:01 19.2 C 9.89 g/m*3 19.2 C 0 km/h
1374 27-07-2010 10:51:01 19 C 9.61 g/m*3 19 C 0 km/h
1375 27-07-2010 11:03:01 19.2 C 9.73 g/m*3 19.2 C 0 km/h
Sensor: Nr:Datum:Temp:Abs-Feuchte:Windchill:Wind:
Aussen-T/F 1376 27-07-2010 11:15:02 19.8 C 9.74 g/m*3 19.8 C 0 km/h
1377 27-07-2010 11:27:02 20.4 C 9.73 g/m*3 20.4 C 0 km/h
1378 27-07-2010 11:39:01 20.5 C 9.25 g/m*3 20.5 C 0 km/h
1379 27-07-2010 11:51:02 21 C 9.34 g/m*3 21 C 0 km/h
1380 27-07-2010 12:03:02 21.8 C 9.4 g/m*3 21.8 C 0 km/h
1381 27-07-2010 12:15:02 22.5 C 8.99 g/m*3 22.5 C 0 km/h
1382 27-07-2010 12:27:02 21.8 C 8.83 g/m*3 21.8 C 0 km/h
1383 27-07-2010 12:39:02 21.6 C 9.29 g/m*3 21.6 C 0 km/h
1384 27-07-2010 12:51:02 22.7 C 8.89 g/m*3 22.7 C 0 km/h
1385 27-07-2010 13:03:02 23.5 C 8.46 g/m*3 23.5 C 0 km/h
1386 27-07-2010 13:15:01 22.7 C 7.88 g/m*3 22.7 C 0 km/h
1387 27-07-2010 13:27:01 23.1 C 8.27 g/m*3 23.1 C 0 km/h
1388 27-07-2010 13:39:02 25.5 C 7.1 g/m*3 25.5 C 0 km/h
1389 27-07-2010 13:51:02 25 C 7.6 g/m*3 25 C 0 km/h
1390 27-07-2010 14:03:02 23.8 C 7.53 g/m*3 23.8 C 0 km/h
1391 27-07-2010 14:15:01 24.4 C 7.79 g/m*3 24.4 C 0 km/h
1392 27-07-2010 14:27:01 25.2 C 7.68 g/m*3 25.2 C 0 km/h
1393 27-07-2010 14:39:02 24.4 C 7.57 g/m*3 24.4 C 0 km/h
1394 27-07-2010 14:51:01 24.3 C 7.75 g/m*3 24.3 C 0 km/h
1395 27-07-2010 15:03:02 24.3 C 7.75 g/m*3 24.3 C 0 km/h
1396 27-07-2010 15:15:02 25.6 C 7.86 g/m*3 25.6 C 0 km/h
1397 27-07-2010 15:27:02 25.4 C 7.53 g/m*3 25.4 C 0 km/h
1398 27-07-2010 15:39:01 25.7 C 7.42 g/m*3 25.7 C 0 km/h
1399 27-07-2010 15:51:02 25.9 C 7.26 g/m*3 25.9 C 0 km/h
1400 27-07-2010 16:03:01 26.6 C 7.05 g/m*3 26.6 C 0 km/h
Sensor: Nr:Datum:Temp:Abs-Feuchte:Windchill:Wind:
Aussen-T/F 1401 27-07-2010 16:15:02 28.5 C 7.27 g/m*3 28.5 C 0 km/h
1402 27-07-2010 16:27:03 28.2 C 6.87 g/m*3 28.2 C 0 km/h
1403 27-07-2010 16:39:01 28 C 6.8 g/m*3 28 C 0 km/h
1404 27-07-2010 16:51:02 28.2 C 6.05 g/m*3 28.2 C 0 km/h
1405 27-07-2010 17:03:02 28.7 C 5.93 g/m*3 28.7 C 0 km/h
1406 27-07-2010 17:15:02 29.4 C 6.16 g/m*3 29.4 C 0 km/h
1407 27-07-2010 17:27:02 28 C 5.71 g/m*3 28 C 0 km/h
1408 27-07-2010 17:39:03 28.2 C 5.77 g/m*3 28.2 C 0 km/h
1409 27-07-2010 17:51:02 27.3 C 7.33 g/m*3 27.3 C 0 km/h
1410 27-07-2010 18:03:02 26.1 C 6.37 g/m*3 26.1 C 0 km/h
1411 27-07-2010 18:15:01 25.8 C 7.46 g/m*3 25.8 C 0 km/h
1412 27-07-2010 18:27:01 24.8 C 8.19 g/m*3 24.8 C 0 km/h
1413 27-07-2010 18:39:02 24.3 C 7.97 g/m*3 24.3 C 0 km/h
1414 27-07-2010 18:51:02 24.3 C 8.19 g/m*3 24.3 C 0 km/h
1415 27-07-2010 19:03:02 24.2 C 8.58 g/m*3 24.2 C 0 km/h
1416 27-07-2010 19:15:01 23.6 C 8.72 g/m*3 23.6 C 0 km/h
1417 27-07-2010 19:27:01 23.3 C 8.78 g/m*3 23.3 C 0 km/h
1418 27-07-2010 19:39:02 23 C 8.63 g/m*3 23 C 0 km/h
1419 27-07-2010 19:51:01 23 C 8.43 g/m*3 23 C 0 km/h
1420 27-07-2010 20:03:02 22.9 C 8.38 g/m*3 22.9 C 0 km/h
1421 27-07-2010 20:15:02 22.2 C 8.25 g/m*3 22.2 C 0 km/h
1422 27-07-2010 20:27:02 21.7 C 8.2 g/m*3 21.7 C 0 km/h
1423 27-07-2010 20:39:01 21.7 C 8.58 g/m*3 21.7 C 0 km/h
1424 27-07-2010 20:51:02 21.5 C 8.49 g/m*3 21.5 C 0 km/h
1425 27-07-2010 21:03:01 21.2 C 8.52 g/m*3 21.2 C 0 km/h
Sensor: Nr:Datum:Temp:Abs-Feuchte:Windchill:Wind:
Aussen-T/F 1426 27-07-2010 21:15:02 21 C 8.79 g/m*3 21 C 0 km/h
1427 27-07-2010 21:27:03 20.4 C 8.49 g/m*3 20.4 C 0 km/h
1428 27-07-2010 21:39:01 20 C 8.47 g/m*3 20 C 0 km/h
1429 27-07-2010 21:51:03 19.7 C 9.17 g/m*3 19.7 C 0 km/h
1430 27-07-2010 22:04:04 19.7 C 9.34 g/m*3 19.7 C 0 km/h
1431 27-07-2010 22:16:04 19.3 C 9.12 g/m*3 19.3 C 0 km/h
1432 27-07-2010 22:28:04 19 C 8.8 g/m*3 19 C 0 km/h
1433 27-07-2010 22:40:05 18.8 C 9.18 g/m*3 18.8 C 0 km/h
1434 27-07-2010 22:52:05 18.8 C 9.34 g/m*3 18.8 C 0 km/h
1435 27-07-2010 23:04:05 18.6 C 9.39 g/m*3 18.6 C 0 km/h
1436 27-07-2010 23:16:05 18.4 C 9.28 g/m*3 18.4 C 0 km/h
1437 27-07-2010 23:28:05 18.4 C 9.44 g/m*3 18.4 C 0 km/h
1438 27-07-2010 23:40:05 18.4 C 9.12 g/m*3 18.4 C 0 km/h
1439 27-07-2010 23:52:05 18.4 C 9.44 g/m*3 18.4 C 0 km/h
1440 28-07-2010 00:04:05 18.5 C 9.65 g/m*3 18.5 C 0 km/h
1441 28-07-2010 00:16:05 18.5 C 9.81 g/m*3 18.5 C 0 km/h
1442 28-07-2010 00:28:05 18.3 C 9.85 g/m*3 18.3 C 0 km/h
1443 28-07-2010 00:40:05 18 C 9.83 g/m*3 18 C 0 km/h
1444 28-07-2010 00:52:05 17.7 C 9.81 g/m*3 17.7 C 0 km/h
1445 28-07-2010 01:04:05 17.5 C 9.69 g/m*3 17.5 C 0 km/h
1446 28-07-2010 01:16:05 17.3 C 9.58 g/m*3 17.3 C 0 km/h
1447 28-07-2010 01:28:05 17.2 C 9.81 g/m*3 17.2 C 0 km/h
1448 28-07-2010 01:40:05 17.1 C 10.04 g/m*3 17.1 C 0 km/h
1449 28-07-2010 01:52:05 16.7 C 10.09 g/m*3 16.7 C 0 km/h
1450 28-07-2010 02:04:05 16.9 C 10.21 g/m*3 16.9 C 0 km/h
Sensor: Nr:Datum:Temp:Abs-Feuchte:Windchill:Wind:
Aussen-T/F 1451 28-07-2010 02:16:05 17 C 9.98 g/m*3 17 C 0 km/h
1452 28-07-2010 02:28:05 16.9 C 10.36 g/m*3 16.9 C 0 km/h
1453 28-07-2010 02:40:05 17 C 10.27 g/m*3 17 C 0 km/h
1454 28-07-2010 02:52:06 17 C 10.27 g/m*3 17 C 0 km/h
1455 28-07-2010 03:04:06 17 C 10.27 g/m*3 17 C 0 km/h
1456 28-07-2010 03:16:06 17 C 10.13 g/m*3 17 C 0 km/h
1457 28-07-2010 03:28:06 17 C 10.27 g/m*3 17 C 0 km/h
1458 28-07-2010 03:40:06 17.1 C 10.48 g/m*3 17.1 C 0 km/h
1459 28-07-2010 03:52:06 17.1 C 10.48 g/m*3 17.1 C 0 km/h
1460 28-07-2010 04:04:06 17 C 10.42 g/m*3 17 C 0 km/h
1461 28-07-2010 04:16:06 17.1 C 10.48 g/m*3 17.1 C 0 km/h
1462 28-07-2010 04:28:06 17 C 10.42 g/m*3 17 C 0 km/h
1463 28-07-2010 04:40:06 16.9 C 10.5 g/m*3 16.9 C 0 km/h
1464 28-07-2010 04:52:06 16.8 C 10.58 g/m*3 16.8 C 0 km/h
1465 28-07-2010 05:04:06 16.8 C 10.58 g/m*3 16.8 C 0 km/h
1466 28-07-2010 05:16:06 16.8 C 10.58 g/m*3 16.8 C 0 km/h
1467 28-07-2010 05:28:06 16.8 C 10.58 g/m*3 16.8 C 0 km/h
1468 28-07-2010 05:40:06 16.8 C 10.58 g/m*3 16.8 C 0 km/h
1469 28-07-2010 05:52:06 17 C 10.56 g/m*3 17 C 0 km/h
1470 28-07-2010 06:04:06 17.1 C 10.48 g/m*3 17.1 C 0 km/h
1471 28-07-2010 06:16:06 17.2 C 10.54 g/m*3 17.2 C 0 km/h
1472 28-07-2010 06:28:06 17.2 C 10.54 g/m*3 17.2 C 0 km/h
1473 28-07-2010 06:40:06 16.9 C 11.08 g/m*3 16.9 C 0 km/h
1474 28-07-2010 06:52:07 16.7 C 11.37 g/m*3 16.7 C 0 km/h
1475 28-07-2010 07:04:04 16.4 C 11.58 g/m*3 16.4 C 0 km/h
Sensor: Nr:Datum:Temp:Abs-Feuchte:Windchill:Wind:
Aussen-T/F 1476 28-07-2010 07:16:03 16.2 C 11.86 g/m*3 16.2 C 0 km/h
1477 28-07-2010 07:28:03 16.3 C 12.21 g/m*3 16.3 C 0 km/h
1478 28-07-2010 07:40:04 16.3 C 12.35 g/m*3 16.3 C 0 km/h
1479 28-07-2010 07:52:01 16.4 C 12.56 g/m*3 16.4 C 0 km/h
1480 28-07-2010 08:04:02 16.5 C 12.64 g/m*3 16.5 C 0 km/h
1481 28-07-2010 08:16:02 16.6 C 12.71 g/m*3 16.6 C 0 km/h
1482 28-07-2010 08:28:02 17 C 13.02 g/m*3 17 C 0 km/h
1483 28-07-2010 08:40:01 17.6 C 13.5 g/m*3 17.6 C 0 km/h
1484 28-07-2010 08:52:02 17.8 C 13.2 g/m*3 17.8 C 0 km/h
1485 28-07-2010 09:04:01 18.1 C 12.98 g/m*3 18.1 C 0 km/h
1486 28-07-2010 09:16:02 17.9 C 12.83 g/m*3 17.9 C 0 km/h
1487 28-07-2010 09:28:02 17.4 C 12.6 g/m*3 17.4 C 0 km/h
1488 28-07-2010 09:40:01 17.1 C 12.66 g/m*3 17.1 C 0 km/h
1489 28-07-2010 09:52:02 17.3 C 12.82 g/m*3 17.3 C 0 km/h
1490 28-07-2010 10:04:02 17.3 C 12.96 g/m*3 17.3 C 0 km/h
1491 28-07-2010 10:16:02 17.6 C 13.2 g/m*3 17.6 C 0 km/h
1492 28-07-2010 10:28:02 17.6 C 13.05 g/m*3 17.6 C 0 km/h
1493 28-07-2010 10:40:02 17.9 C 13.59 g/m*3 17.9 C 0 km/h
1494 28-07-2010 10:52:01 18.1 C 13.44 g/m*3 18.1 C 0 km/h
1495 28-07-2010 11:04:02 18.8 C 14.01 g/m*3 18.8 C 0 km/h
1496 28-07-2010 11:16:01 19.7 C 13.92 g/m*3 19.7 C 0 km/h
1497 28-07-2010 11:28:01 20.6 C 13.24 g/m*3 20.6 C 0 km/h
1498 28-07-2010 11:40:01 20.7 C 13.14 g/m*3 20.7 C 0 km/h
1499 28-07-2010 11:52:01 21.5 C 13.39 g/m*3 21.5 C 0 km/h
1500 28-07-2010 12:04:01 21.3 C 13.23 g/m*3 21.3 C 0 km/h
Sensor: Nr:Datum:Temp:Abs-Feuchte:Windchill:Wind:
Aussen-T/F 1501 28-07-2010 12:16:02 20.8 C 12.86 g/m*3 20.8 C 0 km/h
1502 28-07-2010 12:28:02 21.5 C 12.82 g/m*3 21.5 C 0 km/h
1503 28-07-2010 12:40:01 21.4 C 13.12 g/m*3 21.4 C 0 km/h
1504 28-07-2010 12:52:02 21.1 C 13.08 g/m*3 21.1 C 0 km/h
1505 28-07-2010 13:04:02 21 C 12.82 g/m*3 21 C 0 km/h
1506 28-07-2010 13:16:02 21.5 C 13.39 g/m*3 21.5 C 0 km/h
1507 28-07-2010 13:28:02 24.7 C 12.9 g/m*3 24.7 C 0 km/h
1508 28-07-2010 13:40:02 25.7 C 11.25 g/m*3 25.7 C 0 km/h
1509 28-07-2010 13:52:02 25.8 C 9.87 g/m*3 25.8 C 0 km/h
1510 28-07-2010 14:04:02 24.7 C 10.41 g/m*3 24.7 C 0 km/h
1511 28-07-2010 14:16:02 25.4 C 9.89 g/m*3 25.4 C 0 km/h
1512 28-07-2010 14:28:02 25.8 C 9.15 g/m*3 25.8 C 0 km/h
1513 28-07-2010 14:40:02 26.3 C 8.66 g/m*3 26.3 C 0 km/h
1514 28-07-2010 14:52:02 26.5 C 8.26 g/m*3 26.5 C 0 km/h
1515 28-07-2010 15:04:02 26.4 C 8.21 g/m*3 26.4 C 0 km/h
1516 28-07-2010 15:16:02 26.4 C 8.46 g/m*3 26.4 C 0 km/h
1517 28-07-2010 15:28:02 25.8 C 7.46 g/m*3 25.8 C 0 km/h
1518 28-07-2010 15:40:02 25.2 C 7.22 g/m*3 25.2 C 0 km/h
1519 28-07-2010 15:52:02 26.2 C 7.14 g/m*3 26.2 C 0 km/h
1520 28-07-2010 16:04:02 27.1 C 6.73 g/m*3 27.1 C 0 km/h
1521 28-07-2010 16:16:03 27.2 C 7.29 g/m*3 27.2 C 0 km/h
1522 28-07-2010 16:28:03 27.7 C 7.22 g/m*3 27.7 C 0 km/h
1523 28-07-2010 16:40:02 28.2 C 6.87 g/m*3 28.2 C 0 km/h
1524 28-07-2010 16:52:03 28.7 C 7.06 g/m*3 28.7 C 0 km/h
1525 28-07-2010 17:04:02 28.7 C 6.78 g/m*3 28.7 C 0 km/h
Sensor: Nr:Datum:Temp:Abs-Feuchte:Windchill:Wind:
Aussen-T/F 1526 28-07-2010 17:16:02 29.6 C 7.12 g/m*3 29.6 C 0 km/h
1527 28-07-2010 17:28:02 29 C 6.61 g/m*3 29 C 0 km/h
1528 28-07-2010 17:40:02 28.9 C 6.57 g/m*3 28.9 C 0 km/h
1529 28-07-2010 17:52:02 27.8 C 6.19 g/m*3 27.8 C 0 km/h
1530 28-07-2010 18:04:01 28.4 C 6.67 g/m*3 28.4 C 0 km/h
1531 28-07-2010 18:16:02 28.2 C 6.6 g/m*3 28.2 C 0 km/h
1532 28-07-2010 18:28:02 26.2 C 6.4 g/m*3 26.2 C 0 km/h
1533 28-07-2010 18:40:02 25.6 C 6.67 g/m*3 25.6 C 0 km/h
1534 28-07-2010 18:52:01 25.3 C 7.02 g/m*3 25.3 C 0 km/h
1535 28-07-2010 19:04:02 24.5 C 8.73 g/m*3 24.5 C 0 km/h
1536 28-07-2010 19:16:01 22.6 C 9.44 g/m*3 22.6 C 0 km/h
1537 28-07-2010 19:28:01 21.7 C 10.87 g/m*3 21.7 C 0 km/h
1538 28-07-2010 19:40:01 21.8 C 10.55 g/m*3 21.8 C 0 km/h
1539 28-07-2010 19:52:01 21.9 C 10.42 g/m*3 21.9 C 0 km/h
1540 28-07-2010 20:04:02 21.9 C 10.23 g/m*3 21.9 C 0 km/h
1541 28-07-2010 20:16:01 22 C 9.9 g/m*3 22 C 0 km/h
1542 28-07-2010 20:28:01 22.1 C 9.96 g/m*3 22.1 C 0 km/h
1543 28-07-2010 20:40:02 21.6 C 10.24 g/m*3 21.6 C 0 km/h
1544 28-07-2010 20:52:02 21.3 C 10.62 g/m*3 21.3 C 0 km/h
1545 28-07-2010 21:04:02 21 C 10.44 g/m*3 21 C 0 km/h
1546 28-07-2010 21:16:02 20.8 C 10.5 g/m*3 20.8 C 0 km/h
1547 28-07-2010 21:28:02 20.7 C 10.62 g/m*3 20.7 C 0 km/h
1548 28-07-2010 21:40:02 20.4 C 10.79 g/m*3 20.4 C 0 km/h
1549 28-07-2010 21:52:02 20.1 C 10.78 g/m*3 20.1 C 0 km/h
1550 28-07-2010 22:04:02 20 C 11.06 g/m*3 20 C 0 km/h
Sensor: Nr:Datum:Temp:Abs-Feuchte:Windchill:Wind:
Aussen-T/F 1551 28-07-2010 22:17:02 19.8 C 11.44 g/m*3 19.8 C 0 km/h
1552 28-07-2010 22:29:02 19.8 C 11.1 g/m*3 19.8 C 0 km/h
1553 28-07-2010 22:41:02 19.7 C 11.38 g/m*3 19.7 C 0 km/h
1554 28-07-2010 22:53:02 19.6 C 11.31 g/m*3 19.6 C 0 km/h
1555 28-07-2010 23:05:02 19.3 C 11.78 g/m*3 19.3 C 0 km/h
1556 28-07-2010 23:17:02 18.3 C 12.98 g/m*3 18.3 C 0 km/h
1557 28-07-2010 23:29:02 18.2 C 13.37 g/m*3 18.2 C 0 km/h
1558 28-07-2010 23:41:02 18.1 C 13.44 g/m*3 18.1 C 0 km/h
1559 28-07-2010 23:53:02 18 C 13.36 g/m*3 18 C 0 km/h
1560 29-07-2010 00:05:02 17.7 C 13.43 g/m*3 17.7 C 0 km/h
1561 29-07-2010 00:17:02 17.5 C 13.27 g/m*3 17.5 C 0 km/h
1562 29-07-2010 00:29:02 17.2 C 13.03 g/m*3 17.2 C 0 km/h
1563 29-07-2010 00:41:02 16.9 C 13.09 g/m*3 16.9 C 0 km/h
1564 29-07-2010 00:53:02 16.5 C 12.78 g/m*3 16.5 C 0 km/h
1565 29-07-2010 01:05:02 16.4 C 12.84 g/m*3 16.4 C 0 km/h
1566 29-07-2010 01:17:02 16.2 C 12.69 g/m*3 16.2 C 0 km/h
1567 29-07-2010 01:29:02 16.1 C 12.61 g/m*3 16.1 C 0 km/h
1568 29-07-2010 01:41:02 15.9 C 12.59 g/m*3 15.9 C 0 km/h
1569 29-07-2010 01:53:02 15.7 C 12.44 g/m*3 15.7 C 0 km/h
1570 29-07-2010 02:05:02 15.4 C 12.22 g/m*3 15.4 C 0 km/h
1571 29-07-2010 02:17:03 15.2 C 12.07 g/m*3 15.2 C 0 km/h
1572 29-07-2010 02:29:03 15.1 C 12 g/m*3 15.1 C 0 km/h
1573 29-07-2010 02:41:03 15 C 11.93 g/m*3 15 C 0 km/h
1574 29-07-2010 02:53:03 15.1 C 12 g/m*3 15.1 C 0 km/h
1575 29-07-2010 03:05:03 15 C 11.93 g/m*3 15 C 0 km/h
Sensor: Nr:Datum:Temp:Abs-Feuchte:Windchill:Wind:
Aussen-T/F 1576 29-07-2010 03:17:03 14.8 C 11.91 g/m*3 14.8 C 0 km/h
1577 29-07-2010 03:29:03 14.7 C 11.83 g/m*3 14.7 C 0 km/h
1578 29-07-2010 03:41:03 14.6 C 11.76 g/m*3 14.6 C 0 km/h
1579 29-07-2010 03:53:03 14.7 C 11.83 g/m*3 14.7 C 0 km/h
1580 29-07-2010 04:05:03 14.6 C 11.76 g/m*3 14.6 C 0 km/h
1581 29-07-2010 04:17:03 14.4 C 11.62 g/m*3 14.4 C 0 km/h
1582 29-07-2010 04:29:03 14.3 C 11.55 g/m*3 14.3 C 0 km/h
1583 29-07-2010 04:41:03 14.6 C 11.76 g/m*3 14.6 C 0 km/h
1584 29-07-2010 04:53:03 14.3 C 11.55 g/m*3 14.3 C 0 km/h
1585 29-07-2010 05:05:03 14.1 C 11.41 g/m*3 14.1 C 0 km/h
1586 29-07-2010 05:17:03 14.1 C 11.41 g/m*3 14.1 C 0 km/h
1587 29-07-2010 05:29:03 14.4 C 11.62 g/m*3 14.4 C 0 km/h
1588 29-07-2010 05:41:03 14.7 C 11.83 g/m*3 14.7 C 0 km/h
1589 29-07-2010 05:53:03 14.4 C 11.74 g/m*3 14.4 C 0 km/h
1590 29-07-2010 06:05:03 14.5 C 11.82 g/m*3 14.5 C 0 km/h
1591 29-07-2010 06:17:03 14.6 C 11.89 g/m*3 14.6 C 0 km/h
1592 29-07-2010 06:29:04 14.7 C 11.96 g/m*3 14.7 C 0 km/h
1593 29-07-2010 06:41:04 14.7 C 11.96 g/m*3 14.7 C 0 km/h
1594 29-07-2010 06:53:04 14.6 C 11.89 g/m*3 14.6 C 0 km/h
1595 29-07-2010 07:05:02 14.7 C 11.96 g/m*3 14.7 C 0 km/h
1596 29-07-2010 07:17:02 14.8 C 12.03 g/m*3 14.8 C 0 km/h
1597 29-07-2010 07:29:02 15 C 12.05 g/m*3 15 C 0 km/h
1598 29-07-2010 07:41:02 15 C 12.18 g/m*3 15 C 0 km/h
1599 29-07-2010 07:53:02 14.9 C 12.11 g/m*3 14.9 C 0 km/h
1600 29-07-2010 08:05:02 14.8 C 12.03 g/m*3 14.8 C 0 km/h
Sensor: Nr:Datum:Temp:Abs-Feuchte:Windchill:Wind:
Aussen-T/F 1601 29-07-2010 08:17:02 15.2 C 12.33 g/m*3 15.2 C 0 km/h
1602 29-07-2010 08:29:02 15.7 C 12.71 g/m*3 15.7 C 0 km/h
1603 29-07-2010 08:41:02 15.6 C 12.63 g/m*3 15.6 C 0 km/h
1604 29-07-2010 08:53:02 15.6 C 12.63 g/m*3 15.6 C 0 km/h
1605 29-07-2010 09:05:02 15.6 C 12.5 g/m*3 15.6 C 0 km/h
1606 29-07-2010 09:17:02 15.3 C 12.14 g/m*3 15.3 C 0 km/h
1607 29-07-2010 09:29:02 15.4 C 12.22 g/m*3 15.4 C 0 km/h
1608 29-07-2010 09:41:02 15.7 C 12.31 g/m*3 15.7 C 0 km/h
1609 29-07-2010 09:53:02 15.4 C 11.96 g/m*3 15.4 C 0 km/h
1610 29-07-2010 10:05:01 15.2 C 11.68 g/m*3 15.2 C 0 km/h
1611 29-07-2010 10:17:02 15.4 C 11.82 g/m*3 15.4 C 0 km/h
1612 29-07-2010 10:29:02 15.7 C 12.04 g/m*3 15.7 C 0 km/h
1613 29-07-2010 10:41:02 15.1 C 11.48 g/m*3 15.1 C 0 km/h
1614 29-07-2010 10:53:02 14.7 C 11.33 g/m*3 14.7 C 0 km/h
1615 29-07-2010 11:05:03 14.8 C 11.53 g/m*3 14.8 C 0 km/h
1616 29-07-2010 11:17:02 13.9 C 10.91 g/m*3 13.9 C 0 km/h
1617 29-07-2010 11:29:02 14.3 C 11.18 g/m*3 14.3 C 0 km/h
1618 29-07-2010 11:41:02 15.1 C 11.74 g/m*3 15.1 C 0 km/h
1619 29-07-2010 11:53:01 15.1 C 11.74 g/m*3 15.1 C 0 km/h
1620 29-07-2010 12:05:02 16.2 C 12.41 g/m*3 16.2 C 0 km/h
1621 29-07-2010 12:17:01 17.2 C 12.89 g/m*3 17.2 C 0 km/h
1622 29-07-2010 12:29:01 17.5 C 12.82 g/m*3 17.5 C 0 km/h
1623 29-07-2010 12:41:01 17.7 C 12.52 g/m*3 17.7 C 0 km/h
1624 29-07-2010 12:53:01 17.8 C 12.29 g/m*3 17.8 C 0 km/h
1625 29-07-2010 13:05:01 18.1 C 12.05 g/m*3 18.1 C 0 km/h
Sensor: Nr:Datum:Temp:Abs-Feuchte:Windchill:Wind:
Aussen-T/F 1626 29-07-2010 13:17:02 19.1 C 11.97 g/m*3 19.1 C 0 km/h
1627 29-07-2010 13:29:02 19.9 C 11 g/m*3 19.9 C 0 km/h
1628 29-07-2010 13:41:01 18.7 C 10.25 g/m*3 18.7 C 0 km/h
1629 29-07-2010 13:53:03 16.4 C 10.19 g/m*3 16.4 C 0 km/h
1630 29-07-2010 14:05:02 16.4 C 11.03 g/m*3 16.4 C 0 km/h
1631 29-07-2010 14:17:02 16.6 C 11.16 g/m*3 16.6 C 0 km/h
1632 29-07-2010 14:29:02 17.4 C 11.12 g/m*3 17.4 C 0 km/h
1633 29-07-2010 14:41:02 19.1 C 11.31 g/m*3 19.1 C 0 km/h
1634 29-07-2010 14:53:02 19.3 C 9.79 g/m*3 19.3 C 0 km/h
1635 29-07-2010 15:05:01 19.2 C 9.73 g/m*3 19.2 C 0 km/h
1636 29-07-2010 15:17:02 19 C 9.94 g/m*3 19 C 0 km/h
1637 29-07-2010 15:29:02 17.5 C 10.59 g/m*3 17.5 C 0 km/h
1638 29-07-2010 15:41:02 17.3 C 11.05 g/m*3 17.3 C 0 km/h
1639 29-07-2010 15:53:02 18.2 C 12.28 g/m*3 18.2 C 0 km/h
1640 29-07-2010 16:05:03 19.7 C 12.57 g/m*3 19.7 C 0 km/h
1641 29-07-2010 16:17:02 21.1 C 11.61 g/m*3 21.1 C 0 km/h
1642 29-07-2010 16:29:02 21.8 C 11.13 g/m*3 21.8 C 0 km/h
1643 29-07-2010 16:41:02 18.8 C 9.66 g/m*3 18.8 C 0 km/h
1644 29-07-2010 16:53:01 16.8 C 9.72 g/m*3 16.8 C 0 km/h
1645 29-07-2010 17:05:02 16.1 C 10.01 g/m*3 16.1 C 0 km/h
1646 29-07-2010 17:17:01 16.7 C 11.37 g/m*3 16.7 C 0 km/h
1647 29-07-2010 17:29:01 17.7 C 11.92 g/m*3 17.7 C 0 km/h
1648 29-07-2010 17:41:01 17.8 C 11.38 g/m*3 17.8 C 0 km/h
1649 29-07-2010 17:53:01 17.3 C 11.2 g/m*3 17.3 C 0 km/h
1650 29-07-2010 18:05:01 17.3 C 11.05 g/m*3 17.3 C 0 km/h
Sensor: Nr:Datum:Temp:Abs-Feuchte:Windchill:Wind:
Aussen-T/F 1651 29-07-2010 18:17:02 17.4 C 11.12 g/m*3 17.4 C 0 km/h
1652 29-07-2010 18:29:02 17.8 C 11.38 g/m*3 17.8 C 0 km/h
1653 29-07-2010 18:41:01 18.1 C 11.59 g/m*3 18.1 C 0 km/h
1654 29-07-2010 18:53:03 18.5 C 11.39 g/m*3 18.5 C 0 km/h
1655 29-07-2010 19:05:02 18.1 C 10.51 g/m*3 18.1 C 0 km/h
1656 29-07-2010 19:17:02 18 C 9.52 g/m*3 18 C 0 km/h
1657 29-07-2010 19:29:02 18.5 C 9.65 g/m*3 18.5 C 0 km/h
1658 29-07-2010 19:41:02 18.7 C 9.45 g/m*3 18.7 C 0 km/h
1659 29-07-2010 19:53:02 18.4 C 9.28 g/m*3 18.4 C 0 km/h
1660 29-07-2010 20:05:02 17.9 C 9.77 g/m*3 17.9 C 0 km/h
1661 29-07-2010 20:17:02 17.7 C 9.66 g/m*3 17.7 C 0 km/h
1662 29-07-2010 20:29:02 17.7 C 9.66 g/m*3 17.7 C 0 km/h
1663 29-07-2010 20:41:02 17.5 C 9.39 g/m*3 17.5 C 0 km/h
1664 29-07-2010 20:53:02 17.2 C 9.08 g/m*3 17.2 C 0 km/h
1665 29-07-2010 21:05:02 16.8 C 9.15 g/m*3 16.8 C 0 km/h
1666 29-07-2010 21:17:02 16.1 C 9.6 g/m*3 16.1 C 0 km/h
1667 29-07-2010 21:29:02 15.9 C 10.16 g/m*3 15.9 C 0 km/h
1668 29-07-2010 21:41:01 15.8 C 10.36 g/m*3 15.8 C 0 km/h
1669 29-07-2010 21:53:02 15.6 C 10.24 g/m*3 15.6 C 0 km/h
1670 29-07-2010 22:06:03 15.6 C 10.37 g/m*3 15.6 C 0 km/h
1671 29-07-2010 22:18:03 15.6 C 9.97 g/m*3 15.6 C 0 km/h
1672 29-07-2010 22:30:03 15.7 C 9.77 g/m*3 15.7 C 0 km/h
1673 29-07-2010 22:42:03 15.7 C 9.77 g/m*3 15.7 C 0 km/h
1674 29-07-2010 22:54:03 15.7 C 9.63 g/m*3 15.7 C 0 km/h
1675 29-07-2010 23:06:03 15.7 C 9.63 g/m*3 15.7 C 0 km/h
Sensor: Nr:Datum:Temp:Abs-Feuchte:Windchill:Wind:
Aussen-T/F 1676 29-07-2010 23:18:03 15.8 C 9.56 g/m*3 15.8 C 0 km/h
1677 29-07-2010 23:30:03 15.8 C 9.56 g/m*3 15.8 C 0 km/h
1678 29-07-2010 23:42:03 15.8 C 9.56 g/m*3 15.8 C 0 km/h
1679 29-07-2010 23:54:03 15.4 C 9.72 g/m*3 15.4 C 0 km/h
1680 30-07-2010 00:06:03 15.2 C 9.73 g/m*3 15.2 C 0 km/h
1681 30-07-2010 00:18:04 15.2 C 9.86 g/m*3 15.2 C 0 km/h
1682 30-07-2010 00:30:04 15.2 C 9.86 g/m*3 15.2 C 0 km/h
1683 30-07-2010 00:42:04 15.2 C 9.86 g/m*3 15.2 C 0 km/h
1684 30-07-2010 00:54:04 15.2 C 9.86 g/m*3 15.2 C 0 km/h
1685 30-07-2010 01:06:04 15.2 C 9.86 g/m*3 15.2 C 0 km/h
1686 30-07-2010 01:18:04 15.3 C 9.92 g/m*3 15.3 C 0 km/h
1687 30-07-2010 01:30:04 15.2 C 9.86 g/m*3 15.2 C 0 km/h
1688 30-07-2010 01:42:04 15.2 C 9.86 g/m*3 15.2 C 0 km/h
1689 30-07-2010 01:54:04 15.1 C 9.8 g/m*3 15.1 C 0 km/h
1690 30-07-2010 02:06:04 15.1 C 9.8 g/m*3 15.1 C 0 km/h
1691 30-07-2010 02:18:04 14.9 C 9.94 g/m*3 14.9 C 0 km/h
1692 30-07-2010 02:30:04 14.8 C 10.01 g/m*3 14.8 C 0 km/h
1693 30-07-2010 02:42:04 14.5 C 9.83 g/m*3 14.5 C 0 km/h
1694 30-07-2010 02:54:04 14.4 C 9.89 g/m*3 14.4 C 0 km/h
1695 30-07-2010 03:06:04 14.4 C 10.01 g/m*3 14.4 C 0 km/h
1696 30-07-2010 03:18:04 14.6 C 10.26 g/m*3 14.6 C 0 km/h
1697 30-07-2010 03:30:04 14.8 C 10.39 g/m*3 14.8 C 0 km/h
1698 30-07-2010 03:42:04 14.6 C 10.26 g/m*3 14.6 C 0 km/h
1699 30-07-2010 03:54:04 14.6 C 10.26 g/m*3 14.6 C 0 km/h
1700 30-07-2010 04:06:04 14.5 C 10.32 g/m*3 14.5 C 0 km/h
Sensor: Nr:Datum:Temp:Abs-Feuchte:Windchill:Wind:
Aussen-T/F 1701 30-07-2010 04:18:05 14.5 C 10.32 g/m*3 14.5 C 0 km/h
1702 30-07-2010 04:30:05 14.4 C 10.38 g/m*3 14.4 C 0 km/h
1703 30-07-2010 04:42:05 14.3 C 10.44 g/m*3 14.3 C 0 km/h
1704 30-07-2010 04:54:05 14.4 C 10.51 g/m*3 14.4 C 0 km/h
1705 30-07-2010 05:06:05 14.6 C 10.64 g/m*3 14.6 C 0 km/h
1706 30-07-2010 05:18:05 14.7 C 10.58 g/m*3 14.7 C 0 km/h
1707 30-07-2010 05:30:05 14.7 C 10.58 g/m*3 14.7 C 0 km/h
1708 30-07-2010 05:42:05 14.7 C 10.58 g/m*3 14.7 C 0 km/h
1709 30-07-2010 05:54:05 14.8 C 10.64 g/m*3 14.8 C 0 km/h
1710 30-07-2010 06:06:05 14.8 C 10.51 g/m*3 14.8 C 0 km/h
1711 30-07-2010 06:18:02 14.7 C 10.45 g/m*3 14.7 C 0 km/h
1712 30-07-2010 06:30:02 14.7 C 10.58 g/m*3 14.7 C 0 km/h
1713 30-07-2010 06:42:03 14.8 C 10.51 g/m*3 14.8 C 0 km/h
1714 30-07-2010 06:54:02 14.8 C 10.51 g/m*3 14.8 C 0 km/h
1715 30-07-2010 07:06:02 14.9 C 10.58 g/m*3 14.9 C 0 km/h
1716 30-07-2010 07:18:02 15.1 C 10.45 g/m*3 15.1 C 0 km/h
1717 30-07-2010 07:30:02 15.3 C 10.58 g/m*3 15.3 C 0 km/h
1718 30-07-2010 07:42:02 15.2 C 10.38 g/m*3 15.2 C 0 km/h
1719 30-07-2010 07:54:02 15.4 C 10.64 g/m*3 15.4 C 0 km/h
1720 30-07-2010 08:06:02 15.6 C 10.64 g/m*3 15.6 C 0 km/h
1721 30-07-2010 08:18:02 15.8 C 10.63 g/m*3 15.8 C 0 km/h
1722 30-07-2010 08:30:02 16.2 C 10.62 g/m*3 16.2 C 0 km/h
1723 30-07-2010 08:42:01 16.6 C 10.59 g/m*3 16.6 C 0 km/h
1724 30-07-2010 08:54:02 17.2 C 10.25 g/m*3 17.2 C 0 km/h
1725 30-07-2010 09:06:01 17.3 C 9.72 g/m*3 17.3 C 0 km/h
Sensor: Nr:Datum:Temp:Abs-Feuchte:Windchill:Wind:
Aussen-T/F 1726 30-07-2010 09:18:01 16.7 C 9.81 g/m*3 16.7 C 0 km/h
1727 30-07-2010 09:30:01 16.4 C 9.91 g/m*3 16.4 C 0 km/h
1728 30-07-2010 09:42:02 17.7 C 10.11 g/m*3 17.7 C 0 km/h
1729 30-07-2010 09:54:02 18.2 C 9.33 g/m*3 18.2 C 0 km/h
1730 30-07-2010 10:06:01 18 C 9.06 g/m*3 18 C 0 km/h
1731 30-07-2010 10:18:01 19.5 C 9.06 g/m*3 19.5 C 0 km/h
1732 30-07-2010 10:30:02 19.1 C 9.02 g/m*3 19.1 C 0 km/h
1733 30-07-2010 10:42:01 18.9 C 8.91 g/m*3 18.9 C 0 km/h
1734 30-07-2010 10:54:02 19.5 C 8.89 g/m*3 19.5 C 0 km/h
1735 30-07-2010 11:06:02 19.8 C 8.71 g/m*3 19.8 C 0 km/h
1736 30-07-2010 11:18:02 21.1 C 8.66 g/m*3 21.1 C 0 km/h
1737 30-07-2010 11:30:02 22.6 C 8.64 g/m*3 22.6 C 0 km/h
1738 30-07-2010 11:42:02 23.8 C 8.17 g/m*3 23.8 C 0 km/h
1739 30-07-2010 11:54:01 22.7 C 7.27 g/m*3 22.7 C 0 km/h
1740 30-07-2010 12:06:02 21.1 C 7.74 g/m*3 21.1 C 0 km/h
1741 30-07-2010 12:18:01 21 C 8.24 g/m*3 21 C 0 km/h
1742 30-07-2010 12:30:01 21.3 C 8.39 g/m*3 21.3 C 0 km/h
1743 30-07-2010 12:42:01 21.7 C 8.97 g/m*3 21.7 C 0 km/h
1744 30-07-2010 12:54:01 22.6 C 8.24 g/m*3 22.6 C 0 km/h
1745 30-07-2010 13:06:02 24.5 C 7.61 g/m*3 24.5 C 0 km/h
1746 30-07-2010 13:18:01 26.3 C 7.43 g/m*3 26.3 C 0 km/h
1747 30-07-2010 13:30:01 24.2 C 7.26 g/m*3 24.2 C 0 km/h
1748 30-07-2010 13:42:01 22.5 C 7.39 g/m*3 22.5 C 0 km/h
1749 30-07-2010 13:54:01 22.5 C 7.59 g/m*3 22.5 C 0 km/h
1750 30-07-2010 14:06:02 23.3 C 7.32 g/m*3 23.3 C 0 km/h
Sensor: Nr:Datum:Temp:Abs-Feuchte:Windchill:Wind:
Aussen-T/F 1751 30-07-2010 14:18:02 24.3 C 7.52 g/m*3 24.3 C 0 km/h
1752 30-07-2010 14:30:02 24.7 C 7.7 g/m*3 24.7 C 0 km/h
1753 30-07-2010 14:42:01 24.8 C 7.97 g/m*3 24.8 C 0 km/h
1754 30-07-2010 14:54:02 25.3 C 7.49 g/m*3 25.3 C 0 km/h
1755 30-07-2010 15:06:01 25.7 C 7.18 g/m*3 25.7 C 0 km/h
1756 30-07-2010 15:18:02 25.5 C 7.1 g/m*3 25.5 C 0 km/h
1757 30-07-2010 15:30:02 25.4 C 7.3 g/m*3 25.4 C 0 km/h
1758 30-07-2010 15:42:01 24.8 C 7.28 g/m*3 24.8 C 0 km/h
1759 30-07-2010 15:54:03 24.3 C 6.86 g/m*3 24.3 C 0 km/h
1760 30-07-2010 16:06:02 24.8 C 7.06 g/m*3 24.8 C 0 km/h
1761 30-07-2010 16:18:02 26.4 C 6.47 g/m*3 26.4 C 0 km/h
1762 30-07-2010 16:30:03 26.4 C 6.47 g/m*3 26.4 C 0 km/h
1763 30-07-2010 16:42:02 26.5 C 6.76 g/m*3 26.5 C 0 km/h
1764 30-07-2010 16:54:02 25.6 C 6.19 g/m*3 25.6 C 0 km/h
1765 30-07-2010 17:06:01 26.9 C 6.91 g/m*3 26.9 C 0 km/h
1766 30-07-2010 17:18:02 28.3 C 6.08 g/m*3 28.3 C 0 km/h
1767 30-07-2010 17:30:02 26.9 C 6.4 g/m*3 26.9 C 0 km/h
1768 30-07-2010 17:42:02 25.8 C 6.26 g/m*3 25.8 C 0 km/h
1769 30-07-2010 17:54:02 26.2 C 6.4 g/m*3 26.2 C 0 km/h
1770 30-07-2010 18:06:02 26.6 C 6.04 g/m*3 26.6 C 0 km/h
1771 30-07-2010 18:18:02 26.2 C 6.15 g/m*3 26.2 C 0 km/h
1772 30-07-2010 18:30:02 26.5 C 6.26 g/m*3 26.5 C 0 km/h
1773 30-07-2010 18:42:02 26.8 C 5.85 g/m*3 26.8 C 0 km/h
1774 30-07-2010 18:54:01 27.9 C 5.95 g/m*3 27.9 C 0 km/h
1775 30-07-2010 19:06:02 27.9 C 6.49 g/m*3 27.9 C 0 km/h
Sensor: Nr:Datum:Temp:Abs-Feuchte:Windchill:Wind:
Aussen-T/F 1776 30-07-2010 19:18:01 27 C 6.69 g/m*3 27 C 0 km/h
1777 30-07-2010 19:30:01 25.9 C 6.54 g/m*3 25.9 C 0 km/h
1778 30-07-2010 19:42:01 24.7 C 7.02 g/m*3 24.7 C 0 km/h
1779 30-07-2010 19:54:01 24.6 C 7.88 g/m*3 24.6 C 0 km/h
1780 30-07-2010 20:06:02 23.7 C 7.49 g/m*3 23.7 C 0 km/h
1781 30-07-2010 20:18:02 23.2 C 7.28 g/m*3 23.2 C 0 km/h
1782 30-07-2010 20:30:02 22.6 C 7.43 g/m*3 22.6 C 0 km/h
1783 30-07-2010 20:42:01 21.9 C 7.72 g/m*3 21.9 C 0 km/h
1784 30-07-2010 20:54:01 21.3 C 7.64 g/m*3 21.3 C 0 km/h
1785 30-07-2010 21:06:01 20.5 C 7.65 g/m*3 20.5 C 0 km/h
1786 30-07-2010 21:18:02 20.2 C 7.87 g/m*3 20.2 C 0 km/h
1787 30-07-2010 21:30:02 19.9 C 7.73 g/m*3 19.9 C 0 km/h
1788 30-07-2010 21:42:01 19.5 C 7.72 g/m*3 19.5 C 0 km/h
1789 30-07-2010 21:54:03 19.1 C 7.54 g/m*3 19.1 C 0 km/h
1790 30-07-2010 22:07:51 18.9 C 7.45 g/m*3 18.9 C 0 km/h
1791 30-07-2010 22:19:51 18.6 C 7.32 g/m*3 18.6 C 0 km/h
1792 30-07-2010 22:31:51 18.6 C 7.32 g/m*3 18.6 C 0 km/h
1793 30-07-2010 22:43:51 18.3 C 7.66 g/m*3 18.3 C 0 km/h
1794 30-07-2010 22:55:51 18.1 C 7.57 g/m*3 18.1 C 0 km/h
1795 30-07-2010 23:07:52 17.6 C 8.4 g/m*3 17.6 C 0 km/h
1796 30-07-2010 23:19:52 17.2 C 8.35 g/m*3 17.2 C 0 km/h
1797 30-07-2010 23:31:52 17 C 8.54 g/m*3 17 C 0 km/h
1798 30-07-2010 23:43:52 16.7 C 8.81 g/m*3 16.7 C 0 km/h
1799 30-07-2010 23:55:52 16.5 C 8.57 g/m*3 16.5 C 0 km/h
1800 31-07-2010 00:07:52 16.3 C 8.74 g/m*3 16.3 C 0 km/h
Sensor: Nr:Datum:Temp:Abs-Feuchte:Windchill:Wind:
Aussen-T/F 1801 31-07-2010 00:19:52 16.2 C 8.69 g/m*3 16.2 C 0 km/h
1802 31-07-2010 00:31:52 16 C 8.58 g/m*3 16 C 0 km/h
1803 31-07-2010 00:43:52 15.6 C 8.78 g/m*3 15.6 C 0 km/h
1804 31-07-2010 00:55:52 15.5 C 8.86 g/m*3 15.5 C 0 km/h
1805 31-07-2010 01:07:52 15.3 C 8.88 g/m*3 15.3 C 0 km/h
1806 31-07-2010 01:19:52 15 C 8.85 g/m*3 15 C 0 km/h
1807 31-07-2010 01:31:52 14.8 C 8.87 g/m*3 14.8 C 0 km/h
1808 31-07-2010 01:43:52 14.6 C 8.63 g/m*3 14.6 C 0 km/h
1809 31-07-2010 01:55:52 14.5 C 8.71 g/m*3 14.5 C 0 km/h
1810 31-07-2010 02:07:52 14.3 C 8.6 g/m*3 14.3 C 0 km/h
1811 31-07-2010 02:19:52 14.2 C 8.67 g/m*3 14.2 C 0 km/h
1812 31-07-2010 02:31:52 13.9 C 8.63 g/m*3 13.9 C 0 km/h
1813 31-07-2010 02:43:52 14 C 8.68 g/m*3 14 C 0 km/h
1814 31-07-2010 02:55:52 13.8 C 8.7 g/m*3 13.8 C 0 km/h
1815 31-07-2010 03:07:52 13.6 C 8.71 g/m*3 13.6 C 0 km/h
1816 31-07-2010 03:19:53 13.4 C 8.6 g/m*3 13.4 C 0 km/h
1817 31-07-2010 03:31:53 13.4 C 8.72 g/m*3 13.4 C 0 km/h
1818 31-07-2010 03:43:53 13.2 C 8.61 g/m*3 13.2 C 0 km/h
1819 31-07-2010 03:55:53 13.1 C 8.56 g/m*3 13.1 C 0 km/h
1820 31-07-2010 04:07:53 12.9 C 8.68 g/m*3 12.9 C 0 km/h
1821 31-07-2010 04:19:53 12.8 C 8.62 g/m*3 12.8 C 0 km/h
1822 31-07-2010 04:31:53 12.7 C 8.68 g/m*3 12.7 C 0 km/h
1823 31-07-2010 04:43:53 12.6 C 8.63 g/m*3 12.6 C 0 km/h
1824 31-07-2010 04:55:53 12.5 C 8.69 g/m*3 12.5 C 0 km/h
1825 31-07-2010 05:07:53 12.4 C 8.63 g/m*3 12.4 C 0 km/h
Sensor: Nr:Datum:Temp:Abs-Feuchte:Windchill:Wind:
Aussen-T/F 1826 31-07-2010 05:19:53 12.4 C 8.74 g/m*3 12.4 C 0 km/h
1827 31-07-2010 05:31:53 12.2 C 8.63 g/m*3 12.2 C 0 km/h
1828 31-07-2010 05:43:53 12.2 C 8.63 g/m*3 12.2 C 0 km/h
1829 31-07-2010 05:55:53 12.1 C 8.69 g/m*3 12.1 C 0 km/h
1830 31-07-2010 06:07:53 12.1 C 8.79 g/m*3 12.1 C 0 km/h
1831 31-07-2010 06:19:53 12 C 8.74 g/m*3 12 C 0 km/h
1832 31-07-2010 06:31:53 11.9 C 8.79 g/m*3 11.9 C 0 km/h
1833 31-07-2010 06:43:53 12 C 8.74 g/m*3 12 C 0 km/h
1834 31-07-2010 06:55:53 12.1 C 8.79 g/m*3 12.1 C 0 km/h
1835 31-07-2010 07:07:53 12.1 C 8.9 g/m*3 12.1 C 0 km/h
1836 31-07-2010 07:19:54 12.3 C 9.01 g/m*3 12.3 C 0 km/h
1837 31-07-2010 07:31:54 12.7 C 9.24 g/m*3 12.7 C 0 km/h
1838 31-07-2010 07:43:54 12.9 C 9.24 g/m*3 12.9 C 0 km/h
1839 31-07-2010 07:55:54 13 C 9.19 g/m*3 13 C 0 km/h
1840 31-07-2010 08:07:54 13.1 C 9.24 g/m*3 13.1 C 0 km/h
1841 31-07-2010 08:19:54 13.5 C 9.36 g/m*3 13.5 C 0 km/h
1842 31-07-2010 08:31:54 14.1 C 9.34 g/m*3 14.1 C 0 km/h
1843 31-07-2010 08:43:54 14.1 C 9.1 g/m*3 14.1 C 0 km/h
1844 31-07-2010 08:55:02 14.4 C 9.27 g/m*3 14.4 C 0 km/h
1845 31-07-2010 09:07:02 15.1 C 9.55 g/m*3 15.1 C 0 km/h
1846 31-07-2010 09:19:01 15.6 C 9.58 g/m*3 15.6 C 0 km/h
1847 31-07-2010 09:31:02 16 C 9.4 g/m*3 16 C 0 km/h
1848 31-07-2010 09:43:02 17.2 C 9.67 g/m*3 17.2 C 0 km/h
1849 31-07-2010 09:55:02 17.9 C 9.47 g/m*3 17.9 C 0 km/h
1850 31-07-2010 10:07:02 19.7 C 9.51 g/m*3 19.7 C 0 km/h
Sensor: Nr:Datum:Temp:Abs-Feuchte:Windchill:Wind:
Aussen-T/F 1851 31-07-2010 10:19:02 21.2 C 9.45 g/m*3 21.2 C 0 km/h
1852 31-07-2010 10:31:02 22.5 C 9.19 g/m*3 22.5 C 0 km/h
1853 31-07-2010 10:43:02 23.3 C 8.57 g/m*3 23.3 C 0 km/h
1854 31-07-2010 10:55:01 23.3 C 8.15 g/m*3 23.3 C 0 km/h
1855 31-07-2010 11:07:01 23.6 C 7.66 g/m*3 23.6 C 0 km/h
1856 31-07-2010 11:19:01 23.5 C 7.4 g/m*3 23.5 C 0 km/h
1857 31-07-2010 11:31:01 23.2 C 7.28 g/m*3 23.2 C 0 km/h
1858 31-07-2010 11:43:01 23.5 C 7.4 g/m*3 23.5 C 0 km/h
1859 31-07-2010 11:55:01 23.6 C 7.44 g/m*3 23.6 C 0 km/h
1860 31-07-2010 12:07:01 23.6 C 7.02 g/m*3 23.6 C 0 km/h
1861 31-07-2010 12:19:02 23.7 C 6.84 g/m*3 23.7 C 0 km/h
1862 31-07-2010 12:31:01 24.4 C 6.9 g/m*3 24.4 C 0 km/h
1863 31-07-2010 12:43:01 24.4 C 6.68 g/m*3 24.4 C 0 km/h
1864 31-07-2010 12:55:02 24.5 C 6.71 g/m*3 24.5 C 0 km/h
1865 31-07-2010 13:07:02 25.2 C 6.29 g/m*3 25.2 C 0 km/h
1866 31-07-2010 13:19:02 25.3 C 6.55 g/m*3 25.3 C 0 km/h
1867 31-07-2010 13:31:03 25.4 C 6.59 g/m*3 25.4 C 0 km/h
1868 31-07-2010 13:43:03 25.8 C 6.74 g/m*3 25.8 C 0 km/h
1869 31-07-2010 13:55:02 26.1 C 6.61 g/m*3 26.1 C 0 km/h
1870 31-07-2010 14:07:02 26.8 C 6.36 g/m*3 26.8 C 0 km/h
1871 31-07-2010 14:19:02 26.3 C 6.44 g/m*3 26.3 C 0 km/h
1872 31-07-2010 14:31:02 27 C 6.69 g/m*3 27 C 0 km/h
1873 31-07-2010 14:43:02 26.9 C 6.91 g/m*3 26.9 C 0 km/h
1874 31-07-2010 14:55:02 27.2 C 6.77 g/m*3 27.2 C 0 km/h
1875 31-07-2010 15:07:02 27.1 C 6.73 g/m*3 27.1 C 0 km/h
Sensor: Nr:Datum:Temp:Abs-Feuchte:Windchill:Wind:
Aussen-T/F 1876 31-07-2010 15:19:02 27.9 C 6.76 g/m*3 27.9 C 0 km/h
1877 31-07-2010 15:31:02 28.1 C 5.74 g/m*3 28.1 C 0 km/h
1878 31-07-2010 15:43:02 27.7 C 6.15 g/m*3 27.7 C 0 km/h
1879 31-07-2010 15:55:01 28.6 C 6.18 g/m*3 28.6 C 0 km/h
1880 31-07-2010 16:07:01 29.3 C 6.13 g/m*3 29.3 C 0 km/h
1881 31-07-2010 16:19:02 28.9 C 6 g/m*3 28.9 C 0 km/h
1882 31-07-2010 16:31:01 29.4 C 5.87 g/m*3 29.4 C 0 km/h
1883 31-07-2010 16:43:01 30.1 C 6.1 g/m*3 30.1 C 0 km/h
1884 31-07-2010 16:55:01 29.5 C 5.9 g/m*3 29.5 C 0 km/h
1885 31-07-2010 17:07:01 29 C 5.74 g/m*3 29 C 0 km/h
1886 31-07-2010 17:19:02 30.1 C 6.1 g/m*3 30.1 C 0 km/h
1887 31-07-2010 17:31:01 30 C 6.06 g/m*3 30 C 0 km/h
1888 31-07-2010 17:43:01 30 C 6.06 g/m*3 30 C 0 km/h
1889 31-07-2010 17:55:02 30.1 C 6.1 g/m*3 30.1 C 0 km/h
1890 31-07-2010 18:07:02 30.2 C 6.13 g/m*3 30.2 C 0 km/h
1891 31-07-2010 18:19:02 30.1 C 6.1 g/m*3 30.1 C 0 km/h
1892 31-07-2010 18:31:02 29.9 C 6.03 g/m*3 29.9 C 0 km/h
1893 31-07-2010 18:43:02 29.6 C 5.94 g/m*3 29.6 C 0 km/h
1894 31-07-2010 18:55:02 29.5 C 6.2 g/m*3 29.5 C 0 km/h
1895 31-07-2010 19:07:02 29.9 C 6.33 g/m*3 29.9 C 0 km/h
1896 31-07-2010 19:19:02 29 C 6.61 g/m*3 29 C 0 km/h
1897 31-07-2010 19:31:02 27.6 C 7.45 g/m*3 27.6 C 0 km/h
1898 31-07-2010 19:43:02 26.8 C 7.89 g/m*3 26.8 C 0 km/h
1899 31-07-2010 19:55:02 26.1 C 7.59 g/m*3 26.1 C 0 km/h
1900 31-07-2010 20:07:02 25.6 C 8.09 g/m*3 25.6 C 0 km/h
Sensor: Nr:Datum:Temp:Abs-Feuchte:Windchill:Wind:
Aussen-T/F 1901 31-07-2010 20:19:02 25.2 C 7.92 g/m*3 25.2 C 0 km/h
1902 31-07-2010 20:31:02 24.5 C 8.28 g/m*3 24.5 C 0 km/h
1903 31-07-2010 20:43:02 24 C 8.27 g/m*3 24 C 0 km/h
1904 31-07-2010 20:55:02 23.7 C 8.34 g/m*3 23.7 C 0 km/h
1905 31-07-2010 21:07:02 23.3 C 8.36 g/m*3 23.3 C 0 km/h
1906 31-07-2010 21:19:02 23.1 C 8.27 g/m*3 23.1 C 0 km/h
1907 31-07-2010 21:31:02 23.1 C 8.27 g/m*3 23.1 C 0 km/h
1908 31-07-2010 21:43:02 23 C 8.43 g/m*3 23 C 0 km/h
1909 31-07-2010 21:55:01 22.7 C 8.69 g/m*3 22.7 C 0 km/h
1910 31-07-2010 22:07:01 22.5 C 8.99 g/m*3 22.5 C 0 km/h
1911 31-07-2010 22:19:01 22.2 C 8.83 g/m*3 22.2 C 0 km/h
1912 31-07-2010 22:31:01 22.2 C 8.64 g/m*3 22.2 C 0 km/h
1913 31-07-2010 22:43:01 22.4 C 8.74 g/m*3 22.4 C 0 km/h
1914 31-07-2010 22:55:02 20.8 C 10.5 g/m*3 20.8 C 0 km/h
1915 31-07-2010 23:07:02 19.9 C 12.03 g/m*3 19.9 C 0 km/h
1916 31-07-2010 23:19:02 20.3 C 11.78 g/m*3 20.3 C 0 km/h
1917 31-07-2010 23:31:02 20.7 C 11.88 g/m*3 20.7 C 0 km/h
1918 31-07-2010 23:43:02 20.8 C 11.59 g/m*3 20.8 C 0 km/h
1919 31-07-2010 23:55:01 20.8 C 11.41 g/m*3 20.8 C 0 km/h
1920 01-08-2010 00:07:02 19.5 C 11.92 g/m*3 19.5 C 0 km/h
1921 01-08-2010 00:20:02 19.3 C 12.44 g/m*3 19.3 C 0 km/h
1922 01-08-2010 00:32:02 19.6 C 12.66 g/m*3 19.6 C 0 km/h
1923 01-08-2010 00:44:02 19.5 C 12.42 g/m*3 19.5 C 0 km/h
1924 01-08-2010 00:56:02 19.1 C 12.46 g/m*3 19.1 C 0 km/h
1925 01-08-2010 01:08:02 18.3 C 12.66 g/m*3 18.3 C 0 km/h
Sensor: Nr:Datum:Temp:Abs-Feuchte:Windchill:Wind:
Aussen-T/F 1926 01-08-2010 01:20:02 18.1 C 12.98 g/m*3 18.1 C 0 km/h
1927 01-08-2010 01:32:02 18.3 C 13.29 g/m*3 18.3 C 0 km/h
1928 01-08-2010 01:44:02 18.5 C 13.45 g/m*3 18.5 C 0 km/h
1929 01-08-2010 01:56:02 18.1 C 13.13 g/m*3 18.1 C 0 km/h
1930 01-08-2010 02:08:02 18.1 C 13.29 g/m*3 18.1 C 0 km/h
1931 01-08-2010 02:20:02 18.2 C 13.52 g/m*3 18.2 C 0 km/h
1932 01-08-2010 02:32:02 18.1 C 13.29 g/m*3 18.1 C 0 km/h
1933 01-08-2010 02:44:02 18.2 C 13.52 g/m*3 18.2 C 0 km/h
1934 01-08-2010 02:56:03 17.9 C 13.28 g/m*3 17.9 C 0 km/h
1935 01-08-2010 03:08:03 18 C 13.21 g/m*3 18 C 0 km/h
1936 01-08-2010 03:20:03 18 C 13.21 g/m*3 18 C 0 km/h
1937 01-08-2010 03:32:03 18 C 13.21 g/m*3 18 C 0 km/h
1938 01-08-2010 03:44:03 17.9 C 13.13 g/m*3 17.9 C 0 km/h
1939 01-08-2010 03:56:03 18 C 13.06 g/m*3 18 C 0 km/h
1940 01-08-2010 04:08:03 17.9 C 12.98 g/m*3 17.9 C 0 km/h
1941 01-08-2010 04:20:03 17.9 C 12.98 g/m*3 17.9 C 0 km/h
1942 01-08-2010 04:32:03 17.8 C 12.9 g/m*3 17.8 C 0 km/h
1943 01-08-2010 04:44:03 17.8 C 12.9 g/m*3 17.8 C 0 km/h
1944 01-08-2010 04:56:03 17.8 C 12.9 g/m*3 17.8 C 0 km/h
1945 01-08-2010 05:08:03 18 C 12.9 g/m*3 18 C 0 km/h
1946 01-08-2010 05:20:03 18 C 12.75 g/m*3 18 C 0 km/h
1947 01-08-2010 05:32:03 17.8 C 12.75 g/m*3 17.8 C 0 km/h
1948 01-08-2010 05:44:03 17.6 C 12.75 g/m*3 17.6 C 0 km/h
1949 01-08-2010 05:56:03 17.2 C 12.74 g/m*3 17.2 C 0 km/h
1950 01-08-2010 06:08:04 17.3 C 12.96 g/m*3 17.3 C 0 km/h
Sensor: Nr:Datum:Temp:Abs-Feuchte:Windchill:Wind:
Aussen-T/F 1951 01-08-2010 06:20:04 17.2 C 12.89 g/m*3 17.2 C 0 km/h
1952 01-08-2010 06:32:04 17.3 C 13.11 g/m*3 17.3 C 0 km/h
1953 01-08-2010 06:44:04 17.6 C 13.35 g/m*3 17.6 C 0 km/h
1954 01-08-2010 06:56:04 17.7 C 13.43 g/m*3 17.7 C 0 km/h
1955 01-08-2010 07:08:04 17.9 C 13.59 g/m*3 17.9 C 0 km/h
1956 01-08-2010 07:20:04 18.1 C 13.6 g/m*3 18.1 C 0 km/h
1957 01-08-2010 07:32:04 18.4 C 13.84 g/m*3 18.4 C 0 km/h
1958 01-08-2010 07:44:04 18.4 C 13.68 g/m*3 18.4 C 0 km/h
1959 01-08-2010 07:56:04 18.9 C 13.93 g/m*3 18.9 C 0 km/h
1960 01-08-2010 08:08:04 19.2 C 13.85 g/m*3 19.2 C 0 km/h
1961 01-08-2010 08:20:04 19.5 C 13.93 g/m*3 19.5 C 0 km/h
1962 01-08-2010 08:32:04 19.6 C 13.84 g/m*3 19.6 C 0 km/h
1963 01-08-2010 08:44:04 20 C 13.65 g/m*3 20 C 0 km/h
1964 01-08-2010 08:56:04 20.1 C 13.56 g/m*3 20.1 C 0 km/h
1965 01-08-2010 09:08:03 20.2 C 13.46 g/m*3 20.2 C 0 km/h
1966 01-08-2010 09:20:02 20.9 C 13.84 g/m*3 20.9 C 0 km/h
1967 01-08-2010 09:32:03 21.1 C 13.63 g/m*3 21.1 C 0 km/h
1968 01-08-2010 09:44:03 21 C 13.37 g/m*3 21 C 0 km/h
1969 01-08-2010 09:56:01 21.1 C 13.45 g/m*3 21.1 C 0 km/h
1970 01-08-2010 10:08:02 21.2 C 13.53 g/m*3 21.2 C 0 km/h
1971 01-08-2010 10:20:02 21.5 C 13.77 g/m*3 21.5 C 0 km/h
1972 01-08-2010 10:32:01 21.6 C 13.66 g/m*3 21.6 C 0 km/h
1973 01-08-2010 10:44:01 22.2 C 13.35 g/m*3 22.2 C 0 km/h
1974 01-08-2010 10:56:03 23.2 C 13.51 g/m*3 23.2 C 0 km/h
1975 01-08-2010 11:08:03 23.3 C 13.38 g/m*3 23.3 C 0 km/h
Sensor: Nr:Datum:Temp:Abs-Feuchte:Windchill:Wind:
Aussen-T/F 1976 01-08-2010 11:20:02 23.6 C 12.97 g/m*3 23.6 C 0 km/h
1977 01-08-2010 11:32:02 24.3 C 13.06 g/m*3 24.3 C 0 km/h
1978 01-08-2010 11:44:02 24.5 C 12.98 g/m*3 24.5 C 0 km/h
1979 01-08-2010 11:56:02 24.6 C 12.15 g/m*3 24.6 C 0 km/h
1980 01-08-2010 12:08:02 24.8 C 12.29 g/m*3 24.8 C 0 km/h
1981 01-08-2010 12:20:01 24.6 C 10.13 g/m*3 24.6 C 0 km/h
1982 01-08-2010 12:32:02 25.3 C 10.77 g/m*3 25.3 C 0 km/h
1983 01-08-2010 12:44:02 25.9 C 10.17 g/m*3 25.9 C 0 km/h
1984 01-08-2010 12:56:02 26.7 C 10.12 g/m*3 26.7 C 0 km/h
1985 01-08-2010 13:08:02 27 C 9.52 g/m*3 27 C 0 km/h
1986 01-08-2010 13:20:02 26.8 C 9.42 g/m*3 26.8 C 0 km/h
1987 01-08-2010 13:32:02 27.6 C 9.58 g/m*3 27.6 C 0 km/h
1988 01-08-2010 13:44:02 28.8 C 9.94 g/m*3 28.8 C 0 km/h
1989 01-08-2010 13:56:02 29 C 8.62 g/m*3 29 C 0 km/h
1990 01-08-2010 14:08:02 29.4 C 8.81 g/m*3 29.4 C 0 km/h
1991 01-08-2010 14:20:02 28.6 C 8.15 g/m*3 28.6 C 0 km/h
1992 01-08-2010 14:32:02 28.6 C 7.87 g/m*3 28.6 C 0 km/h
1993 01-08-2010 14:44:02 29.4 C 7.63 g/m*3 29.4 C 0 km/h
1994 01-08-2010 14:56:02 29.1 C 7.22 g/m*3 29.1 C 0 km/h
1995 01-08-2010 15:08:02 29 C 7.47 g/m*3 29 C 0 km/h
1996 01-08-2010 15:20:02 30 C 7.28 g/m*3 30 C 0 km/h
1997 01-08-2010 15:32:02 30 C 6.97 g/m*3 30 C 0 km/h
1998 01-08-2010 15:44:02 30.2 C 7.36 g/m*3 30.2 C 0 km/h
1999 01-08-2010 15:56:02 31 C 7.04 g/m*3 31 C 0 km/h
2000 01-08-2010 16:08:01 30.9 C 6.68 g/m*3 30.9 C 0 km/h
Sensor: Nr:Datum:Temp:Abs-Feuchte:Windchill:Wind:
Aussen-T/F 2001 01-08-2010 16:20:02 30.7 C 6.93 g/m*3 30.7 C 0 km/h
2002 01-08-2010 16:32:02 30.2 C 7.36 g/m*3 30.2 C 0 km/h
2003 01-08-2010 16:44:02 30.6 C 7.2 g/m*3 30.6 C 0 km/h
2004 01-08-2010 16:56:01 30.9 C 7.32 g/m*3 30.9 C 0 km/h
2005 01-08-2010 17:08:02 31 C 6.72 g/m*3 31 C 0 km/h
2006 01-08-2010 17:20:01 30.7 C 7.24 g/m*3 30.7 C 0 km/h
2007 01-08-2010 17:32:01 30 C 7.58 g/m*3 30 C 0 km/h
2008 01-08-2010 17:44:02 29.3 C 7.88 g/m*3 29.3 C 0 km/h
2009 01-08-2010 17:56:02 29.5 C 7.67 g/m*3 29.5 C 0 km/h
2010 01-08-2010 18:08:02 29 C 7.47 g/m*3 29 C 0 km/h
2011 01-08-2010 18:20:02 29.4 C 7.93 g/m*3 29.4 C 0 km/h
2012 01-08-2010 18:32:02 28.7 C 7.63 g/m*3 28.7 C 0 km/h
2013 01-08-2010 18:44:02 27.6 C 9.31 g/m*3 27.6 C 0 km/h
2014 01-08-2010 18:56:02 27.1 C 9.32 g/m*3 27.1 C 0 km/h
2015 01-08-2010 19:08:02 26.8 C 9.42 g/m*3 26.8 C 0 km/h
2016 01-08-2010 19:20:02 26.4 C 9.21 g/m*3 26.4 C 0 km/h
2017 01-08-2010 19:32:02 25.5 C 9.47 g/m*3 25.5 C 0 km/h
2018 01-08-2010 19:44:02 25.3 C 9.6 g/m*3 25.3 C 0 km/h
2019 01-08-2010 19:56:01 25.4 C 9.65 g/m*3 25.4 C 0 km/h
2020 01-08-2010 20:08:01 25.2 C 9.78 g/m*3 25.2 C 0 km/h
2021 01-08-2010 20:20:02 24.8 C 10.02 g/m*3 24.8 C 0 km/h
2022 01-08-2010 20:32:01 24.5 C 10.3 g/m*3 24.5 C 0 km/h
2023 01-08-2010 20:44:01 24.4 C 10.46 g/m*3 24.4 C 0 km/h
2024 01-08-2010 20:56:03 24.3 C 10.62 g/m*3 24.3 C 0 km/h
2025 01-08-2010 21:08:02 23.7 C 9.84 g/m*3 23.7 C 0 km/h
Sensor: Nr:Datum:Temp:Abs-Feuchte:Windchill:Wind:
Aussen-T/F 2026 01-08-2010 21:20:02 23.6 C 10 g/m*3 23.6 C 0 km/h
2027 01-08-2010 21:32:03 23.3 C 10.04 g/m*3 23.3 C 0 km/h
2028 01-08-2010 21:44:03 22.7 C 9.7 g/m*3 22.7 C 0 km/h
2029 01-08-2010 21:57:02 22.5 C 9.59 g/m*3 22.5 C 0 km/h
2030 01-08-2010 22:09:02 22.3 C 9.48 g/m*3 22.3 C 0 km/h
2031 01-08-2010 22:21:02 22.2 C 9.42 g/m*3 22.2 C 0 km/h
2032 01-08-2010 22:33:03 22 C 9.32 g/m*3 22 C 0 km/h
2033 01-08-2010 22:45:03 21.6 C 9.67 g/m*3 21.6 C 0 km/h
2034 01-08-2010 22:57:03 21.7 C 9.73 g/m*3 21.7 C 0 km/h
2035 01-08-2010 23:09:03 21.6 C 9.86 g/m*3 21.6 C 0 km/h
2036 01-08-2010 23:21:03 21.4 C 9.94 g/m*3 21.4 C 0 km/h
2037 01-08-2010 23:33:03 21.2 C 10.01 g/m*3 21.2 C 0 km/h
2038 01-08-2010 23:45:03 20.8 C 9.96 g/m*3 20.8 C 0 km/h
2039 01-08-2010 23:57:03 20.4 C 10.08 g/m*3 20.4 C 0 km/h
2040 02-08-2010 00:09:03 20 C 9.85 g/m*3 20 C 0 km/h
2041 02-08-2010 00:21:03 19.7 C 10.02 g/m*3 19.7 C 0 km/h
2042 02-08-2010 00:33:03 19.7 C 10.02 g/m*3 19.7 C 0 km/h
2043 02-08-2010 00:45:03 19.7 C 10.19 g/m*3 19.7 C 0 km/h
2044 02-08-2010 00:57:03 19.6 C 9.96 g/m*3 19.6 C 0 km/h
2045 02-08-2010 01:09:03 19.4 C 10.01 g/m*3 19.4 C 0 km/h
2046 02-08-2010 01:21:03 19.4 C 10.34 g/m*3 19.4 C 0 km/h
2047 02-08-2010 01:33:03 19.3 C 10.45 g/m*3 19.3 C 0 km/h
2048 02-08-2010 01:45:03 19.1 C 10.33 g/m*3 19.1 C 0 km/h
2049 02-08-2010 01:57:03 19 C 10.27 g/m*3 19 C 0 km/h
2050 02-08-2010 02:09:03 18.9 C 10.37 g/m*3 18.9 C 0 km/h
Sensor: Nr:Datum:Temp:Abs-Feuchte:Windchill:Wind:
Aussen-T/F 2051 02-08-2010 02:21:03 18.8 C 10.63 g/m*3 18.8 C 0 km/h
2052 02-08-2010 02:33:03 18.6 C 10.5 g/m*3 18.6 C 0 km/h
2053 02-08-2010 02:45:03 18.5 C 10.6 g/m*3 18.5 C 0 km/h
2054 02-08-2010 02:57:03 18.4 C 10.54 g/m*3 18.4 C 0 km/h
2055 02-08-2010 03:09:04 18.2 C 10.57 g/m*3 18.2 C 0 km/h
2056 02-08-2010 03:21:04 18 C 10.6 g/m*3 18 C 0 km/h
2057 02-08-2010 03:33:04 18 C 10.44 g/m*3 18 C 0 km/h
2058 02-08-2010 03:45:04 17.8 C 10.78 g/m*3 17.8 C 0 km/h
2059 02-08-2010 03:57:04 17.7 C 10.71 g/m*3 17.7 C 0 km/h
2060 02-08-2010 04:09:04 17.5 C 10.88 g/m*3 17.5 C 0 km/h
2061 02-08-2010 04:21:04 17.1 C 10.92 g/m*3 17.1 C 0 km/h
2062 02-08-2010 04:33:04 17.2 C 10.84 g/m*3 17.2 C 0 km/h
2063 02-08-2010 04:45:04 16.9 C 10.79 g/m*3 16.9 C 0 km/h
2064 02-08-2010 04:57:04 16.8 C 10.87 g/m*3 16.8 C 0 km/h
2065 02-08-2010 05:09:02 16.6 C 10.74 g/m*3 16.6 C 0 km/h
2066 02-08-2010 05:21:02 16.5 C 10.67 g/m*3 16.5 C 0 km/h
2067 02-08-2010 05:33:02 16.3 C 10.54 g/m*3 16.3 C 0 km/h
2068 02-08-2010 05:45:02 16 C 10.49 g/m*3 16 C 0 km/h
2069 02-08-2010 05:57:02 16.2 C 10.76 g/m*3 16.2 C 0 km/h
2070 02-08-2010 06:09:02 16.4 C 10.89 g/m*3 16.4 C 0 km/h
2071 02-08-2010 06:21:02 16.6 C 11.02 g/m*3 16.6 C 0 km/h
2072 02-08-2010 06:33:01 16.6 C 10.88 g/m*3 16.6 C 0 km/h
2073 02-08-2010 06:45:02 16.4 C 10.89 g/m*3 16.4 C 0 km/h
2074 02-08-2010 06:57:02 16.4 C 10.89 g/m*3 16.4 C 0 km/h
2075 02-08-2010 07:09:01 16.3 C 10.82 g/m*3 16.3 C 0 km/h
Sensor: Nr:Datum:Temp:Abs-Feuchte:Windchill:Wind:
Aussen-T/F 2076 02-08-2010 07:21:01 16.4 C 11.03 g/m*3 16.4 C 0 km/h
2077 02-08-2010 07:33:02 16.4 C 10.89 g/m*3 16.4 C 0 km/h
2078 02-08-2010 07:45:02 16.4 C 11.03 g/m*3 16.4 C 0 km/h
2079 02-08-2010 07:57:02 16.4 C 11.03 g/m*3 16.4 C 0 km/h
2080 02-08-2010 08:09:02 16.5 C 11.09 g/m*3 16.5 C 0 km/h
2081 02-08-2010 08:21:01 16.6 C 11.16 g/m*3 16.6 C 0 km/h
2082 02-08-2010 08:33:02 16.9 C 11.36 g/m*3 16.9 C 0 km/h
2083 02-08-2010 08:45:02 17 C 11 g/m*3 17 C 0 km/h
2084 02-08-2010 08:57:02 17.3 C 11.2 g/m*3 17.3 C 0 km/h
2085 02-08-2010 09:09:02 17.8 C 11.38 g/m*3 17.8 C 0 km/h
2086 02-08-2010 09:21:02 18.3 C 11.26 g/m*3 18.3 C 0 km/h
2087 02-08-2010 09:33:02 18.6 C 11.3 g/m*3 18.6 C 0 km/h
2088 02-08-2010 09:45:02 19.1 C 10.82 g/m*3 19.1 C 0 km/h
2089 02-08-2010 09:57:02 19.6 C 10.97 g/m*3 19.6 C 0 km/h
2090 02-08-2010 10:09:02 20 C 10.89 g/m*3 20 C 0 km/h
2091 02-08-2010 10:21:02 20.5 C 10.85 g/m*3 20.5 C 0 km/h
2092 02-08-2010 10:33:01 20.8 C 10.68 g/m*3 20.8 C 0 km/h
2093 02-08-2010 10:45:02 21.2 C 9.64 g/m*3 21.2 C 0 km/h
2094 02-08-2010 10:57:03 21.9 C 10.81 g/m*3 21.9 C 0 km/h
2095 02-08-2010 11:09:02 22.6 C 9.84 g/m*3 22.6 C 0 km/h
2096 02-08-2010 11:21:02 23.5 C 9.52 g/m*3 23.5 C 0 km/h
2097 02-08-2010 11:33:02 24.1 C 9.19 g/m*3 24.1 C 0 km/h
2098 02-08-2010 11:45:01 24.4 C 9.12 g/m*3 24.4 C 0 km/h
2099 02-08-2010 11:57:01 24.6 C 8.78 g/m*3 24.6 C 0 km/h
2100 02-08-2010 12:09:02 24.8 C 9.1 g/m*3 24.8 C 0 km/h
Sensor: Nr:Datum:Temp:Abs-Feuchte:Windchill:Wind:
Aussen-T/F 2101 02-08-2010 12:21:01 25.1 C 8.57 g/m*3 25.1 C 0 km/h
2102 02-08-2010 12:33:02 25.5 C 8.05 g/m*3 25.5 C 0 km/h
2103 02-08-2010 12:45:01 26.1 C 7.59 g/m*3 26.1 C 0 km/h
2104 02-08-2010 12:57:01 26.2 C 7.39 g/m*3 26.2 C 0 km/h
2105 02-08-2010 13:09:02 25.1 C 7.41 g/m*3 25.1 C 0 km/h
2106 02-08-2010 13:21:02 24.2 C 8.14 g/m*3 24.2 C 0 km/h
2107 02-08-2010 13:33:01 23.3 C 8.57 g/m*3 23.3 C 0 km/h
2108 02-08-2010 13:45:02 22.3 C 9.08 g/m*3 22.3 C 0 km/h
2109 02-08-2010 13:57:02 21.5 C 9.62 g/m*3 21.5 C 0 km/h
2110 02-08-2010 14:09:01 19.7 C 11.21 g/m*3 19.7 C 0 km/h
2111 02-08-2010 14:21:01 19.7 C 11.89 g/m*3 19.7 C 0 km/h
2112 02-08-2010 14:33:01 21.1 C 11.24 g/m*3 21.1 C 0 km/h
2113 02-08-2010 14:45:02 21.2 C 11.12 g/m*3 21.2 C 0 km/h
2114 02-08-2010 14:57:03 20.7 C 10.62 g/m*3 20.7 C 0 km/h
2115 02-08-2010 15:09:01 20.6 C 10.92 g/m*3 20.6 C 0 km/h
2116 02-08-2010 15:21:02 21.1 C 11.61 g/m*3 21.1 C 0 km/h
2117 02-08-2010 15:33:02 21.7 C 11.06 g/m*3 21.7 C 0 km/h
2118 02-08-2010 15:45:01 21.7 C 11.06 g/m*3 21.7 C 0 km/h
2119 02-08-2010 15:57:01 21.5 C 11.5 g/m*3 21.5 C 0 km/h
2120 02-08-2010 16:09:01 22.4 C 11.92 g/m*3 22.4 C 0 km/h
2121 02-08-2010 16:21:01 22.9 C 11.04 g/m*3 22.9 C 0 km/h
2122 02-08-2010 16:33:01 23.1 C 10.54 g/m*3 23.1 C 0 km/h
2123 02-08-2010 16:45:02 23.4 C 10.51 g/m*3 23.4 C 0 km/h
2124 02-08-2010 16:57:02 23.5 C 10.57 g/m*3 23.5 C 0 km/h
2125 02-08-2010 17:09:02 24.2 C 10.12 g/m*3 24.2 C 0 km/h
Sensor: Nr:Datum:Temp:Abs-Feuchte:Windchill:Wind:
Aussen-T/F 2126 02-08-2010 17:21:02 24.1 C 9.85 g/m*3 24.1 C 0 km/h
2127 02-08-2010 17:33:03 24.5 C 9.62 g/m*3 24.5 C 0 km/h
2128 02-08-2010 17:45:01 24.4 C 9.57 g/m*3 24.4 C 0 km/h
2129 02-08-2010 17:57:01 23.8 C 9.68 g/m*3 23.8 C 0 km/h
2130 02-08-2010 18:09:02 23 C 9.66 g/m*3 23 C 0 km/h
2131 02-08-2010 18:21:02 22.5 C 10.59 g/m*3 22.5 C 0 km/h
2132 02-08-2010 18:33:03 20.9 C 11.66 g/m*3 20.9 C 0 km/h
2133 02-08-2010 18:45:02 20.3 C 11.96 g/m*3 20.3 C 0 km/h
2134 02-08-2010 18:57:02 19.7 C 11.55 g/m*3 19.7 C 0 km/h
2135 02-08-2010 19:09:02 20.2 C 12.24 g/m*3 20.2 C 0 km/h
2136 02-08-2010 19:21:03 20.5 C 12.63 g/m*3 20.5 C 0 km/h
2137 02-08-2010 19:33:02 20 C 12.1 g/m*3 20 C 0 km/h
2138 02-08-2010 19:45:02 19.8 C 12.3 g/m*3 19.8 C 0 km/h
2139 02-08-2010 19:57:02 19.6 C 12.49 g/m*3 19.6 C 0 km/h
2140 02-08-2010 20:09:01 19.2 C 13.03 g/m*3 19.2 C 0 km/h
2141 02-08-2010 20:21:02 18.7 C 13.45 g/m*3 18.7 C 0 km/h
2142 02-08-2010 20:33:01 18.6 C 13.69 g/m*3 18.6 C 0 km/h
2143 02-08-2010 20:45:02 18.2 C 13.52 g/m*3 18.2 C 0 km/h
2144 02-08-2010 20:57:03 18.3 C 13.76 g/m*3 18.3 C 0 km/h
2145 02-08-2010 21:09:02 18.2 C 13.68 g/m*3 18.2 C 0 km/h
2146 02-08-2010 21:21:02 17.5 C 13.27 g/m*3 17.5 C 0 km/h
2147 02-08-2010 21:33:03 17.5 C 13.42 g/m*3 17.5 C 0 km/h
2148 02-08-2010 21:46:01 17.4 C 13.49 g/m*3 17.4 C 0 km/h
2149 02-08-2010 21:58:01 17.3 C 13.41 g/m*3 17.3 C 0 km/h
2150 02-08-2010 22:10:01 17.2 C 13.33 g/m*3 17.2 C 0 km/h
Sensor: Nr:Datum:Temp:Abs-Feuchte:Windchill:Wind:
Aussen-T/F 2151 02-08-2010 22:22:01 17.4 C 13.49 g/m*3 17.4 C 0 km/h
2152 02-08-2010 22:34:01 17.3 C 13.55 g/m*3 17.3 C 0 km/h
2153 02-08-2010 22:46:02 17 C 13.17 g/m*3 17 C 0 km/h
2154 02-08-2010 22:58:02 16.7 C 13.07 g/m*3 16.7 C 0 km/h
2155 02-08-2010 23:10:02 16.4 C 12.7 g/m*3 16.4 C 0 km/h
2156 02-08-2010 23:22:02 16.2 C 12.55 g/m*3 16.2 C 0 km/h
2157 02-08-2010 23:34:02 15.9 C 12.32 g/m*3 15.9 C 0 km/h
2158 02-08-2010 23:46:02 15.8 C 12.25 g/m*3 15.8 C 0 km/h
2159 02-08-2010 23:58:02 15.9 C 12.32 g/m*3 15.9 C 0 km/h
2160 03-08-2010 00:10:02 15.9 C 12.19 g/m*3 15.9 C 0 km/h
2161 03-08-2010 00:22:02 16 C 12.13 g/m*3 16 C 0 km/h
2162 03-08-2010 00:34:02 16 C 11.99 g/m*3 16 C 0 km/h
2163 03-08-2010 00:46:02 15.9 C 12.05 g/m*3 15.9 C 0 km/h
2164 03-08-2010 00:58:02 15.9 C 12.05 g/m*3 15.9 C 0 km/h
2165 03-08-2010 01:10:02 15.9 C 12.05 g/m*3 15.9 C 0 km/h
2166 03-08-2010 01:22:02 15.9 C 12.05 g/m*3 15.9 C 0 km/h
2167 03-08-2010 01:34:02 16 C 11.99 g/m*3 16 C 0 km/h
2168 03-08-2010 01:46:02 16 C 11.99 g/m*3 16 C 0 km/h
2169 03-08-2010 01:58:02 16 C 11.99 g/m*3 16 C 0 km/h
2170 03-08-2010 02:10:02 15.9 C 11.92 g/m*3 15.9 C 0 km/h
2171 03-08-2010 02:22:02 15.7 C 11.77 g/m*3 15.7 C 0 km/h
2172 03-08-2010 02:34:02 15.5 C 11.76 g/m*3 15.5 C 0 km/h
2173 03-08-2010 02:46:02 15.1 C 11.61 g/m*3 15.1 C 0 km/h
2174 03-08-2010 02:58:02 15.1 C 11.74 g/m*3 15.1 C 0 km/h
2175 03-08-2010 03:10:02 15.2 C 11.94 g/m*3 15.2 C 0 km/h
Sensor: Nr:Datum:Temp:Abs-Feuchte:Windchill:Wind:
Aussen-T/F 2176 03-08-2010 03:22:03 15.3 C 12.01 g/m*3 15.3 C 0 km/h
2177 03-08-2010 03:34:03 15.3 C 12.14 g/m*3 15.3 C 0 km/h
2178 03-08-2010 03:46:03 15.2 C 12.07 g/m*3 15.2 C 0 km/h
2179 03-08-2010 03:58:03 15.3 C 12.14 g/m*3 15.3 C 0 km/h
2180 03-08-2010 04:10:03 15.2 C 12.07 g/m*3 15.2 C 0 km/h
2181 03-08-2010 04:22:03 15 C 11.93 g/m*3 15 C 0 km/h
2182 03-08-2010 04:34:03 15 C 12.05 g/m*3 15 C 0 km/h
2183 03-08-2010 04:46:03 15 C 12.05 g/m*3 15 C 0 km/h
2184 03-08-2010 04:58:03 14.9 C 12.11 g/m*3 14.9 C 0 km/h
2185 03-08-2010 05:10:03 14.9 C 12.11 g/m*3 14.9 C 0 km/h
2186 03-08-2010 05:22:03 14.9 C 12.11 g/m*3 14.9 C 0 km/h
2187 03-08-2010 05:34:03 15 C 12.05 g/m*3 15 C 0 km/h
2188 03-08-2010 05:46:03 15 C 12.05 g/m*3 15 C 0 km/h
2189 03-08-2010 05:58:03 15 C 12.05 g/m*3 15 C 0 km/h
2190 03-08-2010 06:10:03 14.8 C 12.03 g/m*3 14.8 C 0 km/h
2191 03-08-2010 06:22:03 14.7 C 11.96 g/m*3 14.7 C 0 km/h
2192 03-08-2010 06:34:03 14.6 C 11.89 g/m*3 14.6 C 0 km/h
2193 03-08-2010 06:46:03 14.5 C 11.82 g/m*3 14.5 C 0 km/h
2194 03-08-2010 06:58:03 14.5 C 11.82 g/m*3 14.5 C 0 km/h
2195 03-08-2010 07:10:02 14.7 C 11.96 g/m*3 14.7 C 0 km/h
2196 03-08-2010 07:22:01 15 C 12.18 g/m*3 15 C 0 km/h
2197 03-08-2010 07:34:02 15 C 12.18 g/m*3 15 C 0 km/h
2198 03-08-2010 07:46:01 15.2 C 12.33 g/m*3 15.2 C 0 km/h
2199 03-08-2010 07:58:01 15.4 C 12.48 g/m*3 15.4 C 0 km/h
2200 03-08-2010 08:10:02 15.8 C 12.65 g/m*3 15.8 C 0 km/h
Sensor: Nr:Datum:Temp:Abs-Feuchte:Windchill:Wind:
Aussen-T/F 2201 03-08-2010 08:22:02 15.9 C 12.59 g/m*3 15.9 C 0 km/h
2202 03-08-2010 08:34:01 15.8 C 12.38 g/m*3 15.8 C 0 km/h
2203 03-08-2010 08:46:02 16.2 C 12.27 g/m*3 16.2 C 0 km/h
2204 03-08-2010 08:58:02 16.1 C 11.93 g/m*3 16.1 C 0 km/h
2205 03-08-2010 09:10:01 16.4 C 11.86 g/m*3 16.4 C 0 km/h
2206 03-08-2010 09:22:02 16.6 C 11.72 g/m*3 16.6 C 0 km/h
2207 03-08-2010 09:34:02 16.8 C 11.87 g/m*3 16.8 C 0 km/h
2208 03-08-2010 09:46:02 16.9 C 11.65 g/m*3 16.9 C 0 km/h
2209 03-08-2010 09:58:02 17.2 C 11.42 g/m*3 17.2 C 0 km/h
2210 03-08-2010 10:10:03 18.1 C 11.74 g/m*3 18.1 C 0 km/h
2211 03-08-2010 10:22:02 17.9 C 10.84 g/m*3 17.9 C 0 km/h
2212 03-08-2010 10:34:03 17.1 C 10.77 g/m*3 17.1 C 0 km/h
2213 03-08-2010 10:46:01 17.2 C 10.84 g/m*3 17.2 C 0 km/h
2214 03-08-2010 10:58:01 17.9 C 10.99 g/m*3 17.9 C 0 km/h
2215 03-08-2010 11:10:02 18.2 C 10.41 g/m*3 18.2 C 0 km/h
2216 03-08-2010 11:22:01 18.7 C 10.25 g/m*3 18.7 C 0 km/h
2217 03-08-2010 11:34:03 18.8 C 9.5 g/m*3 18.8 C 0 km/h
2218 03-08-2010 11:46:03 19.2 C 9.07 g/m*3 19.2 C 0 km/h
2219 03-08-2010 11:58:03 19.8 C 8.54 g/m*3 19.8 C 0 km/h
2220 03-08-2010 12:10:02 20.4 C 8.31 g/m*3 20.4 C 0 km/h
2221 03-08-2010 12:22:02 21.1 C 7.92 g/m*3 21.1 C 0 km/h
2222 03-08-2010 12:34:02 22 C 7.96 g/m*3 22 C 0 km/h
2223 03-08-2010 12:46:02 22.1 C 7.42 g/m*3 22.1 C 0 km/h
2224 03-08-2010 12:58:02 20.5 C 8.01 g/m*3 20.5 C 0 km/h
2225 03-08-2010 13:10:02 20.9 C 8.01 g/m*3 20.9 C 0 km/h
Sensor: Nr:Datum:Temp:Abs-Feuchte:Windchill:Wind:
Aussen-T/F 2226 03-08-2010 13:22:02 22.8 C 7.11 g/m*3 22.8 C 0 km/h
2227 03-08-2010 13:34:02 23.3 C 6.48 g/m*3 23.3 C 0 km/h
2228 03-08-2010 13:46:02 21 C 6.78 g/m*3 21 C 0 km/h
2229 03-08-2010 13:58:02 18.7 C 9.29 g/m*3 18.7 C 0 km/h
2230 03-08-2010 14:10:02 20.2 C 10.49 g/m*3 20.2 C 0 km/h
2231 03-08-2010 14:22:01 21.5 C 8.11 g/m*3 21.5 C 0 km/h
2232 03-08-2010 14:34:02 21.6 C 7.78 g/m*3 21.6 C 0 km/h
2233 03-08-2010 14:46:01 22 C 7.76 g/m*3 22 C 0 km/h
2234 03-08-2010 14:58:01 24.1 C 6.78 g/m*3 24.1 C 0 km/h
2235 03-08-2010 15:10:02 23.6 C 6.38 g/m*3 23.6 C 0 km/h
2236 03-08-2010 15:22:02 24.9 C 6.41 g/m*3 24.9 C 0 km/h
2237 03-08-2010 15:34:01 24.2 C 6.16 g/m*3 24.2 C 0 km/h
2238 03-08-2010 15:46:02 24.9 C 6.18 g/m*3 24.9 C 0 km/h
2239 03-08-2010 15:58:02 23.4 C 6.31 g/m*3 23.4 C 0 km/h
2240 03-08-2010 16:10:01 25 C 5.99 g/m*3 25 C 0 km/h
2241 03-08-2010 16:22:02 25.1 C 5.79 g/m*3 25.1 C 0 km/h
2242 03-08-2010 16:34:01 25.5 C 5.21 g/m*3 25.5 C 0 km/h
2243 03-08-2010 16:46:02 26 C 4.87 g/m*3 26 C 0 km/h
2244 03-08-2010 16:58:02 25.3 C 4.68 g/m*3 25.3 C 0 km/h
2245 03-08-2010 17:10:02 25.1 C 4.86 g/m*3 25.1 C 0 km/h
2246 03-08-2010 17:22:02 25.6 C 5 g/m*3 25.6 C 0 km/h
2247 03-08-2010 17:34:02 25.3 C 4.92 g/m*3 25.3 C 0 km/h
2248 03-08-2010 17:46:01 26.2 C 4.92 g/m*3 26.2 C 0 km/h
2249 03-08-2010 17:58:01 27 C 5.15 g/m*3 27 C 0 km/h
2250 03-08-2010 18:10:02 26.6 C 5.03 g/m*3 26.6 C 0 km/h
Sensor: Nr:Datum:Temp:Abs-Feuchte:Windchill:Wind:
Aussen-T/F 2251 03-08-2010 18:22:01 27.1 C 5.18 g/m*3 27.1 C 0 km/h
2252 03-08-2010 18:34:01 26.9 C 5.12 g/m*3 26.9 C 0 km/h
2253 03-08-2010 18:46:01 26 C 4.87 g/m*3 26 C 0 km/h
2254 03-08-2010 18:58:01 24 C 5.44 g/m*3 24 C 0 km/h
2255 03-08-2010 19:10:02 23.1 C 5.79 g/m*3 23.1 C 0 km/h
2256 03-08-2010 19:22:01 23.6 C 5.74 g/m*3 23.6 C 0 km/h
2257 03-08-2010 19:34:01 24.1 C 6.35 g/m*3 24.1 C 0 km/h
2258 03-08-2010 19:46:01 23.9 C 6.06 g/m*3 23.9 C 0 km/h
2259 03-08-2010 19:58:01 23.3 C 5.65 g/m*3 23.3 C 0 km/h
2260 03-08-2010 20:10:02 23.2 C 5.61 g/m*3 23.2 C 0 km/h
2261 03-08-2010 20:22:02 22.6 C 6.23 g/m*3 22.6 C 0 km/h
2262 03-08-2010 20:34:01 22 C 7.76 g/m*3 22 C 0 km/h
2263 03-08-2010 20:46:02 20.9 C 8.01 g/m*3 20.9 C 0 km/h
2264 03-08-2010 20:58:02 19.9 C 8.08 g/m*3 19.9 C 0 km/h
2265 03-08-2010 21:10:02 19.1 C 7.38 g/m*3 19.1 C 0 km/h
2266 03-08-2010 21:22:01 18.6 C 7.64 g/m*3 18.6 C 0 km/h
2267 03-08-2010 21:34:01 18.3 C 7.51 g/m*3 18.3 C 0 km/h
2268 03-08-2010 21:46:02 18 C 7.68 g/m*3 18 C 0 km/h
2269 03-08-2010 21:58:02 17.6 C 7.8 g/m*3 17.6 C 0 km/h
2270 03-08-2010 22:10:02 17.5 C 8.05 g/m*3 17.5 C 0 km/h
2271 03-08-2010 22:22:02 17.5 C 7.9 g/m*3 17.5 C 0 km/h
2272 03-08-2010 22:35:04 17.3 C 8.4 g/m*3 17.3 C 0 km/h
2273 03-08-2010 22:47:04 17.2 C 8.49 g/m*3 17.2 C 0 km/h
2274 03-08-2010 22:59:04 16.8 C 8.58 g/m*3 16.8 C 0 km/h
2275 03-08-2010 23:11:04 16.5 C 8.43 g/m*3 16.5 C 0 km/h
Sensor: Nr:Datum:Temp:Abs-Feuchte:Windchill:Wind:
Aussen-T/F 2276 03-08-2010 23:23:04 16.4 C 8.37 g/m*3 16.4 C 0 km/h
2277 03-08-2010 23:35:04 16.1 C 8.36 g/m*3 16.1 C 0 km/h
2278 03-08-2010 23:47:04 15.9 C 8.67 g/m*3 15.9 C 0 km/h
2279 03-08-2010 23:59:04 15.7 C 8.7 g/m*3 15.7 C 0 km/h
2280 04-08-2010 00:11:04 15.5 C 8.72 g/m*3 15.5 C 0 km/h
2281 04-08-2010 00:23:04 15.4 C 8.8 g/m*3 15.4 C 0 km/h
2282 04-08-2010 00:35:04 15.3 C 9.01 g/m*3 15.3 C 0 km/h
2283 04-08-2010 00:47:04 15.4 C 9.2 g/m*3 15.4 C 0 km/h
2284 04-08-2010 00:59:04 15.6 C 9.18 g/m*3 15.6 C 0 km/h
2285 04-08-2010 01:11:04 15.6 C 9.18 g/m*3 15.6 C 0 km/h
2286 04-08-2010 01:23:04 15.6 C 9.18 g/m*3 15.6 C 0 km/h
2287 04-08-2010 01:35:04 15.7 C 9.23 g/m*3 15.7 C 0 km/h
2288 04-08-2010 01:47:04 15.8 C 9.29 g/m*3 15.8 C 0 km/h
2289 04-08-2010 01:59:04 15.7 C 9.23 g/m*3 15.7 C 0 km/h
2290 04-08-2010 02:11:04 15.6 C 9.31 g/m*3 15.6 C 0 km/h
2291 04-08-2010 02:23:04 15.4 C 9.59 g/m*3 15.4 C 0 km/h
2292 04-08-2010 02:35:04 15.3 C 9.79 g/m*3 15.3 C 0 km/h
2293 04-08-2010 02:47:05 15.4 C 9.99 g/m*3 15.4 C 0 km/h
2294 04-08-2010 02:59:05 15.4 C 9.85 g/m*3 15.4 C 0 km/h
2295 04-08-2010 03:11:05 15.4 C 9.72 g/m*3 15.4 C 0 km/h
2296 04-08-2010 03:23:05 15.4 C 9.85 g/m*3 15.4 C 0 km/h
2297 04-08-2010 03:35:05 15.4 C 9.72 g/m*3 15.4 C 0 km/h
2298 04-08-2010 03:47:05 15.3 C 9.66 g/m*3 15.3 C 0 km/h
2299 04-08-2010 03:59:05 15.3 C 9.53 g/m*3 15.3 C 0 km/h
2300 04-08-2010 04:11:05 15.2 C 9.48 g/m*3 15.2 C 0 km/h
Sensor: Nr:Datum:Temp:Abs-Feuchte:Windchill:Wind:
Aussen-T/F 2301 04-08-2010 04:23:05 15.2 C 9.48 g/m*3 15.2 C 0 km/h
2302 04-08-2010 04:35:05 15.2 C 9.48 g/m*3 15.2 C 0 km/h
2303 04-08-2010 04:47:05 15.2 C 9.61 g/m*3 15.2 C 0 km/h
2304 04-08-2010 04:59:05 15.2 C 9.61 g/m*3 15.2 C 0 km/h
2305 04-08-2010 05:11:05 15.2 C 9.61 g/m*3 15.2 C 0 km/h
2306 04-08-2010 05:23:05 15.1 C 9.55 g/m*3 15.1 C 0 km/h
2307 04-08-2010 05:35:05 15.1 C 9.55 g/m*3 15.1 C 0 km/h
2308 04-08-2010 05:47:05 15.1 C 9.55 g/m*3 15.1 C 0 km/h
2309 04-08-2010 05:59:05 15.2 C 9.61 g/m*3 15.2 C 0 km/h
2310 04-08-2010 06:11:05 15.2 C 9.73 g/m*3 15.2 C 0 km/h
2311 04-08-2010 06:23:05 15.2 C 9.73 g/m*3 15.2 C 0 km/h
2312 04-08-2010 06:35:05 15.3 C 9.79 g/m*3 15.3 C 0 km/h
2313 04-08-2010 06:47:01 15.3 C 9.79 g/m*3 15.3 C 0 km/h
2314 04-08-2010 06:59:01 15.4 C 9.85 g/m*3 15.4 C 0 km/h
2315 04-08-2010 07:11:01 15.7 C 10.03 g/m*3 15.7 C 0 km/h
2316 04-08-2010 07:23:02 15.8 C 9.96 g/m*3 15.8 C 0 km/h
2317 04-08-2010 07:35:02 16 C 9.95 g/m*3 16 C 0 km/h
2318 04-08-2010 07:47:02 15.8 C 9.96 g/m*3 15.8 C 0 km/h
2319 04-08-2010 07:59:02 16.1 C 10.14 g/m*3 16.1 C 0 km/h
2320 04-08-2010 08:11:03 16.2 C 9.93 g/m*3 16.2 C 0 km/h
2321 04-08-2010 08:23:02 16.8 C 9.87 g/m*3 16.8 C 0 km/h
2322 04-08-2010 08:35:02 16.9 C 9.92 g/m*3 16.9 C 0 km/h
2323 04-08-2010 08:47:01 17 C 9.98 g/m*3 17 C 0 km/h
2324 04-08-2010 08:59:01 17.4 C 10.08 g/m*3 17.4 C 0 km/h
2325 04-08-2010 09:11:02 17.5 C 10.14 g/m*3 17.5 C 0 km/h
Sensor: Nr:Datum:Temp:Abs-Feuchte:Windchill:Wind:
Aussen-T/F 2326 04-08-2010 09:23:01 18.3 C 10.01 g/m*3 18.3 C 0 km/h
2327 04-08-2010 09:35:01 18.7 C 9.77 g/m*3 18.7 C 0 km/h
2328 04-08-2010 09:47:01 19.5 C 9.57 g/m*3 19.5 C 0 km/h
2329 04-08-2010 09:59:01 20 C 9.68 g/m*3 20 C 0 km/h
2330 04-08-2010 10:11:01 20.8 C 9.96 g/m*3 20.8 C 0 km/h
2331 04-08-2010 10:23:01 20.9 C 9.29 g/m*3 20.9 C 0 km/h
2332 04-08-2010 10:35:01 20.8 C 9.05 g/m*3 20.8 C 0 km/h
2333 04-08-2010 10:47:03 21.2 C 8.71 g/m*3 21.2 C 0 km/h
2334 04-08-2010 10:59:03 21.7 C 8.58 g/m*3 21.7 C 0 km/h
2335 04-08-2010 11:11:02 22.1 C 8.2 g/m*3 22.1 C 0 km/h
2336 04-08-2010 11:23:02 22.2 C 7.85 g/m*3 22.2 C 0 km/h
2337 04-08-2010 11:35:02 22.5 C 8.39 g/m*3 22.5 C 0 km/h
2338 04-08-2010 11:47:02 22.9 C 7.97 g/m*3 22.9 C 0 km/h
2339 04-08-2010 11:59:02 22.8 C 8.13 g/m*3 22.8 C 0 km/h
2340 04-08-2010 12:11:02 23 C 7.4 g/m*3 23 C 0 km/h
2341 04-08-2010 12:23:02 23.4 C 7.36 g/m*3 23.4 C 0 km/h
2342 04-08-2010 12:35:02 23.7 C 7.06 g/m*3 23.7 C 0 km/h
2343 04-08-2010 12:47:01 24.1 C 6.56 g/m*3 24.1 C 0 km/h
2344 04-08-2010 12:59:01 24.4 C 6.68 g/m*3 24.4 C 0 km/h
2345 04-08-2010 13:11:01 25.6 C 6.19 g/m*3 25.6 C 0 km/h
2346 04-08-2010 13:23:01 25 C 6.22 g/m*3 25 C 0 km/h
2347 04-08-2010 13:35:01 24.6 C 6.53 g/m*3 24.6 C 0 km/h
2348 04-08-2010 13:47:01 24.5 C 6.71 g/m*3 24.5 C 0 km/h
2349 04-08-2010 13:59:01 25.2 C 6.29 g/m*3 25.2 C 0 km/h
2350 04-08-2010 14:11:02 24.7 C 6.56 g/m*3 24.7 C 0 km/h
Sensor: Nr:Datum:Temp:Abs-Feuchte:Windchill:Wind:
Aussen-T/F 2351 04-08-2010 14:23:01 24 C 6.74 g/m*3 24 C 0 km/h
2352 04-08-2010 14:35:02 24.1 C 6.56 g/m*3 24.1 C 0 km/h
2353 04-08-2010 14:47:01 24.5 C 6.71 g/m*3 24.5 C 0 km/h
2354 04-08-2010 14:59:01 25.5 C 6.63 g/m*3 25.5 C 0 km/h
2355 04-08-2010 15:11:02 24.9 C 6.87 g/m*3 24.9 C 0 km/h
2356 04-08-2010 15:23:01 23.6 C 6.59 g/m*3 23.6 C 0 km/h
2357 04-08-2010 15:35:01 23.5 C 6.77 g/m*3 23.5 C 0 km/h
2358 04-08-2010 15:47:01 23.5 C 6.77 g/m*3 23.5 C 0 km/h
2359 04-08-2010 15:59:01 23.9 C 7.14 g/m*3 23.9 C 0 km/h
2360 04-08-2010 16:11:01 23.3 C 6.9 g/m*3 23.3 C 0 km/h
2361 04-08-2010 16:23:02 23.4 C 7.15 g/m*3 23.4 C 0 km/h
2362 04-08-2010 16:35:01 23.7 C 7.06 g/m*3 23.7 C 0 km/h
2363 04-08-2010 16:47:03 23 C 6.99 g/m*3 23 C 0 km/h
2364 04-08-2010 16:59:03 23.4 C 6.94 g/m*3 23.4 C 0 km/h
2365 04-08-2010 17:11:02 23.8 C 6.88 g/m*3 23.8 C 0 km/h
2366 04-08-2010 17:23:02 23 C 7.19 g/m*3 23 C 0 km/h
2367 04-08-2010 17:35:03 22.9 C 7.36 g/m*3 22.9 C 0 km/h
2368 04-08-2010 17:47:02 22.9 C 7.36 g/m*3 22.9 C 0 km/h
2369 04-08-2010 17:59:02 22.9 C 7.36 g/m*3 22.9 C 0 km/h
2370 04-08-2010 18:11:01 23 C 7.4 g/m*3 23 C 0 km/h
2371 04-08-2010 18:23:02 23.3 C 7.32 g/m*3 23.3 C 0 km/h
2372 04-08-2010 18:35:02 23.5 C 7.4 g/m*3 23.5 C 0 km/h
2373 04-08-2010 18:47:02 23.6 C 7.44 g/m*3 23.6 C 0 km/h
2374 04-08-2010 18:59:02 23.2 C 7.28 g/m*3 23.2 C 0 km/h
2375 04-08-2010 19:11:02 22.8 C 7.32 g/m*3 22.8 C 0 km/h
Sensor: Nr:Datum:Temp:Abs-Feuchte:Windchill:Wind:
Aussen-T/F 2376 04-08-2010 19:23:02 22.6 C 8.04 g/m*3 22.6 C 0 km/h
2377 04-08-2010 19:35:02 22.5 C 7.79 g/m*3 22.5 C 0 km/h
2378 04-08-2010 19:47:02 22.3 C 7.9 g/m*3 22.3 C 0 km/h
2379 04-08-2010 19:59:02 22 C 8.15 g/m*3 22 C 0 km/h
2380 04-08-2010 20:11:02 21.9 C 8.68 g/m*3 21.9 C 0 km/h
2381 04-08-2010 20:23:02 21.5 C 8.86 g/m*3 21.5 C 0 km/h
2382 04-08-2010 20:35:02 21.1 C 9.03 g/m*3 21.1 C 0 km/h
2383 04-08-2010 20:47:02 20.7 C 9.18 g/m*3 20.7 C 0 km/h
2384 04-08-2010 20:59:02 20.5 C 9.07 g/m*3 20.5 C 0 km/h
2385 04-08-2010 21:11:02 20.3 C 9.15 g/m*3 20.3 C 0 km/h
2386 04-08-2010 21:23:03 20.1 C 9.04 g/m*3 20.1 C 0 km/h
2387 04-08-2010 21:35:02 20 C 8.99 g/m*3 20 C 0 km/h
2388 04-08-2010 21:47:02 20 C 8.99 g/m*3 20 C 0 km/h
2389 04-08-2010 21:59:02 20.1 C 9.39 g/m*3 20.1 C 0 km/h
2390 04-08-2010 22:12:03 19.7 C 9.51 g/m*3 19.7 C 0 km/h
2391 04-08-2010 22:24:03 19.5 C 9.9 g/m*3 19.5 C 0 km/h
2392 04-08-2010 22:36:03 19.4 C 10.18 g/m*3 19.4 C 0 km/h
2393 04-08-2010 22:48:04 18.7 C 10.73 g/m*3 18.7 C 0 km/h
2394 04-08-2010 23:00:04 18.5 C 11.23 g/m*3 18.5 C 0 km/h
2395 04-08-2010 23:12:04 18.5 C 11.23 g/m*3 18.5 C 0 km/h
2396 04-08-2010 23:24:04 18.5 C 11.23 g/m*3 18.5 C 0 km/h
2397 04-08-2010 23:36:04 18.5 C 11.55 g/m*3 18.5 C 0 km/h
2398 04-08-2010 23:48:04 17.6 C 12 g/m*3 17.6 C 0 km/h
2399 05-08-2010 00:00:04 17.1 C 12.23 g/m*3 17.1 C 0 km/h
2400 05-08-2010 00:12:04 17 C 12.3 g/m*3 17 C 0 km/h
Sensor: Nr:Datum:Temp:Abs-Feuchte:Windchill:Wind:
Aussen-T/F 2401 05-08-2010 00:24:04 16.8 C 12.44 g/m*3 16.8 C 0 km/h
2402 05-08-2010 00:36:04 16.6 C 12.43 g/m*3 16.6 C 0 km/h
2403 05-08-2010 00:48:04 16.4 C 12.42 g/m*3 16.4 C 0 km/h
2404 05-08-2010 01:00:04 16.3 C 12.35 g/m*3 16.3 C 0 km/h
2405 05-08-2010 01:12:04 16.3 C 12.49 g/m*3 16.3 C 0 km/h
2406 05-08-2010 01:24:04 16.3 C 12.49 g/m*3 16.3 C 0 km/h
2407 05-08-2010 01:36:04 16.3 C 12.49 g/m*3 16.3 C 0 km/h
2408 05-08-2010 01:48:04 16.2 C 12.41 g/m*3 16.2 C 0 km/h
2409 05-08-2010 02:00:04 16 C 12.4 g/m*3 16 C 0 km/h
2410 05-08-2010 02:12:04 15.8 C 12.38 g/m*3 15.8 C 0 km/h
2411 05-08-2010 02:24:04 15.8 C 12.38 g/m*3 15.8 C 0 km/h
2412 05-08-2010 02:36:04 15.8 C 12.38 g/m*3 15.8 C 0 km/h
2413 05-08-2010 02:48:04 15.7 C 12.31 g/m*3 15.7 C 0 km/h
2414 05-08-2010 03:00:04 15.7 C 12.31 g/m*3 15.7 C 0 km/h
2415 05-08-2010 03:12:05 15.8 C 12.52 g/m*3 15.8 C 0 km/h
2416 05-08-2010 03:24:05 15.5 C 12.29 g/m*3 15.5 C 0 km/h
2417 05-08-2010 03:36:05 15.4 C 12.22 g/m*3 15.4 C 0 km/h
2418 05-08-2010 03:48:05 15.3 C 12.14 g/m*3 15.3 C 0 km/h
2419 05-08-2010 04:00:05 15.4 C 12.22 g/m*3 15.4 C 0 km/h
2420 05-08-2010 04:12:05 15.5 C 12.29 g/m*3 15.5 C 0 km/h
2421 05-08-2010 04:24:05 15.4 C 12.22 g/m*3 15.4 C 0 km/h
2422 05-08-2010 04:36:05 15.2 C 12.07 g/m*3 15.2 C 0 km/h
2423 05-08-2010 04:48:05 15 C 11.93 g/m*3 15 C 0 km/h
2424 05-08-2010 05:00:05 15 C 11.93 g/m*3 15 C 0 km/h
2425 05-08-2010 05:12:05 15.2 C 12.07 g/m*3 15.2 C 0 km/h
Sensor: Nr:Datum:Temp:Abs-Feuchte:Windchill:Wind:
Aussen-T/F 2426 05-08-2010 05:24:05 15.4 C 12.22 g/m*3 15.4 C 0 km/h
2427 05-08-2010 05:36:05 15.5 C 12.43 g/m*3 15.5 C 0 km/h
2428 05-08-2010 05:48:05 15.5 C 12.43 g/m*3 15.5 C 0 km/h
2429 05-08-2010 06:00:05 15.6 C 12.5 g/m*3 15.6 C 0 km/h
2430 05-08-2010 06:12:05 15.7 C 12.58 g/m*3 15.7 C 0 km/h
2431 05-08-2010 06:24:05 15.7 C 12.58 g/m*3 15.7 C 0 km/h
2432 05-08-2010 06:36:05 15.7 C 12.58 g/m*3 15.7 C 0 km/h
2433 05-08-2010 06:48:05 15.7 C 12.58 g/m*3 15.7 C 0 km/h
2434 05-08-2010 07:00:05 15.7 C 12.58 g/m*3 15.7 C 0 km/h
2435 05-08-2010 07:12:05 15.8 C 12.65 g/m*3 15.8 C 0 km/h
2436 05-08-2010 07:24:04 15.6 C 12.5 g/m*3 15.6 C 0 km/h
2437 05-08-2010 07:36:03 15.7 C 12.58 g/m*3 15.7 C 0 km/h
2438 05-08-2010 07:48:02 15.8 C 12.52 g/m*3 15.8 C 0 km/h
2439 05-08-2010 08:00:02 15.9 C 12.59 g/m*3 15.9 C 0 km/h
2440 05-08-2010 08:12:02 15.9 C 12.46 g/m*3 15.9 C 0 km/h
2441 05-08-2010 08:24:02 16.3 C 12.62 g/m*3 16.3 C 0 km/h
2442 05-08-2010 08:36:02 16.5 C 12.64 g/m*3 16.5 C 0 km/h
2443 05-08-2010 08:48:02 16.4 C 12.42 g/m*3 16.4 C 0 km/h
2444 05-08-2010 09:00:02 16.4 C 12.14 g/m*3 16.4 C 0 km/h
2445 05-08-2010 09:12:02 16.6 C 11.58 g/m*3 16.6 C 0 km/h
2446 05-08-2010 09:24:02 17 C 11.72 g/m*3 17 C 0 km/h
2447 05-08-2010 09:36:02 17 C 11 g/m*3 17 C 0 km/h
2448 05-08-2010 09:48:02 17.2 C 10.69 g/m*3 17.2 C 0 km/h
2449 05-08-2010 10:00:03 17.5 C 11.03 g/m*3 17.5 C 0 km/h
2450 05-08-2010 10:12:01 17 C 10.13 g/m*3 17 C 0 km/h
Sensor: Nr:Datum:Temp:Abs-Feuchte:Windchill:Wind:
Aussen-T/F 2451 05-08-2010 10:24:01 17 C 10.42 g/m*3 17 C 0 km/h
2452 05-08-2010 10:36:02 17.7 C 10.41 g/m*3 17.7 C 0 km/h
2453 05-08-2010 10:48:02 18.1 C 9.89 g/m*3 18.1 C 0 km/h
2454 05-08-2010 11:00:02 18.3 C 10.01 g/m*3 18.3 C 0 km/h
2455 05-08-2010 11:12:02 18.5 C 9.81 g/m*3 18.5 C 0 km/h
2456 05-08-2010 11:24:02 18.5 C 9.18 g/m*3 18.5 C 0 km/h
2457 05-08-2010 11:36:02 18.1 C 9.43 g/m*3 18.1 C 0 km/h
2458 05-08-2010 11:48:02 18.4 C 9.91 g/m*3 18.4 C 0 km/h
2459 05-08-2010 12:00:02 18.1 C 9.27 g/m*3 18.1 C 0 km/h
2460 05-08-2010 12:12:02 18.4 C 9.28 g/m*3 18.4 C 0 km/h
2461 05-08-2010 12:24:02 18.2 C 9.48 g/m*3 18.2 C 0 km/h
2462 05-08-2010 12:36:02 18.5 C 9.33 g/m*3 18.5 C 0 km/h
2463 05-08-2010 12:48:02 18.9 C 9.4 g/m*3 18.9 C 0 km/h
2464 05-08-2010 13:00:02 18.6 C 8.91 g/m*3 18.6 C 0 km/h
2465 05-08-2010 13:12:02 19.1 C 8.36 g/m*3 19.1 C 0 km/h
2466 05-08-2010 13:24:02 18.5 C 7.91 g/m*3 18.5 C 0 km/h
2467 05-08-2010 13:36:02 18.7 C 7.84 g/m*3 18.7 C 0 km/h
2468 05-08-2010 13:48:02 20 C 7.95 g/m*3 20 C 0 km/h
2469 05-08-2010 14:00:02 20.1 C 7.47 g/m*3 20.1 C 0 km/h
2470 05-08-2010 14:12:02 20.4 C 7.61 g/m*3 20.4 C 0 km/h
2471 05-08-2010 14:24:02 21.6 C 7.78 g/m*3 21.6 C 0 km/h
2472 05-08-2010 14:36:01 21.8 C 7.67 g/m*3 21.8 C 0 km/h
2473 05-08-2010 14:48:02 22.5 C 7.19 g/m*3 22.5 C 0 km/h
2474 05-08-2010 15:00:02 22.1 C 7.03 g/m*3 22.1 C 0 km/h
2475 05-08-2010 15:12:02 22.9 C 6.95 g/m*3 22.9 C 0 km/h
Sensor: Nr:Datum:Temp:Abs-Feuchte:Windchill:Wind:
Aussen-T/F 2476 05-08-2010 15:24:02 22.6 C 6.43 g/m*3 22.6 C 0 km/h
2477 05-08-2010 15:36:02 23.3 C 5.85 g/m*3 23.3 C 0 km/h
2478 05-08-2010 15:48:01 24.1 C 5.69 g/m*3 24.1 C 0 km/h
2479 05-08-2010 16:00:01 26 C 6.33 g/m*3 26 C 0 km/h
2480 05-08-2010 16:12:02 25.5 C 5.21 g/m*3 25.5 C 0 km/h
2481 05-08-2010 16:24:01 24.2 C 5.5 g/m*3 24.2 C 0 km/h
2482 05-08-2010 16:36:01 24.7 C 5.66 g/m*3 24.7 C 0 km/h
2483 05-08-2010 16:48:01 25 C 5.75 g/m*3 25 C 0 km/h
2484 05-08-2010 17:00:01 24.3 C 5.53 g/m*3 24.3 C 0 km/h
2485 05-08-2010 17:12:01 23.6 C 5.32 g/m*3 23.6 C 0 km/h
2486 05-08-2010 17:24:02 24.1 C 5.03 g/m*3 24.1 C 0 km/h
2487 05-08-2010 17:36:01 24.4 C 5.34 g/m*3 24.4 C 0 km/h
2488 05-08-2010 17:48:01 23.5 C 5.29 g/m*3 23.5 C 0 km/h
2489 05-08-2010 18:00:01 23.7 C 5.35 g/m*3 23.7 C 0 km/h
2490 05-08-2010 18:12:02 23.6 C 5.32 g/m*3 23.6 C 0 km/h
2491 05-08-2010 18:24:01 22.1 C 5.66 g/m*3 22.1 C 0 km/h
2492 05-08-2010 18:36:02 22.5 C 5.99 g/m*3 22.5 C 0 km/h
2493 05-08-2010 18:48:02 21.6 C 5.69 g/m*3 21.6 C 0 km/h
2494 05-08-2010 19:00:02 21.6 C 5.69 g/m*3 21.6 C 0 km/h
2495 05-08-2010 19:12:02 21.2 C 5.74 g/m*3 21.2 C 0 km/h
2496 05-08-2010 19:24:02 21.2 C 6.3 g/m*3 21.2 C 0 km/h
2497 05-08-2010 19:36:02 21.4 C 6.37 g/m*3 21.4 C 0 km/h
2498 05-08-2010 19:48:02 20.9 C 6.74 g/m*3 20.9 C 0 km/h
2499 05-08-2010 20:00:02 20.8 C 6.7 g/m*3 20.8 C 0 km/h
2500 05-08-2010 20:12:02 20.3 C 6.68 g/m*3 20.3 C 0 km/h
Sensor: Nr:Datum:Temp:Abs-Feuchte:Windchill:Wind:
Aussen-T/F 2501 05-08-2010 20:24:02 20.1 C 7.13 g/m*3 20.1 C 0 km/h
2502 05-08-2010 20:36:01 20.1 C 6.95 g/m*3 20.1 C 0 km/h
2503 05-08-2010 20:48:02 19.8 C 7 g/m*3 19.8 C 0 km/h
2504 05-08-2010 21:00:02 19.8 C 7.34 g/m*3 19.8 C 0 km/h
2505 05-08-2010 21:12:01 19.3 C 7.3 g/m*3 19.3 C 0 km/h
2506 05-08-2010 21:24:01 18.9 C 7.13 g/m*3 18.9 C 0 km/h
2507 05-08-2010 21:36:02 18.5 C 6.96 g/m*3 18.5 C 0 km/h
2508 05-08-2010 21:48:02 18.2 C 6.99 g/m*3 18.2 C 0 km/h
2509 05-08-2010 22:00:02 18 C 7.07 g/m*3 18 C 0 km/h
2510 05-08-2010 22:12:02 17.9 C 7.33 g/m*3 17.9 C 0 km/h
2511 05-08-2010 22:25:02 17.7 C 7.54 g/m*3 17.7 C 0 km/h
2512 05-08-2010 22:37:02 17.5 C 7.6 g/m*3 17.5 C 0 km/h
2513 05-08-2010 22:49:02 17.4 C 7.85 g/m*3 17.4 C 0 km/h
2514 05-08-2010 23:01:02 17.5 C 7.9 g/m*3 17.5 C 0 km/h
2515 05-08-2010 23:13:02 17.3 C 7.96 g/m*3 17.3 C 0 km/h
2516 05-08-2010 23:25:02 17 C 8.1 g/m*3 17 C 0 km/h
2517 05-08-2010 23:37:02 16.7 C 8.24 g/m*3 16.7 C 0 km/h
2518 05-08-2010 23:49:02 16.5 C 8.28 g/m*3 16.5 C 0 km/h
2519 06-08-2010 00:01:02 16.4 C 8.37 g/m*3 16.4 C 0 km/h
2520 06-08-2010 00:13:02 16.2 C 8.41 g/m*3 16.2 C 0 km/h
2521 06-08-2010 00:25:02 16 C 8.45 g/m*3 16 C 0 km/h
2522 06-08-2010 00:37:02 15.8 C 8.48 g/m*3 15.8 C 0 km/h
2523 06-08-2010 00:49:02 15.7 C 8.7 g/m*3 15.7 C 0 km/h
2524 06-08-2010 01:01:02 15.6 C 8.51 g/m*3 15.6 C 0 km/h
2525 06-08-2010 01:13:03 15.4 C 8.54 g/m*3 15.4 C 0 km/h
Sensor: Nr:Datum:Temp:Abs-Feuchte:Windchill:Wind:
Aussen-T/F 2526 06-08-2010 01:25:03 15.3 C 8.62 g/m*3 15.3 C 0 km/h
2527 06-08-2010 01:37:03 15.1 C 8.64 g/m*3 15.1 C 0 km/h
2528 06-08-2010 01:49:03 14.9 C 8.79 g/m*3 14.9 C 0 km/h
2529 06-08-2010 02:01:03 14.7 C 8.81 g/m*3 14.7 C 0 km/h
2530 06-08-2010 02:13:03 14.6 C 8.88 g/m*3 14.6 C 0 km/h
2531 06-08-2010 02:25:03 14.5 C 8.83 g/m*3 14.5 C 0 km/h
2532 06-08-2010 02:37:03 14.5 C 8.95 g/m*3 14.5 C 0 km/h
2533 06-08-2010 02:49:03 14.3 C 8.85 g/m*3 14.3 C 0 km/h
2534 06-08-2010 03:01:03 14.2 C 8.79 g/m*3 14.2 C 0 km/h
2535 06-08-2010 03:13:03 14 C 8.68 g/m*3 14 C 0 km/h
2536 06-08-2010 03:25:03 14 C 8.81 g/m*3 14 C 0 km/h
2537 06-08-2010 03:37:03 13.9 C 8.99 g/m*3 13.9 C 0 km/h
2538 06-08-2010 03:49:03 13.7 C 9 g/m*3 13.7 C 0 km/h
2539 06-08-2010 04:01:03 13.6 C 9.18 g/m*3 13.6 C 0 km/h
2540 06-08-2010 04:13:03 13.5 C 9.24 g/m*3 13.5 C 0 km/h
2541 06-08-2010 04:25:03 13.4 C 9.3 g/m*3 13.4 C 0 km/h
2542 06-08-2010 04:37:03 13.4 C 9.42 g/m*3 13.4 C 0 km/h
2543 06-08-2010 04:49:03 13.3 C 9.36 g/m*3 13.3 C 0 km/h
2544 06-08-2010 05:01:03 13.1 C 9.24 g/m*3 13.1 C 0 km/h
2545 06-08-2010 05:13:03 13 C 9.3 g/m*3 13 C 0 km/h
2546 06-08-2010 05:25:04 12.8 C 9.3 g/m*3 12.8 C 0 km/h
2547 06-08-2010 05:37:04 12.8 C 9.41 g/m*3 12.8 C 0 km/h
2548 06-08-2010 05:49:04 13.1 C 9.47 g/m*3 13.1 C 0 km/h
2549 06-08-2010 06:01:04 13.4 C 9.53 g/m*3 13.4 C 0 km/h
2550 06-08-2010 06:13:04 13.5 C 9.36 g/m*3 13.5 C 0 km/h
Sensor: Nr:Datum:Temp:Abs-Feuchte:Windchill:Wind:
Aussen-T/F 2551 06-08-2010 06:25:04 13.5 C 9.36 g/m*3 13.5 C 0 km/h
2552 06-08-2010 06:37:04 13.2 C 9.07 g/m*3 13.2 C 0 km/h
2553 06-08-2010 06:49:04 13.1 C 9.13 g/m*3 13.1 C 0 km/h
2554 06-08-2010 07:01:04 13 C 9.19 g/m*3 13 C 0 km/h
2555 06-08-2010 07:13:04 13.2 C 9.3 g/m*3 13.2 C 0 km/h
2556 06-08-2010 07:25:04 13.2 C 9.19 g/m*3 13.2 C 0 km/h
2557 06-08-2010 07:37:03 13.3 C 9.36 g/m*3 13.3 C 0 km/h
2558 06-08-2010 07:49:01 13.2 C 9.3 g/m*3 13.2 C 0 km/h
2559 06-08-2010 08:01:02 13.2 C 9.42 g/m*3 13.2 C 0 km/h
2560 06-08-2010 08:13:02 13.2 C 9.42 g/m*3 13.2 C 0 km/h
2561 06-08-2010 08:25:01 13.5 C 9.59 g/m*3 13.5 C 0 km/h
2562 06-08-2010 08:37:02 13.8 C 9.65 g/m*3 13.8 C 0 km/h
2563 06-08-2010 08:49:02 13.7 C 9.35 g/m*3 13.7 C 0 km/h
2564 06-08-2010 09:01:02 14.7 C 9.57 g/m*3 14.7 C 0 km/h
2565 06-08-2010 09:13:02 14.9 C 9.43 g/m*3 14.9 C 0 km/h
2566 06-08-2010 09:25:02 15.4 C 9.46 g/m*3 15.4 C 0 km/h
2567 06-08-2010 09:37:02 15.8 C 9.29 g/m*3 15.8 C 0 km/h
2568 06-08-2010 09:49:01 16.5 C 9.41 g/m*3 16.5 C 0 km/h
2569 06-08-2010 10:01:02 17.1 C 9.17 g/m*3 17.1 C 0 km/h
2570 06-08-2010 10:13:02 17.7 C 8.45 g/m*3 17.7 C 0 km/h
2571 06-08-2010 10:25:02 17.4 C 8 g/m*3 17.4 C 0 km/h
2572 06-08-2010 10:37:01 18.2 C 7.93 g/m*3 18.2 C 0 km/h
2573 06-08-2010 10:49:01 18.8 C 7.89 g/m*3 18.8 C 0 km/h
2574 06-08-2010 11:01:01 19.2 C 7.91 g/m*3 19.2 C 0 km/h
2575 06-08-2010 11:13:01 19 C 7.17 g/m*3 19 C 0 km/h
Sensor: Nr:Datum:Temp:Abs-Feuchte:Windchill:Wind:
Aussen-T/F 2576 06-08-2010 11:25:02 20 C 7.6 g/m*3 20 C 0 km/h
2577 06-08-2010 11:37:01 20.8 C 7.06 g/m*3 20.8 C 0 km/h
2578 06-08-2010 11:49:02 20.2 C 6.29 g/m*3 20.2 C 0 km/h
2579 06-08-2010 12:01:01 22 C 6.79 g/m*3 22 C 0 km/h
2580 06-08-2010 12:13:01 20.7 C 6.48 g/m*3 20.7 C 0 km/h
2581 06-08-2010 12:25:01 20.8 C 6.34 g/m*3 20.8 C 0 km/h
2582 06-08-2010 12:37:01 22 C 6.02 g/m*3 22 C 0 km/h
2583 06-08-2010 12:49:02 21.2 C 5.19 g/m*3 21.2 C 0 km/h
2584 06-08-2010 13:01:02 22.8 C 5.49 g/m*3 22.8 C 0 km/h
2585 06-08-2010 13:13:02 22 C 4.66 g/m*3 22 C 0 km/h
2586 06-08-2010 13:25:02 24.5 C 4.7 g/m*3 24.5 C 0 km/h
2587 06-08-2010 13:37:02 24.1 C 4.38 g/m*3 24.1 C 0 km/h
2588 06-08-2010 13:49:01 25.1 C 4.63 g/m*3 25.1 C 0 km/h
2589 06-08-2010 14:01:02 24.5 C 4.48 g/m*3 24.5 C 0 km/h
2590 06-08-2010 14:13:02 24.4 C 4.45 g/m*3 24.4 C 0 km/h
2591 06-08-2010 14:25:01 25 C 4.6 g/m*3 25 C 0 km/h
2592 06-08-2010 14:37:02 24.6 C 4.5 g/m*3 24.6 C 0 km/h
2593 06-08-2010 14:49:02 25.7 C 4.79 g/m*3 25.7 C 0 km/h
2594 06-08-2010 15:01:02 25.7 C 4.79 g/m*3 25.7 C 0 km/h
2595 06-08-2010 15:13:02 25.3 C 4.68 g/m*3 25.3 C 0 km/h
2596 06-08-2010 15:25:01 25.7 C 4.79 g/m*3 25.7 C 0 km/h
2597 06-08-2010 15:37:02 24.4 C 4.45 g/m*3 24.4 C 0 km/h
2598 06-08-2010 15:49:02 25.3 C 4.68 g/m*3 25.3 C 0 km/h
2599 06-08-2010 16:01:02 26.5 C 5.01 g/m*3 26.5 C 0 km/h
2600 06-08-2010 16:13:02 28.4 C 5.56 g/m*3 28.4 C 0 km/h
Sensor: Nr:Datum:Temp:Abs-Feuchte:Windchill:Wind:
Aussen-T/F 2601 06-08-2010 16:25:02 28.8 C 5.68 g/m*3 28.8 C 0 km/h
2602 06-08-2010 16:37:02 28.8 C 5.68 g/m*3 28.8 C 0 km/h
2603 06-08-2010 16:49:02 28 C 5.44 g/m*3 28 C 0 km/h
2604 06-08-2010 17:01:03 26 C 4.87 g/m*3 26 C 0 km/h
2605 06-08-2010 17:13:03 24.2 C 4.4 g/m*3 24.2 C 0 km/h
2606 06-08-2010 17:25:02 24 C 17.19 g/m*3 24 C 0 km/h
2607 06-08-2010 17:37:02 24.3 C 6.2 g/m*3 24.3 C 0 km/h
2608 06-08-2010 17:49:02 25.8 C 4.82 g/m*3 25.8 C 0 km/h
2609 06-08-2010 18:01:02 27.6 C 5.32 g/m*3 27.6 C 0 km/h
2610 06-08-2010 18:13:02 27.2 C 5.2 g/m*3 27.2 C 0 km/h
2611 06-08-2010 18:25:02 26.7 C 5.06 g/m*3 26.7 C 0 km/h
2612 06-08-2010 18:37:02 26 C 4.87 g/m*3 26 C 0 km/h
2613 06-08-2010 18:49:03 24.6 C 4.5 g/m*3 24.6 C 0 km/h
2614 06-08-2010 19:01:03 25.9 C 4.84 g/m*3 25.9 C 0 km/h
2615 06-08-2010 19:13:03 26.6 C 5.03 g/m*3 26.6 C 0 km/h
2616 06-08-2010 19:25:03 26.2 C 4.92 g/m*3 26.2 C 0 km/h
2617 06-08-2010 19:37:02 26.4 C 4.98 g/m*3 26.4 C 0 km/h
2618 06-08-2010 19:49:03 25.9 C 4.84 g/m*3 25.9 C 0 km/h
2619 06-08-2010 20:01:03 25.7 C 4.79 g/m*3 25.7 C 0 km/h
2620 06-08-2010 20:13:03 25.1 C 5.09 g/m*3 25.1 C 0 km/h
2621 06-08-2010 20:25:03 23.8 C 4.73 g/m*3 23.8 C 0 km/h
2622 06-08-2010 20:37:03 22.5 C 5.79 g/m*3 22.5 C 0 km/h
2623 06-08-2010 20:49:02 21.2 C 5.74 g/m*3 21.2 C 0 km/h
2624 06-08-2010 21:01:02 20.3 C 5.98 g/m*3 20.3 C 0 km/h
2625 06-08-2010 21:13:02 19.5 C 5.87 g/m*3 19.5 C 0 km/h
Sensor: Nr:Datum:Temp:Abs-Feuchte:Windchill:Wind:
Aussen-T/F 2626 06-08-2010 21:25:02 19.1 C 5.9 g/m*3 19.1 C 0 km/h
2627 06-08-2010 21:37:02 18.9 C 6.48 g/m*3 18.9 C 0 km/h
2628 06-08-2010 21:49:02 18.7 C 6.4 g/m*3 18.7 C 0 km/h
2629 06-08-2010 22:01:02 18.3 C 6.41 g/m*3 18.3 C 0 km/h
2630 06-08-2010 22:13:02 18.1 C 6.49 g/m*3 18.1 C 0 km/h
2631 06-08-2010 22:25:01 17.6 C 6.15 g/m*3 17.6 C 0 km/h
2632 06-08-2010 22:38:02 17.4 C 6.22 g/m*3 17.4 C 0 km/h
2633 06-08-2010 22:50:02 17.2 C 6.44 g/m*3 17.2 C 0 km/h
2634 06-08-2010 23:02:02 16.9 C 6.47 g/m*3 16.9 C 0 km/h
2635 06-08-2010 23:14:02 16.6 C 6.5 g/m*3 16.6 C 0 km/h
2636 06-08-2010 23:26:02 16.4 C 6.7 g/m*3 16.4 C 0 km/h
2637 06-08-2010 23:38:02 16.2 C 6.76 g/m*3 16.2 C 0 km/h
2638 06-08-2010 23:50:02 15.9 C 6.91 g/m*3 15.9 C 0 km/h
2639 07-08-2010 00:02:02 15.7 C 6.96 g/m*3 15.7 C 0 km/h
2640 07-08-2010 00:14:02 15.2 C 7.01 g/m*3 15.2 C 0 km/h
2641 07-08-2010 00:26:02 15 C 7.18 g/m*3 15 C 0 km/h
2642 07-08-2010 00:38:02 14.8 C 7.09 g/m*3 14.8 C 0 km/h
2643 07-08-2010 00:50:02 14.5 C 7.46 g/m*3 14.5 C 0 km/h
2644 07-08-2010 01:02:03 14.4 C 7.42 g/m*3 14.4 C 0 km/h
2645 07-08-2010 01:14:03 14 C 7.48 g/m*3 14 C 0 km/h
2646 07-08-2010 01:26:03 14 C 7.48 g/m*3 14 C 0 km/h
2647 07-08-2010 01:38:03 13.8 C 7.63 g/m*3 13.8 C 0 km/h
2648 07-08-2010 01:50:03 13.5 C 7.72 g/m*3 13.5 C 0 km/h
2649 07-08-2010 02:02:03 13.4 C 7.67 g/m*3 13.4 C 0 km/h
2650 07-08-2010 02:14:03 13.2 C 7.92 g/m*3 13.2 C 0 km/h
Sensor: Nr:Datum:Temp:Abs-Feuchte:Windchill:Wind:
Aussen-T/F 2651 07-08-2010 02:26:03 12.9 C 8 g/m*3 12.9 C 0 km/h
2652 07-08-2010 02:38:03 12.8 C 7.95 g/m*3 12.8 C 0 km/h
2653 07-08-2010 02:50:03 12.7 C 7.9 g/m*3 12.7 C 0 km/h
2654 07-08-2010 03:02:03 12.6 C 7.85 g/m*3 12.6 C 0 km/h
2655 07-08-2010 03:14:03 12.5 C 7.7 g/m*3 12.5 C 0 km/h
2656 07-08-2010 03:26:03 12.2 C 7.66 g/m*3 12.2 C 0 km/h
2657 07-08-2010 03:38:03 12.2 C 7.77 g/m*3 12.2 C 0 km/h
2658 07-08-2010 03:50:03 12.1 C 7.72 g/m*3 12.1 C 0 km/h
2659 07-08-2010 04:02:03 11.9 C 7.73 g/m*3 11.9 C 0 km/h
2660 07-08-2010 04:14:03 11.8 C 7.79 g/m*3 11.8 C 0 km/h
2661 07-08-2010 04:26:03 11.6 C 7.69 g/m*3 11.6 C 0 km/h
2662 07-08-2010 04:38:03 11.5 C 7.64 g/m*3 11.5 C 0 km/h
2663 07-08-2010 04:50:03 11.4 C 7.7 g/m*3 11.4 C 0 km/h
2664 07-08-2010 05:02:04 11.3 C 7.65 g/m*3 11.3 C 0 km/h
2665 07-08-2010 05:14:04 11.2 C 7.7 g/m*3 11.2 C 0 km/h
2666 07-08-2010 05:26:04 11.1 C 7.66 g/m*3 11.1 C 0 km/h
2667 07-08-2010 05:38:04 10.9 C 7.66 g/m*3 10.9 C 0 km/h
2668 07-08-2010 05:50:04 10.8 C 7.81 g/m*3 10.8 C 0 km/h
2669 07-08-2010 06:02:04 10.6 C 7.71 g/m*3 10.6 C 0 km/h
2670 07-08-2010 06:14:04 10.5 C 7.76 g/m*3 10.5 C 0 km/h
2671 07-08-2010 06:26:04 10.5 C 7.76 g/m*3 10.5 C 0 km/h
2672 07-08-2010 06:38:04 10.4 C 7.81 g/m*3 10.4 C 0 km/h
2673 07-08-2010 06:50:04 10.4 C 7.81 g/m*3 10.4 C 0 km/h
2674 07-08-2010 07:02:04 10.5 C 7.86 g/m*3 10.5 C 0 km/h
2675 07-08-2010 07:14:04 10.5 C 7.86 g/m*3 10.5 C 0 km/h
Sensor: Nr:Datum:Temp:Abs-Feuchte:Windchill:Wind:
Aussen-T/F 2676 07-08-2010 07:26:04 10.7 C 8.05 g/m*3 10.7 C 0 km/h
2677 07-08-2010 07:38:04 10.8 C 8.01 g/m*3 10.8 C 0 km/h
2678 07-08-2010 07:50:04 11 C 8.01 g/m*3 11 C 0 km/h
2679 07-08-2010 08:02:04 11.2 C 8.01 g/m*3 11.2 C 0 km/h
2680 07-08-2010 08:14:04 11.4 C 8.01 g/m*3 11.4 C 0 km/h
2681 07-08-2010 08:26:04 11.6 C 8 g/m*3 11.6 C 0 km/h
2682 07-08-2010 08:38:04 12 C 8.1 g/m*3 12 C 0 km/h
2683 07-08-2010 08:50:04 12.5 C 8.25 g/m*3 12.5 C 0 km/h
2684 07-08-2010 09:02:01 12.8 C 8.18 g/m*3 12.8 C 0 km/h
2685 07-08-2010 09:14:01 13.4 C 8.25 g/m*3 13.4 C 0 km/h
2686 07-08-2010 09:26:02 14.1 C 8.5 g/m*3 14.1 C 0 km/h
2687 07-08-2010 09:38:01 14.6 C 8.51 g/m*3 14.6 C 0 km/h
2688 07-08-2010 09:50:02 15.4 C 8.54 g/m*3 15.4 C 0 km/h
2689 07-08-2010 10:02:02 16.5 C 8.71 g/m*3 16.5 C 0 km/h
2690 07-08-2010 10:14:02 17.5 C 8.8 g/m*3 17.5 C 0 km/h
2691 07-08-2010 10:26:02 18.5 C 8.86 g/m*3 18.5 C 0 km/h
2692 07-08-2010 10:38:02 19.2 C 8.24 g/m*3 19.2 C 0 km/h
2693 07-08-2010 10:50:02 19.4 C 7.67 g/m*3 19.4 C 0 km/h
2694 07-08-2010 11:02:02 19.8 C 7.17 g/m*3 19.8 C 0 km/h
2695 07-08-2010 11:14:02 20.9 C 6.74 g/m*3 20.9 C 0 km/h
2696 07-08-2010 11:26:01 21.5 C 6.03 g/m*3 21.5 C 0 km/h
2697 07-08-2010 11:38:02 22.1 C 5.66 g/m*3 22.1 C 0 km/h
2698 07-08-2010 11:50:01 22 C 6.02 g/m*3 22 C 0 km/h
2699 07-08-2010 12:02:02 22.2 C 5.89 g/m*3 22.2 C 0 km/h
2700 07-08-2010 12:14:02 22.6 C 5.62 g/m*3 22.6 C 0 km/h
Sensor: Nr:Datum:Temp:Abs-Feuchte:Windchill:Wind:
Aussen-T/F 2701 07-08-2010 12:26:01 22.9 C 5.31 g/m*3 22.9 C 0 km/h
2702 07-08-2010 12:38:01 23 C 5.14 g/m*3 23 C 0 km/h
2703 07-08-2010 12:50:01 23.6 C 5.32 g/m*3 23.6 C 0 km/h
2704 07-08-2010 13:02:02 23.9 C 4.76 g/m*3 23.9 C 0 km/h
2705 07-08-2010 13:14:02 24.8 C 4.78 g/m*3 24.8 C 0 km/h
2706 07-08-2010 13:26:01 25.9 C 4.84 g/m*3 25.9 C 0 km/h
2707 07-08-2010 13:38:02 26.6 C 5.03 g/m*3 26.6 C 0 km/h
2708 07-08-2010 13:50:02 26.2 C 4.92 g/m*3 26.2 C 0 km/h
2709 07-08-2010 14:02:02 26.7 C 5.06 g/m*3 26.7 C 0 km/h
2710 07-08-2010 14:14:02 26.6 C 5.03 g/m*3 26.6 C 0 km/h
2711 07-08-2010 14:26:02 26.5 C 5.01 g/m*3 26.5 C 0 km/h
2712 07-08-2010 14:38:02 26.5 C 5.01 g/m*3 26.5 C 0 km/h
2713 07-08-2010 14:50:02 27 C 5.15 g/m*3 27 C 0 km/h
2714 07-08-2010 15:02:02 26.9 C 5.12 g/m*3 26.9 C 0 km/h
2715 07-08-2010 15:14:02 27.2 C 5.2 g/m*3 27.2 C 0 km/h
2716 07-08-2010 15:26:02 27.7 C 5.35 g/m*3 27.7 C 0 km/h
2717 07-08-2010 15:38:02 28.8 C 5.68 g/m*3 28.8 C 0 km/h
2718 07-08-2010 15:50:02 28.3 C 5.53 g/m*3 28.3 C 0 km/h
2719 07-08-2010 16:02:02 28.5 C 5.59 g/m*3 28.5 C 0 km/h
2720 07-08-2010 16:14:03 28.7 C 5.65 g/m*3 28.7 C 0 km/h
2721 07-08-2010 16:26:01 29.5 C 5.9 g/m*3 29.5 C 0 km/h
2722 07-08-2010 16:38:02 30.1 C 6.1 g/m*3 30.1 C 0 km/h
2723 07-08-2010 16:50:02 29.2 C 5.81 g/m*3 29.2 C 0 km/h
2724 07-08-2010 17:02:02 29.5 C 5.9 g/m*3 29.5 C 0 km/h
2725 07-08-2010 17:14:02 29.5 C 5.9 g/m*3 29.5 C 0 km/h
Sensor: Nr:Datum:Temp:Abs-Feuchte:Windchill:Wind:
Aussen-T/F 2726 07-08-2010 17:26:02 29.1 C 5.78 g/m*3 29.1 C 0 km/h
2727 07-08-2010 17:38:02 29.9 C 6.03 g/m*3 29.9 C 0 km/h
2728 07-08-2010 17:50:02 28.5 C 5.59 g/m*3 28.5 C 0 km/h
2729 07-08-2010 18:02:02 28.2 C 5.5 g/m*3 28.2 C 0 km/h
2730 07-08-2010 18:14:02 27.9 C 5.95 g/m*3 27.9 C 0 km/h
2731 07-08-2010 18:26:02 27.3 C 6.8 g/m*3 27.3 C 0 km/h
2732 07-08-2010 18:38:02 26.9 C 6.14 g/m*3 26.9 C 0 km/h
2733 07-08-2010 18:50:02 26.7 C 6.83 g/m*3 26.7 C 0 km/h
2734 07-08-2010 19:02:01 26.1 C 6.61 g/m*3 26.1 C 0 km/h
2735 07-08-2010 19:14:01 25.6 C 7.14 g/m*3 25.6 C 0 km/h
2736 07-08-2010 19:26:02 24.8 C 6.83 g/m*3 24.8 C 0 km/h
2737 07-08-2010 19:38:01 24.7 C 6.79 g/m*3 24.7 C 0 km/h
2738 07-08-2010 19:50:02 24.6 C 6.75 g/m*3 24.6 C 0 km/h
2739 07-08-2010 20:02:01 24.7 C 6.79 g/m*3 24.7 C 0 km/h
2740 07-08-2010 20:14:01 24.2 C 7.04 g/m*3 24.2 C 0 km/h
2741 07-08-2010 20:26:01 23.7 C 6.84 g/m*3 23.7 C 0 km/h
2742 07-08-2010 20:38:02 23.5 C 7.19 g/m*3 23.5 C 0 km/h
2743 07-08-2010 20:50:02 23.2 C 7.07 g/m*3 23.2 C 0 km/h
2744 07-08-2010 21:02:02 22.9 C 7.15 g/m*3 22.9 C 0 km/h
2745 07-08-2010 21:14:02 22.4 C 7.35 g/m*3 22.4 C 0 km/h
2746 07-08-2010 21:26:02 22.3 C 6.91 g/m*3 22.3 C 0 km/h
2747 07-08-2010 21:38:02 22.3 C 6.91 g/m*3 22.3 C 0 km/h
2748 07-08-2010 21:50:02 22.4 C 6.95 g/m*3 22.4 C 0 km/h
2749 07-08-2010 22:02:02 22.2 C 7.07 g/m*3 22.2 C 0 km/h
2750 07-08-2010 22:14:02 22 C 6.99 g/m*3 22 C 0 km/h
Sensor: Nr:Datum:Temp:Abs-Feuchte:Windchill:Wind:
Aussen-T/F 2751 07-08-2010 22:26:02 21.8 C 7.48 g/m*3 21.8 C 0 km/h
2752 07-08-2010 22:38:02 21.9 C 7.72 g/m*3 21.9 C 0 km/h
2753 07-08-2010 22:50:02 21.9 C 7.72 g/m*3 21.9 C 0 km/h
2754 07-08-2010 23:02:01 21.8 C 7.67 g/m*3 21.8 C 0 km/h
2755 07-08-2010 23:14:01 21.7 C 7.63 g/m*3 21.7 C 0 km/h
2756 07-08-2010 23:26:02 21.7 C 7.82 g/m*3 21.7 C 0 km/h
2757 07-08-2010 23:38:02 21.4 C 7.69 g/m*3 21.4 C 0 km/h
2758 07-08-2010 23:50:02 21.4 C 7.87 g/m*3 21.4 C 0 km/h
2759 08-08-2010 00:02:02 21.3 C 8.02 g/m*3 21.3 C 0 km/h
2760 08-08-2010 00:14:02 21.2 C 7.78 g/m*3 21.2 C 0 km/h
2761 08-08-2010 00:26:02 21.1 C 8.11 g/m*3 21.1 C 0 km/h
2762 08-08-2010 00:38:01 20.9 C 8.38 g/m*3 20.9 C 0 km/h
2763 08-08-2010 00:50:03 20.7 C 8.28 g/m*3 20.7 C 0 km/h
2764 08-08-2010 01:02:02 20.4 C 8.31 g/m*3 20.4 C 0 km/h
2765 08-08-2010 01:14:02 20.4 C 8.14 g/m*3 20.4 C 0 km/h
2766 08-08-2010 01:26:02 20.1 C 8.34 g/m*3 20.1 C 0 km/h
2767 08-08-2010 01:38:02 19.9 C 8.59 g/m*3 19.9 C 0 km/h
2768 08-08-2010 01:50:02 20 C 8.81 g/m*3 20 C 0 km/h
2769 08-08-2010 02:02:01 20.1 C 8.87 g/m*3 20.1 C 0 km/h
2770 08-08-2010 02:14:01 20.1 C 9.04 g/m*3 20.1 C 0 km/h
2771 08-08-2010 02:26:02 19.7 C 9.68 g/m*3 19.7 C 0 km/h
2772 08-08-2010 02:38:02 19.6 C 9.79 g/m*3 19.6 C 0 km/h
2773 08-08-2010 02:50:01 19.6 C 9.79 g/m*3 19.6 C 0 km/h
2774 08-08-2010 03:02:01 19.3 C 9.79 g/m*3 19.3 C 0 km/h
2775 08-08-2010 03:14:02 18.7 C 9.93 g/m*3 18.7 C 0 km/h
Sensor: Nr:Datum:Temp:Abs-Feuchte:Windchill:Wind:
Aussen-T/F 2776 08-08-2010 03:26:02 18.5 C 10.13 g/m*3 18.5 C 0 km/h
2777 08-08-2010 03:38:01 18.4 C 10.07 g/m*3 18.4 C 0 km/h
2778 08-08-2010 03:50:01 18.5 C 10.13 g/m*3 18.5 C 0 km/h
2779 08-08-2010 04:02:01 18.5 C 10.13 g/m*3 18.5 C 0 km/h
2780 08-08-2010 04:14:01 18.4 C 10.38 g/m*3 18.4 C 0 km/h
2781 08-08-2010 04:26:02 18.3 C 10.48 g/m*3 18.3 C 0 km/h
2782 08-08-2010 04:38:01 18.3 C 10.48 g/m*3 18.3 C 0 km/h
2783 08-08-2010 04:50:02 18.3 C 10.48 g/m*3 18.3 C 0 km/h
2784 08-08-2010 05:02:01 18.2 C 10.57 g/m*3 18.2 C 0 km/h
2785 08-08-2010 05:14:01 17.7 C 11.16 g/m*3 17.7 C 0 km/h
2786 08-08-2010 05:26:02 17.5 C 11.48 g/m*3 17.5 C 0 km/h
2787 08-08-2010 05:38:01 17.4 C 12 g/m*3 17.4 C 0 km/h
2788 08-08-2010 05:50:02 17 C 12.01 g/m*3 17 C 0 km/h
2789 08-08-2010 06:02:01 16.9 C 12.37 g/m*3 16.9 C 0 km/h
2790 08-08-2010 06:14:01 16.6 C 12.29 g/m*3 16.6 C 0 km/h
2791 08-08-2010 06:26:01 16.6 C 12.43 g/m*3 16.6 C 0 km/h
2792 08-08-2010 06:38:02 16.6 C 12.57 g/m*3 16.6 C 0 km/h
2793 08-08-2010 06:50:01 16.7 C 12.79 g/m*3 16.7 C 0 km/h
2794 08-08-2010 07:02:02 16.5 C 12.64 g/m*3 16.5 C 0 km/h
2795 08-08-2010 07:14:02 16.4 C 12.7 g/m*3 16.4 C 0 km/h
2796 08-08-2010 07:26:01 16.6 C 13 g/m*3 16.6 C 0 km/h
2797 08-08-2010 07:38:02 16.8 C 13.15 g/m*3 16.8 C 0 km/h
2798 08-08-2010 07:50:01 17 C 13.31 g/m*3 17 C 0 km/h
2799 08-08-2010 08:02:02 17 C 13.31 g/m*3 17 C 0 km/h
2800 08-08-2010 08:14:02 17 C 13.31 g/m*3 17 C 0 km/h
Sensor: Nr:Datum:Temp:Abs-Feuchte:Windchill:Wind:
Aussen-T/F 2801 08-08-2010 08:26:01 17.3 C 13.55 g/m*3 17.3 C 0 km/h
2802 08-08-2010 08:38:02 17.2 C 13.47 g/m*3 17.2 C 0 km/h
2803 08-08-2010 08:50:01 17.5 C 13.72 g/m*3 17.5 C 0 km/h
2804 08-08-2010 09:02:02 17.6 C 13.65 g/m*3 17.6 C 0 km/h
2805 08-08-2010 09:14:02 17.5 C 13.42 g/m*3 17.5 C 0 km/h
2806 08-08-2010 09:26:01 17.5 C 13.27 g/m*3 17.5 C 0 km/h
2807 08-08-2010 09:38:01 17.6 C 13.2 g/m*3 17.6 C 0 km/h
2808 08-08-2010 09:50:01 18 C 13.21 g/m*3 18 C 0 km/h
2809 08-08-2010 10:02:01 18 C 12.75 g/m*3 18 C 0 km/h
2810 08-08-2010 10:14:01 18.1 C 12.67 g/m*3 18.1 C 0 km/h
2811 08-08-2010 10:26:02 18.5 C 12.82 g/m*3 18.5 C 0 km/h
2812 08-08-2010 10:38:01 19 C 12.55 g/m*3 19 C 0 km/h
2813 08-08-2010 10:50:02 18.7 C 12.49 g/m*3 18.7 C 0 km/h
2814 08-08-2010 11:02:01 17.1 C 11.94 g/m*3 17.1 C 0 km/h
2815 08-08-2010 11:14:01 16.5 C 12.08 g/m*3 16.5 C 0 km/h
2816 08-08-2010 11:26:02 16.4 C 12.28 g/m*3 16.4 C 0 km/h
2817 08-08-2010 11:38:01 16.1 C 12.06 g/m*3 16.1 C 0 km/h
2818 08-08-2010 11:50:02 16.3 C 12.35 g/m*3 16.3 C 0 km/h
2819 08-08-2010 12:02:01 16.2 C 12.27 g/m*3 16.2 C 0 km/h
2820 08-08-2010 12:14:01 16.5 C 12.5 g/m*3 16.5 C 0 km/h
2821 08-08-2010 12:26:01 16.6 C 12.57 g/m*3 16.6 C 0 km/h
2822 08-08-2010 12:38:01 17.1 C 12.96 g/m*3 17.1 C 0 km/h
2823 08-08-2010 12:50:02 16.5 C 12.5 g/m*3 16.5 C 0 km/h
2824 08-08-2010 13:02:02 16.5 C 12.64 g/m*3 16.5 C 0 km/h
2825 08-08-2010 13:14:02 16.4 C 12.56 g/m*3 16.4 C 0 km/h
Sensor: Nr:Datum:Temp:Abs-Feuchte:Windchill:Wind:
Aussen-T/F 2826 08-08-2010 13:26:01 16.5 C 12.64 g/m*3 16.5 C 0 km/h
2827 08-08-2010 13:38:03 17.9 C 13.59 g/m*3 17.9 C 0 km/h
2828 08-08-2010 13:50:01 18.5 C 12.82 g/m*3 18.5 C 0 km/h
2829 08-08-2010 14:02:01 18.7 C 12.65 g/m*3 18.7 C 0 km/h
2830 08-08-2010 14:14:01 18.9 C 12.47 g/m*3 18.9 C 0 km/h
2831 08-08-2010 14:26:02 18.9 C 12.64 g/m*3 18.9 C 0 km/h
2832 08-08-2010 14:38:01 19.2 C 12.37 g/m*3 19.2 C 0 km/h
2833 08-08-2010 14:50:02 19.2 C 12.7 g/m*3 19.2 C 0 km/h
2834 08-08-2010 15:02:01 18.9 C 12.8 g/m*3 18.9 C 0 km/h
2835 08-08-2010 15:14:01 19.5 C 12.59 g/m*3 19.5 C 0 km/h
2836 08-08-2010 15:26:02 20.2 C 12.41 g/m*3 20.2 C 0 km/h
2837 08-08-2010 15:38:01 21 C 13.19 g/m*3 21 C 0 km/h
2838 08-08-2010 15:50:02 21.3 C 11.37 g/m*3 21.3 C 0 km/h
2839 08-08-2010 16:02:01 20.7 C 11.88 g/m*3 20.7 C 0 km/h
2840 08-08-2010 16:14:01 20 C 12.27 g/m*3 20 C 0 km/h
2841 08-08-2010 16:26:01 19.5 C 12.42 g/m*3 19.5 C 0 km/h
2842 08-08-2010 16:38:02 19.6 C 12.49 g/m*3 19.6 C 0 km/h
2843 08-08-2010 16:50:01 19.9 C 12.71 g/m*3 19.9 C 0 km/h
2844 08-08-2010 17:02:02 21.4 C 11.81 g/m*3 21.4 C 0 km/h
2845 08-08-2010 17:14:02 21.3 C 12.3 g/m*3 21.3 C 0 km/h
2846 08-08-2010 17:26:01 21.4 C 12.37 g/m*3 21.4 C 0 km/h
2847 08-08-2010 17:38:02 22 C 12.23 g/m*3 22 C 0 km/h
2848 08-08-2010 17:50:01 22.3 C 11.26 g/m*3 22.3 C 0 km/h
2849 08-08-2010 18:02:02 22.2 C 9.42 g/m*3 22.2 C 0 km/h
2850 08-08-2010 18:14:02 21.3 C 9.88 g/m*3 21.3 C 0 km/h
Sensor: Nr:Datum:Temp:Abs-Feuchte:Windchill:Wind:
Aussen-T/F 2851 08-08-2010 18:27:01 21.2 C 9.82 g/m*3 21.2 C 0 km/h
2852 08-08-2010 18:38:01 20.9 C 10.56 g/m*3 20.9 C 0 km/h
2853 08-08-2010 18:51:01 21.5 C 11.31 g/m*3 21.5 C 0 km/h
2854 08-08-2010 19:03:01 21.7 C 9.92 g/m*3 21.7 C 0 km/h
2855 08-08-2010 19:14:02 20.8 C 10.5 g/m*3 20.8 C 0 km/h
2856 08-08-2010 19:26:02 20 C 10.71 g/m*3 20 C 0 km/h
2857 08-08-2010 19:39:01 19 C 10.76 g/m*3 19 C 0 km/h
2858 08-08-2010 19:50:02 18.4 C 11.64 g/m*3 18.4 C 0 km/h
2859 08-08-2010 20:03:01 18.1 C 11.9 g/m*3 18.1 C 0 km/h
2860 08-08-2010 20:15:01 17.7 C 11.92 g/m*3 17.7 C 0 km/h
2861 08-08-2010 20:27:02 17.5 C 11.78 g/m*3 17.5 C 0 km/h
2862 08-08-2010 20:39:01 17.6 C 11.85 g/m*3 17.6 C 0 km/h
2863 08-08-2010 20:51:02 17.7 C 11.62 g/m*3 17.7 C 0 km/h
2864 08-08-2010 21:03:01 17.7 C 11.62 g/m*3 17.7 C 0 km/h
2865 08-08-2010 21:15:01 17.6 C 11.4 g/m*3 17.6 C 0 km/h
2866 08-08-2010 21:27:01 17.5 C 11.33 g/m*3 17.5 C 0 km/h
2867 08-08-2010 21:39:01 17.3 C 11.34 g/m*3 17.3 C 0 km/h
2868 08-08-2010 21:51:01 17.2 C 11.42 g/m*3 17.2 C 0 km/h
2869 08-08-2010 22:03:01 17.2 C 11.42 g/m*3 17.2 C 0 km/h
2870 08-08-2010 22:15:01 17.2 C 11.42 g/m*3 17.2 C 0 km/h
2871 08-08-2010 22:27:01 17.1 C 11.5 g/m*3 17.1 C 0 km/h
2872 08-08-2010 22:39:01 17.1 C 11.5 g/m*3 17.1 C 0 km/h
2873 08-08-2010 22:51:01 16.9 C 11.65 g/m*3 16.9 C 0 km/h
2874 08-08-2010 23:03:01 17 C 11.43 g/m*3 17 C 0 km/h
2875 08-08-2010 23:15:01 16.9 C 11.65 g/m*3 16.9 C 0 km/h
Sensor: Nr:Datum:Temp:Abs-Feuchte:Windchill:Wind:
Aussen-T/F 2876 08-08-2010 23:27:01 16.6 C 11.58 g/m*3 16.6 C 0 km/h
2877 08-08-2010 23:39:01 16.5 C 11.8 g/m*3 16.5 C 0 km/h
2878 08-08-2010 23:51:01 16.5 C 11.94 g/m*3 16.5 C 0 km/h
2879 09-08-2010 00:03:01 16.4 C 11.86 g/m*3 16.4 C 0 km/h
2880 09-08-2010 00:15:02 16.4 C 12 g/m*3 16.4 C 0 km/h
2881 09-08-2010 00:27:02 16.4 C 12 g/m*3 16.4 C 0 km/h
2882 09-08-2010 00:39:02 16.4 C 12.14 g/m*3 16.4 C 0 km/h
2883 09-08-2010 00:51:02 16.5 C 12.22 g/m*3 16.5 C 0 km/h
2884 09-08-2010 01:03:02 16.5 C 12.22 g/m*3 16.5 C 0 km/h
2885 09-08-2010 01:15:02 16.5 C 12.22 g/m*3 16.5 C 0 km/h
2886 09-08-2010 01:27:02 16.5 C 12.22 g/m*3 16.5 C 0 km/h
2887 09-08-2010 01:39:02 16.4 C 12.14 g/m*3 16.4 C 0 km/h
2888 09-08-2010 01:51:02 16.3 C 12.07 g/m*3 16.3 C 0 km/h
2889 09-08-2010 02:03:02 16 C 11.85 g/m*3 16 C 0 km/h
2890 09-08-2010 02:15:02 15.7 C 11.77 g/m*3 15.7 C 0 km/h
2891 09-08-2010 02:27:02 15.6 C 11.7 g/m*3 15.6 C 0 km/h
2892 09-08-2010 02:39:02 15.4 C 11.56 g/m*3 15.4 C 0 km/h
2893 09-08-2010 02:51:02 15.3 C 11.49 g/m*3 15.3 C 0 km/h
2894 09-08-2010 03:03:02 15.3 C 11.49 g/m*3 15.3 C 0 km/h
2895 09-08-2010 03:15:02 15.4 C 11.69 g/m*3 15.4 C 0 km/h
2896 09-08-2010 03:27:02 15.7 C 11.91 g/m*3 15.7 C 0 km/h
2897 09-08-2010 03:39:02 15.8 C 11.85 g/m*3 15.8 C 0 km/h
2898 09-08-2010 03:51:02 15.8 C 11.58 g/m*3 15.8 C 0 km/h
2899 09-08-2010 04:03:02 15.9 C 11.51 g/m*3 15.9 C 0 km/h
2900 09-08-2010 04:15:02 15.8 C 11.31 g/m*3 15.8 C 0 km/h
Sensor: Nr:Datum:Temp:Abs-Feuchte:Windchill:Wind:
Aussen-T/F 2901 09-08-2010 04:27:03 15.7 C 11.37 g/m*3 15.7 C 0 km/h
2902 09-08-2010 04:39:03 15.7 C 11.37 g/m*3 15.7 C 0 km/h
2903 09-08-2010 04:51:03 15.6 C 11.44 g/m*3 15.6 C 0 km/h
2904 09-08-2010 05:03:03 15.4 C 11.17 g/m*3 15.4 C 0 km/h
2905 09-08-2010 05:15:03 15 C 10.9 g/m*3 15 C 0 km/h
2906 09-08-2010 05:27:03 14.8 C 11.02 g/m*3 14.8 C 0 km/h
2907 09-08-2010 05:39:03 14.5 C 10.82 g/m*3 14.5 C 0 km/h
2908 09-08-2010 05:51:03 14.5 C 10.94 g/m*3 14.5 C 0 km/h
2909 09-08-2010 06:03:03 14.5 C 11.07 g/m*3 14.5 C 0 km/h
2910 09-08-2010 06:15:03 14.6 C 11.26 g/m*3 14.6 C 0 km/h
2911 09-08-2010 06:27:03 14.7 C 11.46 g/m*3 14.7 C 0 km/h
2912 09-08-2010 06:39:03 14.6 C 11.39 g/m*3 14.6 C 0 km/h
2913 09-08-2010 06:51:03 14.6 C 11.39 g/m*3 14.6 C 0 km/h
2914 09-08-2010 07:03:02 14.5 C 11.32 g/m*3 14.5 C 0 km/h
2915 09-08-2010 07:15:02 14.6 C 11.39 g/m*3 14.6 C 0 km/h
2916 09-08-2010 07:27:02 14.6 C 11.39 g/m*3 14.6 C 0 km/h
2917 09-08-2010 07:39:02 14.6 C 11.26 g/m*3 14.6 C 0 km/h
2918 09-08-2010 07:51:02 14.7 C 11.33 g/m*3 14.7 C 0 km/h
2919 09-08-2010 08:03:01 15 C 11.28 g/m*3 15 C 0 km/h
2920 09-08-2010 08:15:01 15 C 11.16 g/m*3 15 C 0 km/h
2921 09-08-2010 08:27:01 15.2 C 11.03 g/m*3 15.2 C 0 km/h
2922 09-08-2010 08:39:01 15.4 C 10.9 g/m*3 15.4 C 0 km/h
2923 09-08-2010 08:51:01 15.5 C 10.84 g/m*3 15.5 C 0 km/h
2924 09-08-2010 09:03:02 15.5 C 10.84 g/m*3 15.5 C 0 km/h
2925 09-08-2010 09:15:01 15.7 C 10.97 g/m*3 15.7 C 0 km/h
Sensor: Nr:Datum:Temp:Abs-Feuchte:Windchill:Wind:
Aussen-T/F 2926 09-08-2010 09:27:01 15.9 C 10.83 g/m*3 15.9 C 0 km/h
2927 09-08-2010 09:39:01 16 C 10.63 g/m*3 16 C 0 km/h
2928 09-08-2010 09:51:02 15.9 C 10.83 g/m*3 15.9 C 0 km/h
2929 09-08-2010 10:03:02 16.3 C 10.82 g/m*3 16.3 C 0 km/h
2930 09-08-2010 10:15:02 16.7 C 10.8 g/m*3 16.7 C 0 km/h
2931 09-08-2010 10:27:02 17.2 C 10.84 g/m*3 17.2 C 0 km/h
2932 09-08-2010 10:39:02 17.9 C 10.54 g/m*3 17.9 C 0 km/h
2933 09-08-2010 10:51:02 18.9 C 9.56 g/m*3 18.9 C 0 km/h
2934 09-08-2010 11:03:02 19.4 C 9.51 g/m*3 19.4 C 0 km/h
2935 09-08-2010 11:15:02 19.1 C 9.18 g/m*3 19.1 C 0 km/h
2936 09-08-2010 11:27:02 19.4 C 9.34 g/m*3 19.4 C 0 km/h
2937 09-08-2010 11:39:02 20.3 C 9.32 g/m*3 20.3 C 0 km/h
2938 09-08-2010 11:51:01 19.8 C 8.88 g/m*3 19.8 C 0 km/h
2939 09-08-2010 12:03:02 20.6 C 8.95 g/m*3 20.6 C 0 km/h
2940 09-08-2010 12:15:02 20.9 C 8.74 g/m*3 20.9 C 0 km/h
2941 09-08-2010 12:27:02 21.2 C 8.71 g/m*3 21.2 C 0 km/h
2942 09-08-2010 12:39:02 21.8 C 8.44 g/m*3 21.8 C 0 km/h
2943 09-08-2010 12:51:02 22 C 8.15 g/m*3 22 C 0 km/h
2944 09-08-2010 13:03:01 22.2 C 8.83 g/m*3 22.2 C 0 km/h
2945 09-08-2010 13:15:02 23.5 C 8.88 g/m*3 23.5 C 0 km/h
2946 09-08-2010 13:27:02 25.1 C 7.87 g/m*3 25.1 C 0 km/h
2947 09-08-2010 13:39:01 25.6 C 7.38 g/m*3 25.6 C 0 km/h
2948 09-08-2010 13:51:02 25.4 C 7.53 g/m*3 25.4 C 0 km/h
2949 09-08-2010 14:03:02 24.6 C 7.65 g/m*3 24.6 C 0 km/h
2950 09-08-2010 14:15:02 24 C 7.61 g/m*3 24 C 0 km/h
Sensor: Nr:Datum:Temp:Abs-Feuchte:Windchill:Wind:
Aussen-T/F 2951 09-08-2010 14:27:02 23.7 C 7.91 g/m*3 23.7 C 0 km/h
2952 09-08-2010 14:39:03 23.7 C 7.91 g/m*3 23.7 C 0 km/h
2953 09-08-2010 14:51:02 24.5 C 8.06 g/m*3 24.5 C 0 km/h
2954 09-08-2010 15:03:02 25.1 C 7.87 g/m*3 25.1 C 0 km/h
2955 09-08-2010 15:15:01 24.8 C 7.74 g/m*3 24.8 C 0 km/h
2956 09-08-2010 15:27:01 25.4 C 7.53 g/m*3 25.4 C 0 km/h
2957 09-08-2010 15:39:02 25.9 C 7.26 g/m*3 25.9 C 0 km/h
2958 09-08-2010 15:51:02 26.5 C 7.51 g/m*3 26.5 C 0 km/h
2959 09-08-2010 16:03:02 26.9 C 6.91 g/m*3 26.9 C 0 km/h
2960 09-08-2010 16:15:01 26.6 C 6.54 g/m*3 26.6 C 0 km/h
2961 09-08-2010 16:27:01 26.4 C 6.72 g/m*3 26.4 C 0 km/h
2962 09-08-2010 16:39:02 25.7 C 6.22 g/m*3 25.7 C 0 km/h
2963 09-08-2010 16:51:02 25.3 C 7.73 g/m*3 25.3 C 0 km/h
2964 09-08-2010 17:03:02 25.3 C 8.43 g/m*3 25.3 C 0 km/h
2965 09-08-2010 17:15:02 25.7 C 8.62 g/m*3 25.7 C 0 km/h
2966 09-08-2010 17:27:02 25.5 C 8.76 g/m*3 25.5 C 0 km/h
2967 09-08-2010 17:39:02 26.4 C 7.22 g/m*3 26.4 C 0 km/h
2968 09-08-2010 17:51:02 28.2 C 7.15 g/m*3 28.2 C 0 km/h
2969 09-08-2010 18:03:02 28.9 C 7.14 g/m*3 28.9 C 0 km/h
2970 09-08-2010 18:15:02 28.2 C 8.25 g/m*3 28.2 C 0 km/h
2971 09-08-2010 18:27:03 27.9 C 7.84 g/m*3 27.9 C 0 km/h
2972 09-08-2010 18:39:02 27.1 C 8.02 g/m*3 27.1 C 0 km/h
2973 09-08-2010 18:51:02 25.4 C 8 g/m*3 25.4 C 0 km/h
2974 09-08-2010 19:03:01 24.6 C 8.33 g/m*3 24.6 C 0 km/h
2975 09-08-2010 19:15:02 24.1 C 8.75 g/m*3 24.1 C 0 km/h
Sensor: Nr:Datum:Temp:Abs-Feuchte:Windchill:Wind:
Aussen-T/F 2976 09-08-2010 19:27:02 23.6 C 9.15 g/m*3 23.6 C 0 km/h
2977 09-08-2010 19:39:02 22.8 C 8.94 g/m*3 22.8 C 0 km/h
2978 09-08-2010 19:51:02 22.5 C 8.79 g/m*3 22.5 C 0 km/h
2979 09-08-2010 20:03:03 22 C 8.73 g/m*3 22 C 0 km/h
2980 09-08-2010 20:15:02 21.6 C 8.72 g/m*3 21.6 C 0 km/h
2981 09-08-2010 20:27:02 21.4 C 8.62 g/m*3 21.4 C 0 km/h
2982 09-08-2010 20:39:02 20.9 C 8.38 g/m*3 20.9 C 0 km/h
2983 09-08-2010 20:51:01 20.4 C 8.31 g/m*3 20.4 C 0 km/h
2984 09-08-2010 21:03:02 20.2 C 8.74 g/m*3 20.2 C 0 km/h
2985 09-08-2010 21:15:01 20 C 8.47 g/m*3 20 C 0 km/h
2986 09-08-2010 21:27:01 19.8 C 8.88 g/m*3 19.8 C 0 km/h
2987 09-08-2010 21:39:01 19.6 C 8.95 g/m*3 19.6 C 0 km/h
2988 09-08-2010 21:51:01 19.2 C 8.9 g/m*3 19.2 C 0 km/h
2989 09-08-2010 22:03:01 18.9 C 8.91 g/m*3 18.9 C 0 km/h
2990 09-08-2010 22:15:02 18.9 C 8.91 g/m*3 18.9 C 0 km/h
2991 09-08-2010 22:27:03 18.7 C 9.13 g/m*3 18.7 C 0 km/h
2992 09-08-2010 22:39:02 18.5 C 9.02 g/m*3 18.5 C 0 km/h
2993 09-08-2010 22:52:02 18.2 C 8.86 g/m*3 18.2 C 0 km/h
2994 09-08-2010 23:04:02 18.2 C 9.01 g/m*3 18.2 C 0 km/h
2995 09-08-2010 23:16:03 18.1 C 9.12 g/m*3 18.1 C 0 km/h
2996 09-08-2010 23:28:03 18.1 C 9.27 g/m*3 18.1 C 0 km/h
2997 09-08-2010 23:40:03 18.1 C 9.43 g/m*3 18.1 C 0 km/h
2998 09-08-2010 23:52:03 18.1 C 9.43 g/m*3 18.1 C 0 km/h
2999 10-08-2010 00:04:03 17.9 C 9.47 g/m*3 17.9 C 0 km/h
3000 10-08-2010 00:16:03 17.7 C 9.81 g/m*3 17.7 C 0 km/h
Sensor: Nr:Datum:Temp:Abs-Feuchte:Windchill:Wind:
Aussen-T/F 3001 10-08-2010 00:28:03 17.5 C 9.84 g/m*3 17.5 C 0 km/h
3002 10-08-2010 00:40:03 17.5 C 9.69 g/m*3 17.5 C 0 km/h
3003 10-08-2010 00:52:03 17.5 C 10.14 g/m*3 17.5 C 0 km/h
3004 10-08-2010 01:04:03 17.5 C 10.29 g/m*3 17.5 C 0 km/h
3005 10-08-2010 01:16:03 17.5 C 10.14 g/m*3 17.5 C 0 km/h
3006 10-08-2010 01:28:03 17.6 C 10.05 g/m*3 17.6 C 0 km/h
3007 10-08-2010 01:40:03 17.5 C 10.14 g/m*3 17.5 C 0 km/h
3008 10-08-2010 01:52:03 17.5 C 10.14 g/m*3 17.5 C 0 km/h
3009 10-08-2010 02:04:03 17.5 C 9.99 g/m*3 17.5 C 0 km/h
3010 10-08-2010 02:16:03 17.5 C 10.14 g/m*3 17.5 C 0 km/h
3011 10-08-2010 02:28:03 17.4 C 10.08 g/m*3 17.4 C 0 km/h
3012 10-08-2010 02:40:03 17.3 C 10.02 g/m*3 17.3 C 0 km/h
3013 10-08-2010 02:52:03 17.2 C 9.96 g/m*3 17.2 C 0 km/h
3014 10-08-2010 03:04:03 17.2 C 9.96 g/m*3 17.2 C 0 km/h
3015 10-08-2010 03:16:03 17.2 C 10.1 g/m*3 17.2 C 0 km/h
3016 10-08-2010 03:28:03 17.1 C 10.04 g/m*3 17.1 C 0 km/h
3017 10-08-2010 03:40:04 17.2 C 10.1 g/m*3 17.2 C 0 km/h
3018 10-08-2010 03:52:04 17 C 10.27 g/m*3 17 C 0 km/h
3019 10-08-2010 04:04:04 16.9 C 10.36 g/m*3 16.9 C 0 km/h
3020 10-08-2010 04:16:04 16.9 C 10.21 g/m*3 16.9 C 0 km/h
3021 10-08-2010 04:28:04 16.9 C 10.21 g/m*3 16.9 C 0 km/h
3022 10-08-2010 04:40:04 16.9 C 10.21 g/m*3 16.9 C 0 km/h
3023 10-08-2010 04:52:04 16.7 C 10.23 g/m*3 16.7 C 0 km/h
3024 10-08-2010 05:04:04 16.3 C 9.99 g/m*3 16.3 C 0 km/h
3025 10-08-2010 05:16:04 15.9 C 10.02 g/m*3 15.9 C 0 km/h
Sensor: Nr:Datum:Temp:Abs-Feuchte:Windchill:Wind:
Aussen-T/F 3026 10-08-2010 05:28:04 15.6 C 10.24 g/m*3 15.6 C 0 km/h
3027 10-08-2010 05:40:04 15.3 C 10.19 g/m*3 15.3 C 0 km/h
3028 10-08-2010 05:52:04 15 C 10 g/m*3 15 C 0 km/h
3029 10-08-2010 06:04:04 14.9 C 10.07 g/m*3 14.9 C 0 km/h
3030 10-08-2010 06:16:04 14.7 C 9.95 g/m*3 14.7 C 0 km/h
3031 10-08-2010 06:28:04 14.6 C 9.89 g/m*3 14.6 C 0 km/h
3032 10-08-2010 06:40:04 14.6 C 9.89 g/m*3 14.6 C 0 km/h
3033 10-08-2010 06:52:02 14.5 C 9.83 g/m*3 14.5 C 0 km/h
3034 10-08-2010 07:04:02 14.7 C 10.2 g/m*3 14.7 C 0 km/h
3035 10-08-2010 07:16:02 14.7 C 10.2 g/m*3 14.7 C 0 km/h
3036 10-08-2010 07:28:02 14.8 C 10.26 g/m*3 14.8 C 0 km/h
3037 10-08-2010 07:40:01 15 C 10.39 g/m*3 15 C 0 km/h
3038 10-08-2010 07:52:03 15.2 C 10.51 g/m*3 15.2 C 0 km/h
3039 10-08-2010 08:04:02 15.4 C 10.64 g/m*3 15.4 C 0 km/h
3040 10-08-2010 08:16:02 15.5 C 10.57 g/m*3 15.5 C 0 km/h
3041 10-08-2010 08:28:02 15.8 C 10.77 g/m*3 15.8 C 0 km/h
3042 10-08-2010 08:40:03 16.1 C 10.69 g/m*3 16.1 C 0 km/h
3043 10-08-2010 08:52:02 16.4 C 10.89 g/m*3 16.4 C 0 km/h
3044 10-08-2010 09:04:02 17.2 C 10.98 g/m*3 17.2 C 0 km/h
3045 10-08-2010 09:16:02 18.1 C 10.51 g/m*3 18.1 C 0 km/h
3046 10-08-2010 09:28:02 18.2 C 10.41 g/m*3 18.2 C 0 km/h
3047 10-08-2010 09:40:03 18.5 C 10.44 g/m*3 18.5 C 0 km/h
3048 10-08-2010 09:52:02 19 C 10.59 g/m*3 19 C 0 km/h
3049 10-08-2010 10:04:02 19.3 C 10.62 g/m*3 19.3 C 0 km/h
3050 10-08-2010 10:16:01 20.1 C 10.78 g/m*3 20.1 C 0 km/h
Sensor: Nr:Datum:Temp:Abs-Feuchte:Windchill:Wind:
Aussen-T/F 3051 10-08-2010 10:28:01 20.9 C 11.11 g/m*3 20.9 C 0 km/h
3052 10-08-2010 10:40:02 21.8 C 11.32 g/m*3 21.8 C 0 km/h
3053 10-08-2010 10:52:01 22.5 C 11.19 g/m*3 22.5 C 0 km/h
3054 10-08-2010 11:04:02 22.9 C 11.44 g/m*3 22.9 C 0 km/h
3055 10-08-2010 11:16:02 23.4 C 11.14 g/m*3 23.4 C 0 km/h
3056 10-08-2010 11:28:02 23.7 C 9.2 g/m*3 23.7 C 0 km/h
3057 10-08-2010 11:40:01 24.1 C 7.88 g/m*3 24.1 C 0 km/h
3058 10-08-2010 11:52:01 24.6 C 7.65 g/m*3 24.6 C 0 km/h
3059 10-08-2010 12:04:01 25.1 C 7.18 g/m*3 25.1 C 0 km/h
3060 10-08-2010 12:16:02 25.4 C 6.59 g/m*3 25.4 C 0 km/h
3061 10-08-2010 12:28:02 25.9 C 7.02 g/m*3 25.9 C 0 km/h
3062 10-08-2010 12:40:01 26.4 C 6.72 g/m*3 26.4 C 0 km/h
3063 10-08-2010 12:52:03 26.7 C 6.58 g/m*3 26.7 C 0 km/h
3064 10-08-2010 13:04:02 27 C 6.43 g/m*3 27 C 0 km/h
3065 10-08-2010 13:16:02 27.8 C 5.92 g/m*3 27.8 C 0 km/h
3066 10-08-2010 13:28:02 28.6 C 5.9 g/m*3 28.6 C 0 km/h
3067 10-08-2010 13:40:02 28.7 C 5.93 g/m*3 28.7 C 0 km/h
3068 10-08-2010 13:52:02 28.7 C 5.65 g/m*3 28.7 C 0 km/h
3069 10-08-2010 14:04:01 28.9 C 5.71 g/m*3 28.9 C 0 km/h
3070 10-08-2010 14:16:02 29.3 C 6.13 g/m*3 29.3 C 0 km/h
3071 10-08-2010 14:28:02 29.1 C 5.78 g/m*3 29.1 C 0 km/h
3072 10-08-2010 14:40:02 29.1 C 6.06 g/m*3 29.1 C 0 km/h
3073 10-08-2010 14:52:01 28.8 C 7.39 g/m*3 28.8 C 0 km/h
3074 10-08-2010 15:04:02 28.9 C 6.57 g/m*3 28.9 C 0 km/h
3075 10-08-2010 15:16:01 28.6 C 7.03 g/m*3 28.6 C 0 km/h
Sensor: Nr:Datum:Temp:Abs-Feuchte:Windchill:Wind:
Aussen-T/F 3076 10-08-2010 15:28:01 28.2 C 7.7 g/m*3 28.2 C 0 km/h
3077 10-08-2010 15:40:01 28.3 C 8.29 g/m*3 28.3 C 0 km/h
3078 10-08-2010 15:52:01 28.3 C 7.19 g/m*3 28.3 C 0 km/h
3079 10-08-2010 16:04:01 29.1 C 7.8 g/m*3 29.1 C 0 km/h
3080 10-08-2010 16:16:02 30.1 C 6.4 g/m*3 30.1 C 0 km/h
3081 10-08-2010 16:28:02 30 C 6.06 g/m*3 30 C 0 km/h
3082 10-08-2010 16:40:01 30.2 C 6.13 g/m*3 30.2 C 0 km/h
3083 10-08-2010 16:52:02 30 C 6.06 g/m*3 30 C 0 km/h
3084 10-08-2010 17:04:02 30.1 C 6.71 g/m*3 30.1 C 0 km/h
3085 10-08-2010 17:16:02 30.1 C 6.4 g/m*3 30.1 C 0 km/h
3086 10-08-2010 17:28:02 30.2 C 6.13 g/m*3 30.2 C 0 km/h
3087 10-08-2010 17:40:01 29.6 C 6.53 g/m*3 29.6 C 0 km/h
3088 10-08-2010 17:52:02 29.7 C 6.56 g/m*3 29.7 C 0 km/h
3089 10-08-2010 18:04:01 30.2 C 6.13 g/m*3 30.2 C 0 km/h
3090 10-08-2010 18:16:02 31 C 6.72 g/m*3 31 C 0 km/h
3091 10-08-2010 18:28:02 29.2 C 6.68 g/m*3 29.2 C 0 km/h
3092 10-08-2010 18:40:02 28.9 C 6.86 g/m*3 28.9 C 0 km/h
3093 10-08-2010 18:52:02 29.1 C 7.22 g/m*3 29.1 C 0 km/h
3094 10-08-2010 19:04:03 28.4 C 7.23 g/m*3 28.4 C 0 km/h
3095 10-08-2010 19:16:02 27.5 C 7.94 g/m*3 27.5 C 0 km/h
3096 10-08-2010 19:28:02 26.8 C 8.4 g/m*3 26.8 C 0 km/h
3097 10-08-2010 19:40:03 26.3 C 8.42 g/m*3 26.3 C 0 km/h
3098 10-08-2010 19:52:02 25.7 C 8.62 g/m*3 25.7 C 0 km/h
3099 10-08-2010 20:04:02 25.3 C 8.19 g/m*3 25.3 C 0 km/h
3100 10-08-2010 20:16:01 25.1 C 8.33 g/m*3 25.1 C 0 km/h
Sensor: Nr:Datum:Temp:Abs-Feuchte:Windchill:Wind:
Aussen-T/F 3101 10-08-2010 20:28:01 24.7 C 8.37 g/m*3 24.7 C 0 km/h
3102 10-08-2010 20:40:02 24.6 C 8.33 g/m*3 24.6 C 0 km/h
3103 10-08-2010 20:52:01 24.1 C 8.1 g/m*3 24.1 C 0 km/h
3104 10-08-2010 21:04:02 23.8 C 9.03 g/m*3 23.8 C 0 km/h
3105 10-08-2010 21:16:02 23.4 C 8.41 g/m*3 23.4 C 0 km/h
3106 10-08-2010 21:28:02 23.3 C 8.78 g/m*3 23.3 C 0 km/h
3107 10-08-2010 21:40:02 23.2 C 9.15 g/m*3 23.2 C 0 km/h
3108 10-08-2010 21:53:07 23.1 C 8.48 g/m*3 23.1 C 0 km/h
3109 10-08-2010 22:05:07 23.3 C 8.99 g/m*3 23.3 C 0 km/h
3110 10-08-2010 22:17:07 23.1 C 8.48 g/m*3 23.1 C 0 km/h
3111 10-08-2010 22:29:07 23 C 8.63 g/m*3 23 C 0 km/h
3112 10-08-2010 22:41:07 22.7 C 9.29 g/m*3 22.7 C 0 km/h
3113 10-08-2010 22:53:07 22.2 C 9.23 g/m*3 22.2 C 0 km/h
3114 10-08-2010 23:05:07 22.1 C 9.37 g/m*3 22.1 C 0 km/h
3115 10-08-2010 23:17:07 21.9 C 9.26 g/m*3 21.9 C 0 km/h
3116 10-08-2010 23:29:07 22 C 8.93 g/m*3 22 C 0 km/h
3117 10-08-2010 23:41:07 21.8 C 9.21 g/m*3 21.8 C 0 km/h
3118 10-08-2010 23:53:08 21.7 C 9.54 g/m*3 21.7 C 0 km/h
3119 11-08-2010 00:05:08 21.6 C 9.48 g/m*3 21.6 C 0 km/h
3120 11-08-2010 00:17:08 21.5 C 9.62 g/m*3 21.5 C 0 km/h
3121 11-08-2010 00:29:08 21.5 C 9.81 g/m*3 21.5 C 0 km/h
3122 11-08-2010 00:41:08 21.4 C 9.75 g/m*3 21.4 C 0 km/h
3123 11-08-2010 00:53:08 21.3 C 9.69 g/m*3 21.3 C 0 km/h
3124 11-08-2010 01:05:08 21.1 C 9.95 g/m*3 21.1 C 0 km/h
3125 11-08-2010 01:17:08 20.9 C 10.2 g/m*3 20.9 C 0 km/h
Sensor: Nr:Datum:Temp:Abs-Feuchte:Windchill:Wind:
Aussen-T/F 3126 11-08-2010 01:29:08 20.6 C 10.56 g/m*3 20.6 C 0 km/h
3127 11-08-2010 01:41:08 20.1 C 10.95 g/m*3 20.1 C 0 km/h
3128 11-08-2010 01:53:08 20 C 11.06 g/m*3 20 C 0 km/h
3129 11-08-2010 02:05:08 19.4 C 11.51 g/m*3 19.4 C 0 km/h
3130 11-08-2010 02:17:08 18.5 C 12.02 g/m*3 18.5 C 0 km/h
3131 11-08-2010 02:29:08 18.1 C 12.36 g/m*3 18.1 C 0 km/h
3132 11-08-2010 02:41:08 18 C 12.59 g/m*3 18 C 0 km/h
3133 11-08-2010 02:53:08 17.9 C 12.98 g/m*3 17.9 C 0 km/h
3134 11-08-2010 03:05:08 17.7 C 12.98 g/m*3 17.7 C 0 km/h
3135 11-08-2010 03:17:08 17.7 C 13.13 g/m*3 17.7 C 0 km/h
3136 11-08-2010 03:29:08 17.7 C 13.13 g/m*3 17.7 C 0 km/h
3137 11-08-2010 03:41:08 17.5 C 13.12 g/m*3 17.5 C 0 km/h
3138 11-08-2010 03:53:08 17.6 C 13.35 g/m*3 17.6 C 0 km/h
3139 11-08-2010 04:05:08 17.5 C 13.27 g/m*3 17.5 C 0 km/h
3140 11-08-2010 04:17:08 17.6 C 13.5 g/m*3 17.6 C 0 km/h
3141 11-08-2010 04:29:09 17.5 C 13.42 g/m*3 17.5 C 0 km/h
3142 11-08-2010 04:41:09 17.6 C 13.5 g/m*3 17.6 C 0 km/h
3143 11-08-2010 04:53:09 17.4 C 13.34 g/m*3 17.4 C 0 km/h
3144 11-08-2010 05:05:09 17.4 C 13.34 g/m*3 17.4 C 0 km/h
3145 11-08-2010 05:17:09 17.5 C 13.27 g/m*3 17.5 C 0 km/h
3146 11-08-2010 05:29:09 17.3 C 13.11 g/m*3 17.3 C 0 km/h
3147 11-08-2010 05:41:09 17.4 C 13.19 g/m*3 17.4 C 0 km/h
3148 11-08-2010 05:53:09 17.5 C 13.27 g/m*3 17.5 C 0 km/h
3149 11-08-2010 06:05:09 17.4 C 13.19 g/m*3 17.4 C 0 km/h
3150 11-08-2010 06:17:09 17.4 C 13.04 g/m*3 17.4 C 0 km/h
Sensor: Nr:Datum:Temp:Abs-Feuchte:Windchill:Wind:
Aussen-T/F 3151 11-08-2010 06:29:09 17.4 C 13.04 g/m*3 17.4 C 0 km/h
3152 11-08-2010 06:41:02 17.4 C 13.04 g/m*3 17.4 C 0 km/h
3153 11-08-2010 06:53:02 17.4 C 12.89 g/m*3 17.4 C 0 km/h
3154 11-08-2010 07:05:02 17.4 C 12.89 g/m*3 17.4 C 0 km/h
3155 11-08-2010 07:17:02 17.5 C 12.97 g/m*3 17.5 C 0 km/h
3156 11-08-2010 07:29:03 17.6 C 13.05 g/m*3 17.6 C 0 km/h
3157 11-08-2010 07:41:01 17.7 C 13.13 g/m*3 17.7 C 0 km/h
3158 11-08-2010 07:53:02 17.9 C 13.13 g/m*3 17.9 C 0 km/h
3159 11-08-2010 08:05:01 18.1 C 13.13 g/m*3 18.1 C 0 km/h
3160 11-08-2010 08:17:01 18.6 C 13.53 g/m*3 18.6 C 0 km/h
3161 11-08-2010 08:29:01 18.7 C 13.29 g/m*3 18.7 C 0 km/h
3162 11-08-2010 08:41:01 18.9 C 12.96 g/m*3 18.9 C 0 km/h
3163 11-08-2010 08:53:01 19.1 C 12.13 g/m*3 19.1 C 0 km/h
3164 11-08-2010 09:05:01 19.5 C 12.08 g/m*3 19.5 C 0 km/h
3165 11-08-2010 09:17:01 19.8 C 11.61 g/m*3 19.8 C 0 km/h
3166 11-08-2010 09:29:01 19.7 C 11.55 g/m*3 19.7 C 0 km/h
3167 11-08-2010 09:41:01 19.7 C 11.21 g/m*3 19.7 C 0 km/h
3168 11-08-2010 09:53:02 19.5 C 11.08 g/m*3 19.5 C 0 km/h
3169 11-08-2010 10:05:02 20 C 11.23 g/m*3 20 C 0 km/h
3170 11-08-2010 10:17:02 20.9 C 11.29 g/m*3 20.9 C 0 km/h
3171 11-08-2010 10:29:02 21.2 C 10.93 g/m*3 21.2 C 0 km/h
3172 11-08-2010 10:41:02 21.1 C 11.06 g/m*3 21.1 C 0 km/h
3173 11-08-2010 10:53:01 20.8 C 10.86 g/m*3 20.8 C 0 km/h
3174 11-08-2010 11:05:01 20.7 C 11.16 g/m*3 20.7 C 0 km/h
3175 11-08-2010 11:17:02 20.4 C 11.14 g/m*3 20.4 C 0 km/h
Sensor: Nr:Datum:Temp:Abs-Feuchte:Windchill:Wind:
Aussen-T/F 3176 11-08-2010 11:29:02 20.5 C 11.21 g/m*3 20.5 C 0 km/h
3177 11-08-2010 11:41:01 20.4 C 11.14 g/m*3 20.4 C 0 km/h
3178 11-08-2010 11:53:02 21.1 C 11.24 g/m*3 21.1 C 0 km/h
3179 11-08-2010 12:05:01 21.8 C 11.13 g/m*3 21.8 C 0 km/h
3180 11-08-2010 12:17:02 22.1 C 11.13 g/m*3 22.1 C 0 km/h
3181 11-08-2010 12:29:03 22.5 C 10.99 g/m*3 22.5 C 0 km/h
3182 11-08-2010 12:41:01 22.8 C 10.97 g/m*3 22.8 C 0 km/h
3183 11-08-2010 12:53:02 23.1 C 10.75 g/m*3 23.1 C 0 km/h
3184 11-08-2010 13:05:02 23.5 C 10.79 g/m*3 23.5 C 0 km/h
3185 11-08-2010 13:17:02 23.3 C 10.25 g/m*3 23.3 C 0 km/h
3186 11-08-2010 13:29:02 24 C 10.44 g/m*3 24 C 0 km/h
3187 11-08-2010 13:41:03 24.1 C 10.28 g/m*3 24.1 C 0 km/h
3188 11-08-2010 13:53:02 24.1 C 10.06 g/m*3 24.1 C 0 km/h
3189 11-08-2010 14:05:02 24.2 C 10.12 g/m*3 24.2 C 0 km/h
3190 11-08-2010 14:17:01 24.8 C 10.02 g/m*3 24.8 C 0 km/h
3191 11-08-2010 14:29:01 24.2 C 9.68 g/m*3 24.2 C 0 km/h
3192 11-08-2010 14:41:02 24.2 C 10.34 g/m*3 24.2 C 0 km/h
3193 11-08-2010 14:53:02 24.6 C 10.35 g/m*3 24.6 C 0 km/h
3194 11-08-2010 15:05:01 24.8 C 10.02 g/m*3 24.8 C 0 km/h
3195 11-08-2010 15:17:01 25 C 10.13 g/m*3 25 C 0 km/h
3196 11-08-2010 15:29:01 25.9 C 10.17 g/m*3 25.9 C 0 km/h
3197 11-08-2010 15:41:02 26.6 C 9.57 g/m*3 26.6 C 0 km/h
3198 11-08-2010 15:53:02 25.5 C 9.47 g/m*3 25.5 C 0 km/h
3199 11-08-2010 16:05:02 25.2 C 9.78 g/m*3 25.2 C 0 km/h
3200 11-08-2010 16:17:02 24.3 C 9.96 g/m*3 24.3 C 0 km/h
Sensor: Nr:Datum:Temp:Abs-Feuchte:Windchill:Wind:
Aussen-T/F 3201 11-08-2010 16:29:02 23.2 C 11.02 g/m*3 23.2 C 0 km/h
3202 11-08-2010 16:41:02 20.5 C 13.35 g/m*3 20.5 C 0 km/h
3203 11-08-2010 16:53:02 21.2 C 14.64 g/m*3 21.2 C 0 km/h
3204 11-08-2010 17:05:02 21.6 C 14.41 g/m*3 21.6 C 0 km/h
3205 11-08-2010 17:17:02 21.6 C 14.41 g/m*3 21.6 C 0 km/h
3206 11-08-2010 17:29:02 22.1 C 14.05 g/m*3 22.1 C 0 km/h
3207 11-08-2010 17:41:02 21.3 C 12.86 g/m*3 21.3 C 0 km/h
3208 11-08-2010 17:53:02 22.1 C 14.25 g/m*3 22.1 C 0 km/h
3209 11-08-2010 18:05:02 22.5 C 14.18 g/m*3 22.5 C 0 km/h
3210 11-08-2010 18:17:03 22.9 C 14.71 g/m*3 22.9 C 0 km/h
3211 11-08-2010 18:29:03 23.3 C 14.43 g/m*3 23.3 C 0 km/h
3212 11-08-2010 18:41:02 23 C 13.98 g/m*3 23 C 0 km/h
3213 11-08-2010 18:53:03 22.6 C 14.26 g/m*3 22.6 C 0 km/h
3214 11-08-2010 19:05:02 21.9 C 13.89 g/m*3 21.9 C 0 km/h
3215 11-08-2010 19:17:02 21.5 C 13.77 g/m*3 21.5 C 0 km/h
3216 11-08-2010 19:29:02 21.2 C 13.71 g/m*3 21.2 C 0 km/h
3217 11-08-2010 19:41:02 21 C 13.56 g/m*3 21 C 0 km/h
3218 11-08-2010 19:53:02 20.8 C 13.58 g/m*3 20.8 C 0 km/h
3219 11-08-2010 20:05:01 20.4 C 13.27 g/m*3 20.4 C 0 km/h
3220 11-08-2010 20:17:02 20 C 13.31 g/m*3 20 C 0 km/h
3221 11-08-2010 20:29:02 19.8 C 13.66 g/m*3 19.8 C 0 km/h
3222 11-08-2010 20:41:02 18.9 C 13.61 g/m*3 18.9 C 0 km/h
3223 11-08-2010 20:53:01 18.7 C 13.93 g/m*3 18.7 C 0 km/h
3224 11-08-2010 21:05:02 19 C 14.34 g/m*3 19 C 0 km/h
3225 11-08-2010 21:17:01 18.9 C 14.42 g/m*3 18.9 C 0 km/h
Sensor: Nr:Datum:Temp:Abs-Feuchte:Windchill:Wind:
Aussen-T/F 3226 11-08-2010 21:29:01 18.9 C 14.42 g/m*3 18.9 C 0 km/h
3227 11-08-2010 21:41:02 18.9 C